<?xml version="1.0" encoding="UTF-8" standalone="no" ?>
<gpx xmlns="http://www.topografix.com/GPX/1/1" xmlns:xsi="http://www.w3.org/2001/XMLSchema-instance" xsi:schemaLocation="http://www.topografix.com/GPX/1/1 http://www.topografix.com/GPX/1/1/gpx.xsd" version="1.1" creator="VisuGPX - https://www.visugpx.com">
  <metadata>
    <name>Vendredi 20 février 2026</name>
  </metadata>
  <trk>
    <name><![CDATA[LAGUNAK 516-23351096]]></name>
    <trkseg>
      <trkpt lat="43.38664" lon="-1.65626">
        <ele>5</ele>
        <time>2026-02-12T12:05:28Z</time>
      </trkpt>
      <trkpt lat="43.38661" lon="-1.6563">
        <ele>5</ele>
        <time>2026-02-12T12:05:29Z</time>
      </trkpt>
      <trkpt lat="43.38666" lon="-1.65627">
        <ele>6</ele>
        <time>2026-02-12T12:05:30Z</time>
      </trkpt>
      <trkpt lat="43.38668" lon="-1.65621">
        <ele>6</ele>
        <time>2026-02-12T12:05:31Z</time>
      </trkpt>
      <trkpt lat="43.38666" lon="-1.65615">
        <ele>5</ele>
        <time>2026-02-12T12:05:31Z</time>
      </trkpt>
      <trkpt lat="43.38634" lon="-1.65573">
        <ele>5</ele>
        <time>2026-02-12T12:05:39Z</time>
      </trkpt>
      <trkpt lat="43.38628" lon="-1.65567">
        <ele>5</ele>
        <time>2026-02-12T12:05:41Z</time>
      </trkpt>
      <trkpt lat="43.38621" lon="-1.65568">
        <ele>4</ele>
        <time>2026-02-12T12:05:42Z</time>
      </trkpt>
      <trkpt lat="43.38516" lon="-1.65703">
        <ele>3</ele>
        <time>2026-02-12T12:06:07Z</time>
      </trkpt>
      <trkpt lat="43.38506" lon="-1.65722">
        <ele>3</ele>
        <time>2026-02-12T12:06:10Z</time>
      </trkpt>
      <trkpt lat="43.38505" lon="-1.6572">
        <ele>3</ele>
        <time>2026-02-12T12:06:11Z</time>
      </trkpt>
      <trkpt lat="43.38496" lon="-1.65729">
        <ele>3</ele>
        <time>2026-02-12T12:06:13Z</time>
      </trkpt>
      <trkpt lat="43.38406" lon="-1.65851">
        <ele>4</ele>
        <time>2026-02-12T12:06:35Z</time>
      </trkpt>
      <trkpt lat="43.38363" lon="-1.65905">
        <ele>5</ele>
        <time>2026-02-12T12:06:46Z</time>
      </trkpt>
      <trkpt lat="43.38344" lon="-1.65937">
        <ele>6</ele>
        <time>2026-02-12T12:06:51Z</time>
      </trkpt>
      <trkpt lat="43.38338" lon="-1.6594">
        <ele>6</ele>
        <time>2026-02-12T12:06:52Z</time>
      </trkpt>
      <trkpt lat="43.38332" lon="-1.65938">
        <ele>6</ele>
        <time>2026-02-12T12:06:53Z</time>
      </trkpt>
      <trkpt lat="43.38313" lon="-1.65909">
        <ele>5</ele>
        <time>2026-02-12T12:06:58Z</time>
      </trkpt>
      <trkpt lat="43.38301" lon="-1.65898">
        <ele>4</ele>
        <time>2026-02-12T12:07:01Z</time>
      </trkpt>
      <trkpt lat="43.38284" lon="-1.65905">
        <ele>3</ele>
        <time>2026-02-12T12:07:04Z</time>
      </trkpt>
      <trkpt lat="43.38265" lon="-1.65922">
        <ele>2</ele>
        <time>2026-02-12T12:07:08Z</time>
      </trkpt>
      <trkpt lat="43.3827" lon="-1.65916">
        <ele>2</ele>
        <time>2026-02-12T12:07:09Z</time>
      </trkpt>
      <trkpt lat="43.38298" lon="-1.65897">
        <ele>4</ele>
        <time>2026-02-12T12:07:15Z</time>
      </trkpt>
      <trkpt lat="43.3823" lon="-1.65722">
        <ele>3</ele>
        <time>2026-02-12T12:07:40Z</time>
      </trkpt>
      <trkpt lat="43.38226" lon="-1.65703">
        <ele>3</ele>
        <time>2026-02-12T12:07:43Z</time>
      </trkpt>
      <trkpt lat="43.38227" lon="-1.65684">
        <ele>3</ele>
        <time>2026-02-12T12:07:45Z</time>
      </trkpt>
      <trkpt lat="43.38233" lon="-1.65668">
        <ele>4</ele>
        <time>2026-02-12T12:07:48Z</time>
      </trkpt>
      <trkpt lat="43.38257" lon="-1.65633">
        <ele>4</ele>
        <time>2026-02-12T12:07:54Z</time>
      </trkpt>
      <trkpt lat="43.38281" lon="-1.65609">
        <ele>3</ele>
        <time>2026-02-12T12:07:59Z</time>
      </trkpt>
      <trkpt lat="43.38343" lon="-1.65521">
        <ele>4</ele>
        <time>2026-02-12T12:08:15Z</time>
      </trkpt>
      <trkpt lat="43.38344" lon="-1.65511">
        <ele>4</ele>
        <time>2026-02-12T12:08:16Z</time>
      </trkpt>
      <trkpt lat="43.3834" lon="-1.65501">
        <ele>4</ele>
        <time>2026-02-12T12:08:18Z</time>
      </trkpt>
      <trkpt lat="43.38319" lon="-1.65469">
        <ele>4</ele>
        <time>2026-02-12T12:08:23Z</time>
      </trkpt>
      <trkpt lat="43.38319" lon="-1.6546">
        <ele>4</ele>
        <time>2026-02-12T12:08:25Z</time>
      </trkpt>
      <trkpt lat="43.38322" lon="-1.65451">
        <ele>4</ele>
        <time>2026-02-12T12:08:26Z</time>
      </trkpt>
      <trkpt lat="43.38339" lon="-1.65427">
        <ele>5</ele>
        <time>2026-02-12T12:08:30Z</time>
      </trkpt>
      <trkpt lat="43.38384" lon="-1.65335">
        <ele>6</ele>
        <time>2026-02-12T12:08:45Z</time>
      </trkpt>
      <trkpt lat="43.38388" lon="-1.65324">
        <ele>7</ele>
        <time>2026-02-12T12:08:46Z</time>
      </trkpt>
      <trkpt lat="43.3839" lon="-1.65302">
        <ele>9</ele>
        <time>2026-02-12T12:08:49Z</time>
      </trkpt>
      <trkpt lat="43.38386" lon="-1.65281">
        <ele>11</ele>
        <time>2026-02-12T12:08:52Z</time>
      </trkpt>
      <trkpt lat="43.38374" lon="-1.65263">
        <ele>12</ele>
        <time>2026-02-12T12:08:55Z</time>
      </trkpt>
      <trkpt lat="43.38354" lon="-1.6524">
        <ele>12</ele>
        <time>2026-02-12T12:09:00Z</time>
      </trkpt>
      <trkpt lat="43.38327" lon="-1.65188">
        <ele>11</ele>
        <time>2026-02-12T12:09:08Z</time>
      </trkpt>
      <trkpt lat="43.38322" lon="-1.65157">
        <ele>11</ele>
        <time>2026-02-12T12:09:12Z</time>
      </trkpt>
      <trkpt lat="43.38282" lon="-1.65048">
        <ele>9</ele>
        <time>2026-02-12T12:09:28Z</time>
      </trkpt>
      <trkpt lat="43.38276" lon="-1.6504">
        <ele>9</ele>
        <time>2026-02-12T12:09:29Z</time>
      </trkpt>
      <trkpt lat="43.38269" lon="-1.65038">
        <ele>8</ele>
        <time>2026-02-12T12:09:31Z</time>
      </trkpt>
      <trkpt lat="43.3826" lon="-1.65024">
        <ele>8</ele>
        <time>2026-02-12T12:09:33Z</time>
      </trkpt>
      <trkpt lat="43.38264" lon="-1.65006">
        <ele>8</ele>
        <time>2026-02-12T12:09:35Z</time>
      </trkpt>
      <trkpt lat="43.38263" lon="-1.64995">
        <ele>8</ele>
        <time>2026-02-12T12:09:37Z</time>
      </trkpt>
      <trkpt lat="43.38251" lon="-1.64954">
        <ele>8</ele>
        <time>2026-02-12T12:09:43Z</time>
      </trkpt>
      <trkpt lat="43.38248" lon="-1.64936">
        <ele>8</ele>
        <time>2026-02-12T12:09:45Z</time>
      </trkpt>
      <trkpt lat="43.38248" lon="-1.64912">
        <ele>8</ele>
        <time>2026-02-12T12:09:48Z</time>
      </trkpt>
      <trkpt lat="43.3827" lon="-1.64687">
        <ele>6</ele>
        <time>2026-02-12T12:10:17Z</time>
      </trkpt>
      <trkpt lat="43.38277" lon="-1.64546">
        <ele>9</ele>
        <time>2026-02-12T12:10:36Z</time>
      </trkpt>
      <trkpt lat="43.38271" lon="-1.64439">
        <ele>8</ele>
        <time>2026-02-12T12:10:50Z</time>
      </trkpt>
      <trkpt lat="43.38259" lon="-1.64381">
        <ele>7</ele>
        <time>2026-02-12T12:10:57Z</time>
      </trkpt>
      <trkpt lat="43.38243" lon="-1.64337">
        <ele>5</ele>
        <time>2026-02-12T12:11:04Z</time>
      </trkpt>
      <trkpt lat="43.38222" lon="-1.64302">
        <ele>5</ele>
        <time>2026-02-12T12:11:10Z</time>
      </trkpt>
      <trkpt lat="43.38193" lon="-1.6427">
        <ele>5</ele>
        <time>2026-02-12T12:11:16Z</time>
      </trkpt>
      <trkpt lat="43.38136" lon="-1.64218">
        <ele>6</ele>
        <time>2026-02-12T12:11:28Z</time>
      </trkpt>
      <trkpt lat="43.38123" lon="-1.64203">
        <ele>6</ele>
        <time>2026-02-12T12:11:31Z</time>
      </trkpt>
      <trkpt lat="43.38066" lon="-1.64079">
        <ele>8</ele>
        <time>2026-02-12T12:11:50Z</time>
      </trkpt>
      <trkpt lat="43.38046" lon="-1.64051">
        <ele>9</ele>
        <time>2026-02-12T12:11:55Z</time>
      </trkpt>
      <trkpt lat="43.38016" lon="-1.64021">
        <ele>8</ele>
        <time>2026-02-12T12:12:02Z</time>
      </trkpt>
      <trkpt lat="43.3791" lon="-1.63926">
        <ele>6</ele>
        <time>2026-02-12T12:12:25Z</time>
      </trkpt>
      <trkpt lat="43.37778" lon="-1.63793">
        <ele>8</ele>
        <time>2026-02-12T12:12:54Z</time>
      </trkpt>
      <trkpt lat="43.37761" lon="-1.63782">
        <ele>8</ele>
        <time>2026-02-12T12:12:57Z</time>
      </trkpt>
      <trkpt lat="43.37742" lon="-1.63777">
        <ele>8</ele>
        <time>2026-02-12T12:13:00Z</time>
      </trkpt>
      <trkpt lat="43.37636" lon="-1.63783">
        <ele>6</ele>
        <time>2026-02-12T12:13:19Z</time>
      </trkpt>
      <trkpt lat="43.37628" lon="-1.63786">
        <ele>6</ele>
        <time>2026-02-12T12:13:21Z</time>
      </trkpt>
      <trkpt lat="43.37614" lon="-1.63798">
        <ele>5</ele>
        <time>2026-02-12T12:13:24Z</time>
      </trkpt>
      <trkpt lat="43.37555" lon="-1.63803">
        <ele>5</ele>
        <time>2026-02-12T12:13:34Z</time>
      </trkpt>
      <trkpt lat="43.37547" lon="-1.63805">
        <ele>5</ele>
        <time>2026-02-12T12:13:36Z</time>
      </trkpt>
      <trkpt lat="43.37534" lon="-1.63816">
        <ele>4</ele>
        <time>2026-02-12T12:13:38Z</time>
      </trkpt>
      <trkpt lat="43.37528" lon="-1.63818">
        <ele>4</ele>
        <time>2026-02-12T12:13:39Z</time>
      </trkpt>
      <trkpt lat="43.37514" lon="-1.63815">
        <ele>4</ele>
        <time>2026-02-12T12:13:42Z</time>
      </trkpt>
      <trkpt lat="43.37508" lon="-1.63802">
        <ele>4</ele>
        <time>2026-02-12T12:13:44Z</time>
      </trkpt>
      <trkpt lat="43.37502" lon="-1.63799">
        <ele>4</ele>
        <time>2026-02-12T12:13:45Z</time>
      </trkpt>
      <trkpt lat="43.37476" lon="-1.63797">
        <ele>4</ele>
        <time>2026-02-12T12:13:50Z</time>
      </trkpt>
      <trkpt lat="43.37443" lon="-1.63798">
        <ele>4</ele>
        <time>2026-02-12T12:13:56Z</time>
      </trkpt>
      <trkpt lat="43.37401" lon="-1.63794">
        <ele>4</ele>
        <time>2026-02-12T12:14:03Z</time>
      </trkpt>
      <trkpt lat="43.37137" lon="-1.63811">
        <ele>5</ele>
        <time>2026-02-12T12:14:50Z</time>
      </trkpt>
      <trkpt lat="43.37074" lon="-1.63812">
        <ele>5</ele>
        <time>2026-02-12T12:15:01Z</time>
      </trkpt>
      <trkpt lat="43.37061" lon="-1.63808">
        <ele>5</ele>
        <time>2026-02-12T12:15:04Z</time>
      </trkpt>
      <trkpt lat="43.37002" lon="-1.63763">
        <ele>5</ele>
        <time>2026-02-12T12:15:16Z</time>
      </trkpt>
      <trkpt lat="43.36773" lon="-1.63613">
        <ele>6</ele>
        <time>2026-02-12T12:16:01Z</time>
      </trkpt>
      <trkpt lat="43.36739" lon="-1.63596">
        <ele>7</ele>
        <time>2026-02-12T12:16:07Z</time>
      </trkpt>
      <trkpt lat="43.36696" lon="-1.63583">
        <ele>8</ele>
        <time>2026-02-12T12:16:15Z</time>
      </trkpt>
      <trkpt lat="43.36658" lon="-1.63579">
        <ele>8</ele>
        <time>2026-02-12T12:16:22Z</time>
      </trkpt>
      <trkpt lat="43.36618" lon="-1.63584">
        <ele>6</ele>
        <time>2026-02-12T12:16:29Z</time>
      </trkpt>
      <trkpt lat="43.36483" lon="-1.63628">
        <ele>4</ele>
        <time>2026-02-12T12:16:54Z</time>
      </trkpt>
      <trkpt lat="43.36392" lon="-1.63662">
        <ele>7</ele>
        <time>2026-02-12T12:17:11Z</time>
      </trkpt>
      <trkpt lat="43.36334" lon="-1.63675">
        <ele>7</ele>
        <time>2026-02-12T12:17:21Z</time>
      </trkpt>
      <trkpt lat="43.36309" lon="-1.63677">
        <ele>7</ele>
        <time>2026-02-12T12:17:25Z</time>
      </trkpt>
      <trkpt lat="43.36274" lon="-1.63675">
        <ele>6</ele>
        <time>2026-02-12T12:17:32Z</time>
      </trkpt>
      <trkpt lat="43.36226" lon="-1.63661">
        <ele>6</ele>
        <time>2026-02-12T12:17:40Z</time>
      </trkpt>
      <trkpt lat="43.36207" lon="-1.63654">
        <ele>6</ele>
        <time>2026-02-12T12:17:44Z</time>
      </trkpt>
      <trkpt lat="43.36178" lon="-1.63639">
        <ele>6</ele>
        <time>2026-02-12T12:17:49Z</time>
      </trkpt>
      <trkpt lat="43.36101" lon="-1.63609">
        <ele>5</ele>
        <time>2026-02-12T12:18:04Z</time>
      </trkpt>
      <trkpt lat="43.36072" lon="-1.63592">
        <ele>5</ele>
        <time>2026-02-12T12:18:09Z</time>
      </trkpt>
      <trkpt lat="43.36047" lon="-1.63565">
        <ele>5</ele>
        <time>2026-02-12T12:18:15Z</time>
      </trkpt>
      <trkpt lat="43.36023" lon="-1.63526">
        <ele>6</ele>
        <time>2026-02-12T12:18:22Z</time>
      </trkpt>
      <trkpt lat="43.35984" lon="-1.63437">
        <ele>8</ele>
        <time>2026-02-12T12:18:35Z</time>
      </trkpt>
      <trkpt lat="43.35939" lon="-1.63368">
        <ele>9</ele>
        <time>2026-02-12T12:18:47Z</time>
      </trkpt>
      <trkpt lat="43.35924" lon="-1.63349">
        <ele>8</ele>
        <time>2026-02-12T12:18:51Z</time>
      </trkpt>
      <trkpt lat="43.35889" lon="-1.63312">
        <ele>9</ele>
        <time>2026-02-12T12:18:58Z</time>
      </trkpt>
      <trkpt lat="43.35777" lon="-1.63212">
        <ele>8</ele>
        <time>2026-02-12T12:19:22Z</time>
      </trkpt>
      <trkpt lat="43.35746" lon="-1.63194">
        <ele>7</ele>
        <time>2026-02-12T12:19:28Z</time>
      </trkpt>
      <trkpt lat="43.357" lon="-1.63174">
        <ele>6</ele>
        <time>2026-02-12T12:19:37Z</time>
      </trkpt>
      <trkpt lat="43.35677" lon="-1.63168">
        <ele>6</ele>
        <time>2026-02-12T12:19:41Z</time>
      </trkpt>
      <trkpt lat="43.35657" lon="-1.63168">
        <ele>6</ele>
        <time>2026-02-12T12:19:45Z</time>
      </trkpt>
      <trkpt lat="43.35639" lon="-1.63158">
        <ele>6</ele>
        <time>2026-02-12T12:19:48Z</time>
      </trkpt>
      <trkpt lat="43.3559" lon="-1.63146">
        <ele>5</ele>
        <time>2026-02-12T12:19:57Z</time>
      </trkpt>
      <trkpt lat="43.35421" lon="-1.63092">
        <ele>7</ele>
        <time>2026-02-12T12:20:28Z</time>
      </trkpt>
      <trkpt lat="43.35372" lon="-1.63066">
        <ele>7</ele>
        <time>2026-02-12T12:20:37Z</time>
      </trkpt>
      <trkpt lat="43.3532" lon="-1.63017">
        <ele>6</ele>
        <time>2026-02-12T12:20:48Z</time>
      </trkpt>
      <trkpt lat="43.35291" lon="-1.62978">
        <ele>6</ele>
        <time>2026-02-12T12:20:55Z</time>
      </trkpt>
      <trkpt lat="43.35263" lon="-1.62922">
        <ele>6</ele>
        <time>2026-02-12T12:21:04Z</time>
      </trkpt>
      <trkpt lat="43.35249" lon="-1.62885">
        <ele>6</ele>
        <time>2026-02-12T12:21:10Z</time>
      </trkpt>
      <trkpt lat="43.35222" lon="-1.62799">
        <ele>8</ele>
        <time>2026-02-12T12:21:22Z</time>
      </trkpt>
      <trkpt lat="43.35185" lon="-1.62704">
        <ele>8</ele>
        <time>2026-02-12T12:21:36Z</time>
      </trkpt>
      <trkpt lat="43.35174" lon="-1.6267">
        <ele>8</ele>
        <time>2026-02-12T12:21:41Z</time>
      </trkpt>
      <trkpt lat="43.35131" lon="-1.62558">
        <ele>12</ele>
        <time>2026-02-12T12:21:57Z</time>
      </trkpt>
      <trkpt lat="43.35111" lon="-1.62514">
        <ele>11</ele>
        <time>2026-02-12T12:22:04Z</time>
      </trkpt>
      <trkpt lat="43.35101" lon="-1.62442">
        <ele>10</ele>
        <time>2026-02-12T12:22:13Z</time>
      </trkpt>
      <trkpt lat="43.35105" lon="-1.62368">
        <ele>10</ele>
        <time>2026-02-12T12:22:23Z</time>
      </trkpt>
      <trkpt lat="43.3511" lon="-1.62325">
        <ele>10</ele>
        <time>2026-02-12T12:22:28Z</time>
      </trkpt>
      <trkpt lat="43.35124" lon="-1.62289">
        <ele>11</ele>
        <time>2026-02-12T12:22:34Z</time>
      </trkpt>
      <trkpt lat="43.35166" lon="-1.62207">
        <ele>9</ele>
        <time>2026-02-12T12:22:47Z</time>
      </trkpt>
      <trkpt lat="43.35194" lon="-1.6216">
        <ele>11</ele>
        <time>2026-02-12T12:22:54Z</time>
      </trkpt>
      <trkpt lat="43.35212" lon="-1.6214">
        <ele>12</ele>
        <time>2026-02-12T12:22:59Z</time>
      </trkpt>
      <trkpt lat="43.35239" lon="-1.62122">
        <ele>13</ele>
        <time>2026-02-12T12:23:04Z</time>
      </trkpt>
      <trkpt lat="43.35283" lon="-1.62102">
        <ele>15</ele>
        <time>2026-02-12T12:23:12Z</time>
      </trkpt>
      <trkpt lat="43.35394" lon="-1.6206">
        <ele>20</ele>
        <time>2026-02-12T12:23:33Z</time>
      </trkpt>
      <trkpt lat="43.35432" lon="-1.6204">
        <ele>20</ele>
        <time>2026-02-12T12:23:40Z</time>
      </trkpt>
      <trkpt lat="43.35463" lon="-1.62017">
        <ele>19</ele>
        <time>2026-02-12T12:23:46Z</time>
      </trkpt>
      <trkpt lat="43.35489" lon="-1.61994">
        <ele>18</ele>
        <time>2026-02-12T12:23:52Z</time>
      </trkpt>
      <trkpt lat="43.35526" lon="-1.61942">
        <ele>17</ele>
        <time>2026-02-12T12:24:01Z</time>
      </trkpt>
      <trkpt lat="43.35674" lon="-1.61705">
        <ele>14</ele>
        <time>2026-02-12T12:24:41Z</time>
      </trkpt>
      <trkpt lat="43.35796" lon="-1.61516">
        <ele>13</ele>
        <time>2026-02-12T12:25:14Z</time>
      </trkpt>
      <trkpt lat="43.35827" lon="-1.61483">
        <ele>12</ele>
        <time>2026-02-12T12:25:21Z</time>
      </trkpt>
      <trkpt lat="43.3589" lon="-1.61433">
        <ele>16</ele>
        <time>2026-02-12T12:25:34Z</time>
      </trkpt>
      <trkpt lat="43.35921" lon="-1.61405">
        <ele>16</ele>
        <time>2026-02-12T12:25:41Z</time>
      </trkpt>
      <trkpt lat="43.36022" lon="-1.61276">
        <ele>11</ele>
        <time>2026-02-12T12:26:05Z</time>
      </trkpt>
      <trkpt lat="43.36041" lon="-1.61249">
        <ele>10</ele>
        <time>2026-02-12T12:26:10Z</time>
      </trkpt>
      <trkpt lat="43.36057" lon="-1.61219">
        <ele>11</ele>
        <time>2026-02-12T12:26:15Z</time>
      </trkpt>
      <trkpt lat="43.36076" lon="-1.61176">
        <ele>12</ele>
        <time>2026-02-12T12:26:21Z</time>
      </trkpt>
      <trkpt lat="43.36086" lon="-1.61143">
        <ele>13</ele>
        <time>2026-02-12T12:26:26Z</time>
      </trkpt>
      <trkpt lat="43.36098" lon="-1.61068">
        <ele>15</ele>
        <time>2026-02-12T12:26:36Z</time>
      </trkpt>
      <trkpt lat="43.36118" lon="-1.6074">
        <ele>18</ele>
        <time>2026-02-12T12:27:19Z</time>
      </trkpt>
      <trkpt lat="43.361" lon="-1.60554">
        <ele>17</ele>
        <time>2026-02-12T12:27:43Z</time>
      </trkpt>
      <trkpt lat="43.361" lon="-1.60508">
        <ele>16</ele>
        <time>2026-02-12T12:27:49Z</time>
      </trkpt>
      <trkpt lat="43.36106" lon="-1.60471">
        <ele>16</ele>
        <time>2026-02-12T12:27:54Z</time>
      </trkpt>
      <trkpt lat="43.36117" lon="-1.60426">
        <ele>15</ele>
        <time>2026-02-12T12:28:00Z</time>
      </trkpt>
      <trkpt lat="43.36125" lon="-1.60404">
        <ele>15</ele>
        <time>2026-02-12T12:28:03Z</time>
      </trkpt>
      <trkpt lat="43.36146" lon="-1.60364">
        <ele>14</ele>
        <time>2026-02-12T12:28:09Z</time>
      </trkpt>
      <trkpt lat="43.36164" lon="-1.60341">
        <ele>13</ele>
        <time>2026-02-12T12:28:14Z</time>
      </trkpt>
      <trkpt lat="43.36193" lon="-1.60311">
        <ele>14</ele>
        <time>2026-02-12T12:28:20Z</time>
      </trkpt>
      <trkpt lat="43.36286" lon="-1.60231">
        <ele>20</ele>
        <time>2026-02-12T12:28:40Z</time>
      </trkpt>
      <trkpt lat="43.363" lon="-1.60216">
        <ele>20</ele>
        <time>2026-02-12T12:28:43Z</time>
      </trkpt>
      <trkpt lat="43.36317" lon="-1.60192">
        <ele>18</ele>
        <time>2026-02-12T12:28:47Z</time>
      </trkpt>
      <trkpt lat="43.36335" lon="-1.60159">
        <ele>16</ele>
        <time>2026-02-12T12:28:53Z</time>
      </trkpt>
      <trkpt lat="43.36372" lon="-1.60063">
        <ele>15</ele>
        <time>2026-02-12T12:29:07Z</time>
      </trkpt>
      <trkpt lat="43.3641" lon="-1.60001">
        <ele>13</ele>
        <time>2026-02-12T12:29:17Z</time>
      </trkpt>
      <trkpt lat="43.36429" lon="-1.59977">
        <ele>13</ele>
        <time>2026-02-12T12:29:22Z</time>
      </trkpt>
      <trkpt lat="43.3646" lon="-1.59947">
        <ele>14</ele>
        <time>2026-02-12T12:29:28Z</time>
      </trkpt>
      <trkpt lat="43.36529" lon="-1.59894">
        <ele>15</ele>
        <time>2026-02-12T12:29:42Z</time>
      </trkpt>
      <trkpt lat="43.36539" lon="-1.59882">
        <ele>16</ele>
        <time>2026-02-12T12:29:45Z</time>
      </trkpt>
      <trkpt lat="43.36552" lon="-1.59859">
        <ele>17</ele>
        <time>2026-02-12T12:29:49Z</time>
      </trkpt>
      <trkpt lat="43.36561" lon="-1.59833">
        <ele>18</ele>
        <time>2026-02-12T12:29:52Z</time>
      </trkpt>
      <trkpt lat="43.36567" lon="-1.59796">
        <ele>18</ele>
        <time>2026-02-12T12:29:57Z</time>
      </trkpt>
      <trkpt lat="43.36589" lon="-1.59506">
        <ele>10</ele>
        <time>2026-02-12T12:30:35Z</time>
      </trkpt>
      <trkpt lat="43.36588" lon="-1.59434">
        <ele>9</ele>
        <time>2026-02-12T12:30:44Z</time>
      </trkpt>
      <trkpt lat="43.3658" lon="-1.5938">
        <ele>9</ele>
        <time>2026-02-12T12:30:51Z</time>
      </trkpt>
      <trkpt lat="43.3657" lon="-1.59341">
        <ele>9</ele>
        <time>2026-02-12T12:30:57Z</time>
      </trkpt>
      <trkpt lat="43.36463" lon="-1.58992">
        <ele>10</ele>
        <time>2026-02-12T12:31:46Z</time>
      </trkpt>
      <trkpt lat="43.36448" lon="-1.58955">
        <ele>12</ele>
        <time>2026-02-12T12:31:51Z</time>
      </trkpt>
      <trkpt lat="43.36434" lon="-1.58927">
        <ele>12</ele>
        <time>2026-02-12T12:31:56Z</time>
      </trkpt>
      <trkpt lat="43.36421" lon="-1.58909">
        <ele>14</ele>
        <time>2026-02-12T12:31:59Z</time>
      </trkpt>
      <trkpt lat="43.36393" lon="-1.58879">
        <ele>17</ele>
        <time>2026-02-12T12:32:05Z</time>
      </trkpt>
      <trkpt lat="43.36333" lon="-1.58826">
        <ele>18</ele>
        <time>2026-02-12T12:32:18Z</time>
      </trkpt>
      <trkpt lat="43.36305" lon="-1.58798">
        <ele>19</ele>
        <time>2026-02-12T12:32:24Z</time>
      </trkpt>
      <trkpt lat="43.36287" lon="-1.58777">
        <ele>18</ele>
        <time>2026-02-12T12:32:28Z</time>
      </trkpt>
      <trkpt lat="43.36268" lon="-1.58746">
        <ele>17</ele>
        <time>2026-02-12T12:32:34Z</time>
      </trkpt>
      <trkpt lat="43.36255" lon="-1.58719">
        <ele>14</ele>
        <time>2026-02-12T12:32:38Z</time>
      </trkpt>
      <trkpt lat="43.36245" lon="-1.5869">
        <ele>12</ele>
        <time>2026-02-12T12:32:42Z</time>
      </trkpt>
      <trkpt lat="43.36155" lon="-1.58407">
        <ele>12</ele>
        <time>2026-02-12T12:33:22Z</time>
      </trkpt>
      <trkpt lat="43.36128" lon="-1.58342">
        <ele>12</ele>
        <time>2026-02-12T12:33:32Z</time>
      </trkpt>
      <trkpt lat="43.36093" lon="-1.58281">
        <ele>12</ele>
        <time>2026-02-12T12:33:42Z</time>
      </trkpt>
      <trkpt lat="43.35886" lon="-1.57981">
        <ele>11</ele>
        <time>2026-02-12T12:34:35Z</time>
      </trkpt>
      <trkpt lat="43.35858" lon="-1.57929">
        <ele>12</ele>
        <time>2026-02-12T12:34:43Z</time>
      </trkpt>
      <trkpt lat="43.35836" lon="-1.57869">
        <ele>11</ele>
        <time>2026-02-12T12:34:52Z</time>
      </trkpt>
      <trkpt lat="43.35817" lon="-1.57779">
        <ele>11</ele>
        <time>2026-02-12T12:35:04Z</time>
      </trkpt>
      <trkpt lat="43.35782" lon="-1.57587">
        <ele>13</ele>
        <time>2026-02-12T12:35:30Z</time>
      </trkpt>
      <trkpt lat="43.35777" lon="-1.57503">
        <ele>13</ele>
        <time>2026-02-12T12:35:41Z</time>
      </trkpt>
      <trkpt lat="43.35761" lon="-1.57408">
        <ele>13</ele>
        <time>2026-02-12T12:35:53Z</time>
      </trkpt>
      <trkpt lat="43.35744" lon="-1.57219">
        <ele>14</ele>
        <time>2026-02-12T12:36:18Z</time>
      </trkpt>
      <trkpt lat="43.35738" lon="-1.57179">
        <ele>15</ele>
        <time>2026-02-12T12:36:23Z</time>
      </trkpt>
      <trkpt lat="43.35724" lon="-1.57136">
        <ele>15</ele>
        <time>2026-02-12T12:36:29Z</time>
      </trkpt>
      <trkpt lat="43.35712" lon="-1.57109">
        <ele>15</ele>
        <time>2026-02-12T12:36:33Z</time>
      </trkpt>
      <trkpt lat="43.35631" lon="-1.56935">
        <ele>17</ele>
        <time>2026-02-12T12:37:00Z</time>
      </trkpt>
      <trkpt lat="43.35596" lon="-1.56872">
        <ele>17</ele>
        <time>2026-02-12T12:37:10Z</time>
      </trkpt>
      <trkpt lat="43.35587" lon="-1.56845">
        <ele>17</ele>
        <time>2026-02-12T12:37:14Z</time>
      </trkpt>
      <trkpt lat="43.35585" lon="-1.5683">
        <ele>17</ele>
        <time>2026-02-12T12:37:16Z</time>
      </trkpt>
      <trkpt lat="43.35588" lon="-1.56792">
        <ele>17</ele>
        <time>2026-02-12T12:37:21Z</time>
      </trkpt>
      <trkpt lat="43.35616" lon="-1.56691">
        <ele>19</ele>
        <time>2026-02-12T12:37:35Z</time>
      </trkpt>
      <trkpt lat="43.35623" lon="-1.5664">
        <ele>19</ele>
        <time>2026-02-12T12:37:42Z</time>
      </trkpt>
      <trkpt lat="43.35619" lon="-1.56599">
        <ele>19</ele>
        <time>2026-02-12T12:37:47Z</time>
      </trkpt>
      <trkpt lat="43.35622" lon="-1.56551">
        <ele>19</ele>
        <time>2026-02-12T12:37:54Z</time>
      </trkpt>
      <trkpt lat="43.35621" lon="-1.56469">
        <ele>19</ele>
        <time>2026-02-12T12:38:04Z</time>
      </trkpt>
      <trkpt lat="43.35614" lon="-1.56219">
        <ele>18</ele>
        <time>2026-02-12T12:38:36Z</time>
      </trkpt>
      <trkpt lat="43.35616" lon="-1.56174">
        <ele>19</ele>
        <time>2026-02-12T12:38:42Z</time>
      </trkpt>
      <trkpt lat="43.35621" lon="-1.56131">
        <ele>18</ele>
        <time>2026-02-12T12:38:48Z</time>
      </trkpt>
      <trkpt lat="43.35629" lon="-1.56109">
        <ele>18</ele>
        <time>2026-02-12T12:38:51Z</time>
      </trkpt>
      <trkpt lat="43.35642" lon="-1.5609">
        <ele>18</ele>
        <time>2026-02-12T12:38:55Z</time>
      </trkpt>
      <trkpt lat="43.35658" lon="-1.56077">
        <ele>18</ele>
        <time>2026-02-12T12:38:58Z</time>
      </trkpt>
      <trkpt lat="43.35722" lon="-1.56035">
        <ele>19</ele>
        <time>2026-02-12T12:39:10Z</time>
      </trkpt>
      <trkpt lat="43.35732" lon="-1.56024">
        <ele>19</ele>
        <time>2026-02-12T12:39:13Z</time>
      </trkpt>
      <trkpt lat="43.35738" lon="-1.56003">
        <ele>18</ele>
        <time>2026-02-12T12:39:16Z</time>
      </trkpt>
      <trkpt lat="43.35733" lon="-1.55989">
        <ele>17</ele>
        <time>2026-02-12T12:39:18Z</time>
      </trkpt>
      <trkpt lat="43.35721" lon="-1.55975">
        <ele>16</ele>
        <time>2026-02-12T12:39:20Z</time>
      </trkpt>
      <trkpt lat="43.35635" lon="-1.55905">
        <ele>15</ele>
        <time>2026-02-12T12:39:38Z</time>
      </trkpt>
      <trkpt lat="43.35619" lon="-1.55884">
        <ele>15</ele>
        <time>2026-02-12T12:39:42Z</time>
      </trkpt>
      <trkpt lat="43.35605" lon="-1.55857">
        <ele>15</ele>
        <time>2026-02-12T12:39:46Z</time>
      </trkpt>
      <trkpt lat="43.35596" lon="-1.55833">
        <ele>15</ele>
        <time>2026-02-12T12:39:50Z</time>
      </trkpt>
      <trkpt lat="43.35587" lon="-1.55797">
        <ele>15</ele>
        <time>2026-02-12T12:39:55Z</time>
      </trkpt>
      <trkpt lat="43.35584" lon="-1.55759">
        <ele>16</ele>
        <time>2026-02-12T12:40:00Z</time>
      </trkpt>
      <trkpt lat="43.3558" lon="-1.55531">
        <ele>14</ele>
        <time>2026-02-12T12:40:29Z</time>
      </trkpt>
      <trkpt lat="43.35578" lon="-1.55487">
        <ele>14</ele>
        <time>2026-02-12T12:40:35Z</time>
      </trkpt>
      <trkpt lat="43.35573" lon="-1.55464">
        <ele>14</ele>
        <time>2026-02-12T12:40:38Z</time>
      </trkpt>
      <trkpt lat="43.35568" lon="-1.55451">
        <ele>15</ele>
        <time>2026-02-12T12:40:40Z</time>
      </trkpt>
      <trkpt lat="43.35561" lon="-1.55441">
        <ele>15</ele>
        <time>2026-02-12T12:40:42Z</time>
      </trkpt>
      <trkpt lat="43.35547" lon="-1.55432">
        <ele>15</ele>
        <time>2026-02-12T12:40:45Z</time>
      </trkpt>
      <trkpt lat="43.35539" lon="-1.55423">
        <ele>15</ele>
        <time>2026-02-12T12:40:46Z</time>
      </trkpt>
      <trkpt lat="43.35532" lon="-1.55404">
        <ele>16</ele>
        <time>2026-02-12T12:40:49Z</time>
      </trkpt>
      <trkpt lat="43.35524" lon="-1.55393">
        <ele>16</ele>
        <time>2026-02-12T12:40:51Z</time>
      </trkpt>
      <trkpt lat="43.35514" lon="-1.55384">
        <ele>16</ele>
        <time>2026-02-12T12:40:53Z</time>
      </trkpt>
      <trkpt lat="43.35499" lon="-1.55376">
        <ele>16</ele>
        <time>2026-02-12T12:40:56Z</time>
      </trkpt>
      <trkpt lat="43.35477" lon="-1.55372">
        <ele>16</ele>
        <time>2026-02-12T12:41:00Z</time>
      </trkpt>
      <trkpt lat="43.35444" lon="-1.55375">
        <ele>16</ele>
        <time>2026-02-12T12:41:06Z</time>
      </trkpt>
      <trkpt lat="43.35385" lon="-1.55385">
        <ele>16</ele>
        <time>2026-02-12T12:41:17Z</time>
      </trkpt>
      <trkpt lat="43.35358" lon="-1.55384">
        <ele>16</ele>
        <time>2026-02-12T12:41:21Z</time>
      </trkpt>
      <trkpt lat="43.35333" lon="-1.55377">
        <ele>16</ele>
        <time>2026-02-12T12:41:26Z</time>
      </trkpt>
      <trkpt lat="43.35318" lon="-1.5537">
        <ele>17</ele>
        <time>2026-02-12T12:41:29Z</time>
      </trkpt>
      <trkpt lat="43.35304" lon="-1.5536">
        <ele>17</ele>
        <time>2026-02-12T12:41:32Z</time>
      </trkpt>
      <trkpt lat="43.35284" lon="-1.5534">
        <ele>18</ele>
        <time>2026-02-12T12:41:36Z</time>
      </trkpt>
      <trkpt lat="43.3527" lon="-1.55322">
        <ele>18</ele>
        <time>2026-02-12T12:41:39Z</time>
      </trkpt>
      <trkpt lat="43.35257" lon="-1.55297">
        <ele>17</ele>
        <time>2026-02-12T12:41:43Z</time>
      </trkpt>
      <trkpt lat="43.3513" lon="-1.55013">
        <ele>17</ele>
        <time>2026-02-12T12:42:26Z</time>
      </trkpt>
      <trkpt lat="43.3512" lon="-1.54997">
        <ele>18</ele>
        <time>2026-02-12T12:42:29Z</time>
      </trkpt>
      <trkpt lat="43.35102" lon="-1.54987">
        <ele>18</ele>
        <time>2026-02-12T12:42:33Z</time>
      </trkpt>
      <trkpt lat="43.35095" lon="-1.54979">
        <ele>18</ele>
        <time>2026-02-12T12:42:34Z</time>
      </trkpt>
      <trkpt lat="43.35091" lon="-1.54966">
        <ele>19</ele>
        <time>2026-02-12T12:42:36Z</time>
      </trkpt>
      <trkpt lat="43.35088" lon="-1.54938">
        <ele>19</ele>
        <time>2026-02-12T12:42:40Z</time>
      </trkpt>
      <trkpt lat="43.35081" lon="-1.54921">
        <ele>20</ele>
        <time>2026-02-12T12:42:42Z</time>
      </trkpt>
      <trkpt lat="43.35068" lon="-1.5491">
        <ele>21</ele>
        <time>2026-02-12T12:42:45Z</time>
      </trkpt>
      <trkpt lat="43.34936" lon="-1.54841">
        <ele>23</ele>
        <time>2026-02-12T12:43:10Z</time>
      </trkpt>
      <trkpt lat="43.34908" lon="-1.54821">
        <ele>24</ele>
        <time>2026-02-12T12:43:16Z</time>
      </trkpt>
      <trkpt lat="43.34885" lon="-1.54799">
        <ele>25</ele>
        <time>2026-02-12T12:43:21Z</time>
      </trkpt>
      <trkpt lat="43.34866" lon="-1.54775">
        <ele>25</ele>
        <time>2026-02-12T12:43:25Z</time>
      </trkpt>
      <trkpt lat="43.34834" lon="-1.54727">
        <ele>25</ele>
        <time>2026-02-12T12:43:34Z</time>
      </trkpt>
      <trkpt lat="43.34694" lon="-1.54502">
        <ele>28</ele>
        <time>2026-02-12T12:44:12Z</time>
      </trkpt>
      <trkpt lat="43.34679" lon="-1.54454">
        <ele>29</ele>
        <time>2026-02-12T12:44:19Z</time>
      </trkpt>
      <trkpt lat="43.34674" lon="-1.54424">
        <ele>30</ele>
        <time>2026-02-12T12:44:23Z</time>
      </trkpt>
      <trkpt lat="43.3467" lon="-1.54269">
        <ele>35</ele>
        <time>2026-02-12T12:44:43Z</time>
      </trkpt>
      <trkpt lat="43.34662" lon="-1.54223">
        <ele>36</ele>
        <time>2026-02-12T12:44:49Z</time>
      </trkpt>
      <trkpt lat="43.34646" lon="-1.54174">
        <ele>37</ele>
        <time>2026-02-12T12:44:56Z</time>
      </trkpt>
      <trkpt lat="43.34585" lon="-1.54051">
        <ele>33</ele>
        <time>2026-02-12T12:45:15Z</time>
      </trkpt>
      <trkpt lat="43.34578" lon="-1.54028">
        <ele>34</ele>
        <time>2026-02-12T12:45:18Z</time>
      </trkpt>
      <trkpt lat="43.34568" lon="-1.53978">
        <ele>34</ele>
        <time>2026-02-12T12:45:25Z</time>
      </trkpt>
      <trkpt lat="43.34561" lon="-1.53855">
        <ele>37</ele>
        <time>2026-02-12T12:45:41Z</time>
      </trkpt>
      <trkpt lat="43.34527" lon="-1.53704">
        <ele>38</ele>
        <time>2026-02-12T12:46:02Z</time>
      </trkpt>
      <trkpt lat="43.34492" lon="-1.53465">
        <ele>42</ele>
        <time>2026-02-12T12:46:33Z</time>
      </trkpt>
      <trkpt lat="43.34456" lon="-1.53084">
        <ele>40</ele>
        <time>2026-02-12T12:47:23Z</time>
      </trkpt>
      <trkpt lat="43.34452" lon="-1.53023">
        <ele>38</ele>
        <time>2026-02-12T12:47:31Z</time>
      </trkpt>
      <trkpt lat="43.34438" lon="-1.52965">
        <ele>36</ele>
        <time>2026-02-12T12:47:39Z</time>
      </trkpt>
      <trkpt lat="43.34418" lon="-1.52914">
        <ele>35</ele>
        <time>2026-02-12T12:47:46Z</time>
      </trkpt>
      <trkpt lat="43.34361" lon="-1.52819">
        <ele>35</ele>
        <time>2026-02-12T12:48:02Z</time>
      </trkpt>
      <trkpt lat="43.34353" lon="-1.5281">
        <ele>35</ele>
        <time>2026-02-12T12:48:04Z</time>
      </trkpt>
      <trkpt lat="43.34344" lon="-1.52805">
        <ele>36</ele>
        <time>2026-02-12T12:48:06Z</time>
      </trkpt>
      <trkpt lat="43.34333" lon="-1.52803">
        <ele>36</ele>
        <time>2026-02-12T12:48:08Z</time>
      </trkpt>
      <trkpt lat="43.34325" lon="-1.52794">
        <ele>36</ele>
        <time>2026-02-12T12:48:09Z</time>
      </trkpt>
      <trkpt lat="43.34321" lon="-1.52752">
        <ele>36</ele>
        <time>2026-02-12T12:48:15Z</time>
      </trkpt>
      <trkpt lat="43.34314" lon="-1.52732">
        <ele>37</ele>
        <time>2026-02-12T12:48:18Z</time>
      </trkpt>
      <trkpt lat="43.34158" lon="-1.5248">
        <ele>41</ele>
        <time>2026-02-12T12:49:01Z</time>
      </trkpt>
      <trkpt lat="43.3412" lon="-1.52398">
        <ele>43</ele>
        <time>2026-02-12T12:49:13Z</time>
      </trkpt>
      <trkpt lat="43.34099" lon="-1.52343">
        <ele>43</ele>
        <time>2026-02-12T12:49:21Z</time>
      </trkpt>
      <trkpt lat="43.34089" lon="-1.52327">
        <ele>42</ele>
        <time>2026-02-12T12:49:24Z</time>
      </trkpt>
      <trkpt lat="43.34073" lon="-1.5231">
        <ele>42</ele>
        <time>2026-02-12T12:49:28Z</time>
      </trkpt>
      <trkpt lat="43.34059" lon="-1.52247">
        <ele>43</ele>
        <time>2026-02-12T12:49:36Z</time>
      </trkpt>
      <trkpt lat="43.33754" lon="-1.51521">
        <ele>47</ele>
        <time>2026-02-12T12:51:25Z</time>
      </trkpt>
      <trkpt lat="43.33646" lon="-1.51175">
        <ele>52</ele>
        <time>2026-02-12T12:52:13Z</time>
      </trkpt>
      <trkpt lat="43.33629" lon="-1.51102">
        <ele>53</ele>
        <time>2026-02-12T12:52:23Z</time>
      </trkpt>
      <trkpt lat="43.33596" lon="-1.50842">
        <ele>59</ele>
        <time>2026-02-12T12:52:57Z</time>
      </trkpt>
      <trkpt lat="43.33587" lon="-1.50753">
        <ele>60</ele>
        <time>2026-02-12T12:53:09Z</time>
      </trkpt>
      <trkpt lat="43.33603" lon="-1.50719">
        <ele>65</ele>
        <time>2026-02-12T12:53:14Z</time>
      </trkpt>
      <trkpt lat="43.33605" lon="-1.5068">
        <ele>68</ele>
        <time>2026-02-12T12:53:19Z</time>
      </trkpt>
      <trkpt lat="43.33611" lon="-1.50649">
        <ele>71</ele>
        <time>2026-02-12T12:53:24Z</time>
      </trkpt>
      <trkpt lat="43.33621" lon="-1.50639">
        <ele>71</ele>
        <time>2026-02-12T12:53:26Z</time>
      </trkpt>
      <trkpt lat="43.33643" lon="-1.5064">
        <ele>71</ele>
        <time>2026-02-12T12:53:30Z</time>
      </trkpt>
      <trkpt lat="43.33654" lon="-1.50645">
        <ele>71</ele>
        <time>2026-02-12T12:53:32Z</time>
      </trkpt>
      <trkpt lat="43.33668" lon="-1.50657">
        <ele>71</ele>
        <time>2026-02-12T12:53:35Z</time>
      </trkpt>
      <trkpt lat="43.33686" lon="-1.50686">
        <ele>75</ele>
        <time>2026-02-12T12:53:40Z</time>
      </trkpt>
      <trkpt lat="43.33735" lon="-1.50755">
        <ele>85</ele>
        <time>2026-02-12T12:53:52Z</time>
      </trkpt>
      <trkpt lat="43.33737" lon="-1.50767">
        <ele>85</ele>
        <time>2026-02-12T12:53:54Z</time>
      </trkpt>
      <trkpt lat="43.33733" lon="-1.50806">
        <ele>84</ele>
        <time>2026-02-12T12:53:59Z</time>
      </trkpt>
      <trkpt lat="43.33734" lon="-1.50853">
        <ele>83</ele>
        <time>2026-02-12T12:54:05Z</time>
      </trkpt>
      <trkpt lat="43.33737" lon="-1.50867">
        <ele>83</ele>
        <time>2026-02-12T12:54:07Z</time>
      </trkpt>
      <trkpt lat="43.33747" lon="-1.50891">
        <ele>84</ele>
        <time>2026-02-12T12:54:10Z</time>
      </trkpt>
      <trkpt lat="43.33772" lon="-1.50919">
        <ele>86</ele>
        <time>2026-02-12T12:54:16Z</time>
      </trkpt>
      <trkpt lat="43.33788" lon="-1.50929">
        <ele>88</ele>
        <time>2026-02-12T12:54:19Z</time>
      </trkpt>
      <trkpt lat="43.33802" lon="-1.50935">
        <ele>90</ele>
        <time>2026-02-12T12:54:22Z</time>
      </trkpt>
      <trkpt lat="43.33816" lon="-1.50935">
        <ele>92</ele>
        <time>2026-02-12T12:54:24Z</time>
      </trkpt>
      <trkpt lat="43.33823" lon="-1.50932">
        <ele>94</ele>
        <time>2026-02-12T12:54:26Z</time>
      </trkpt>
      <trkpt lat="43.33831" lon="-1.50919">
        <ele>96</ele>
        <time>2026-02-12T12:54:28Z</time>
      </trkpt>
      <trkpt lat="43.33834" lon="-1.50905">
        <ele>98</ele>
        <time>2026-02-12T12:54:30Z</time>
      </trkpt>
      <trkpt lat="43.33833" lon="-1.50844">
        <ele>102</ele>
        <time>2026-02-12T12:54:38Z</time>
      </trkpt>
      <trkpt lat="43.33836" lon="-1.50816">
        <ele>103</ele>
        <time>2026-02-12T12:54:41Z</time>
      </trkpt>
      <trkpt lat="43.33885" lon="-1.50639">
        <ele>107</ele>
        <time>2026-02-12T12:55:06Z</time>
      </trkpt>
      <trkpt lat="43.33893" lon="-1.50629">
        <ele>108</ele>
        <time>2026-02-12T12:55:08Z</time>
      </trkpt>
      <trkpt lat="43.33907" lon="-1.50623">
        <ele>109</ele>
        <time>2026-02-12T12:55:10Z</time>
      </trkpt>
      <trkpt lat="43.33928" lon="-1.50621">
        <ele>111</ele>
        <time>2026-02-12T12:55:14Z</time>
      </trkpt>
      <trkpt lat="43.33941" lon="-1.50617">
        <ele>112</ele>
        <time>2026-02-12T12:55:16Z</time>
      </trkpt>
      <trkpt lat="43.33954" lon="-1.50611">
        <ele>113</ele>
        <time>2026-02-12T12:55:19Z</time>
      </trkpt>
      <trkpt lat="43.33987" lon="-1.50589">
        <ele>118</ele>
        <time>2026-02-12T12:55:25Z</time>
      </trkpt>
      <trkpt lat="43.34006" lon="-1.50564">
        <ele>119</ele>
        <time>2026-02-12T12:55:30Z</time>
      </trkpt>
      <trkpt lat="43.34013" lon="-1.50545">
        <ele>117</ele>
        <time>2026-02-12T12:55:33Z</time>
      </trkpt>
      <trkpt lat="43.34015" lon="-1.50516">
        <ele>117</ele>
        <time>2026-02-12T12:55:37Z</time>
      </trkpt>
      <trkpt lat="43.34008" lon="-1.50416">
        <ele>120</ele>
        <time>2026-02-12T12:55:50Z</time>
      </trkpt>
      <trkpt lat="43.34008" lon="-1.50376">
        <ele>121</ele>
        <time>2026-02-12T12:55:55Z</time>
      </trkpt>
      <trkpt lat="43.3403" lon="-1.50221">
        <ele>122</ele>
        <time>2026-02-12T12:56:15Z</time>
      </trkpt>
      <trkpt lat="43.34057" lon="-1.5015">
        <ele>126</ele>
        <time>2026-02-12T12:56:26Z</time>
      </trkpt>
      <trkpt lat="43.34108" lon="-1.50066">
        <ele>132</ele>
        <time>2026-02-12T12:56:40Z</time>
      </trkpt>
      <trkpt lat="43.34116" lon="-1.50047">
        <ele>133</ele>
        <time>2026-02-12T12:56:43Z</time>
      </trkpt>
      <trkpt lat="43.34128" lon="-1.49994">
        <ele>134</ele>
        <time>2026-02-12T12:56:50Z</time>
      </trkpt>
      <trkpt lat="43.34127" lon="-1.49978">
        <ele>135</ele>
        <time>2026-02-12T12:56:52Z</time>
      </trkpt>
      <trkpt lat="43.34057" lon="-1.49882">
        <ele>141</ele>
        <time>2026-02-12T12:57:09Z</time>
      </trkpt>
      <trkpt lat="43.34019" lon="-1.49752">
        <ele>151</ele>
        <time>2026-02-12T12:57:27Z</time>
      </trkpt>
      <trkpt lat="43.34008" lon="-1.49725">
        <ele>150</ele>
        <time>2026-02-12T12:57:32Z</time>
      </trkpt>
      <trkpt lat="43.33996" lon="-1.49707">
        <ele>151</ele>
        <time>2026-02-12T12:57:35Z</time>
      </trkpt>
      <trkpt lat="43.33937" lon="-1.49634">
        <ele>153</ele>
        <time>2026-02-12T12:57:49Z</time>
      </trkpt>
      <trkpt lat="43.33916" lon="-1.49619">
        <ele>154</ele>
        <time>2026-02-12T12:57:53Z</time>
      </trkpt>
      <trkpt lat="43.33881" lon="-1.49603">
        <ele>157</ele>
        <time>2026-02-12T12:58:00Z</time>
      </trkpt>
      <trkpt lat="43.3387" lon="-1.49593">
        <ele>158</ele>
        <time>2026-02-12T12:58:02Z</time>
      </trkpt>
      <trkpt lat="43.33841" lon="-1.49543">
        <ele>160</ele>
        <time>2026-02-12T12:58:10Z</time>
      </trkpt>
      <trkpt lat="43.33816" lon="-1.49512">
        <ele>160</ele>
        <time>2026-02-12T12:58:16Z</time>
      </trkpt>
      <trkpt lat="43.33794" lon="-1.49505">
        <ele>160</ele>
        <time>2026-02-12T12:58:20Z</time>
      </trkpt>
      <trkpt lat="43.33763" lon="-1.49507">
        <ele>161</ele>
        <time>2026-02-12T12:58:26Z</time>
      </trkpt>
      <trkpt lat="43.3375" lon="-1.49499">
        <ele>161</ele>
        <time>2026-02-12T12:58:28Z</time>
      </trkpt>
      <trkpt lat="43.33738" lon="-1.49486">
        <ele>159</ele>
        <time>2026-02-12T12:58:31Z</time>
      </trkpt>
      <trkpt lat="43.33663" lon="-1.49386">
        <ele>152</ele>
        <time>2026-02-12T12:58:50Z</time>
      </trkpt>
      <trkpt lat="43.33627" lon="-1.49333">
        <ele>146</ele>
        <time>2026-02-12T12:58:59Z</time>
      </trkpt>
      <trkpt lat="43.33612" lon="-1.49306">
        <ele>145</ele>
        <time>2026-02-12T12:59:03Z</time>
      </trkpt>
      <trkpt lat="43.33586" lon="-1.49245">
        <ele>143</ele>
        <time>2026-02-12T12:59:12Z</time>
      </trkpt>
      <trkpt lat="43.33579" lon="-1.49223">
        <ele>143</ele>
        <time>2026-02-12T12:59:16Z</time>
      </trkpt>
      <trkpt lat="43.33574" lon="-1.49185">
        <ele>145</ele>
        <time>2026-02-12T12:59:21Z</time>
      </trkpt>
      <trkpt lat="43.33568" lon="-1.4916">
        <ele>146</ele>
        <time>2026-02-12T12:59:24Z</time>
      </trkpt>
      <trkpt lat="43.33546" lon="-1.49121">
        <ele>143</ele>
        <time>2026-02-12T12:59:30Z</time>
      </trkpt>
      <trkpt lat="43.33495" lon="-1.48948">
        <ele>144</ele>
        <time>2026-02-12T12:59:55Z</time>
      </trkpt>
      <trkpt lat="43.3348" lon="-1.4892">
        <ele>143</ele>
        <time>2026-02-12T12:59:59Z</time>
      </trkpt>
      <trkpt lat="43.33465" lon="-1.48906">
        <ele>141</ele>
        <time>2026-02-12T13:00:02Z</time>
      </trkpt>
      <trkpt lat="43.33454" lon="-1.48899">
        <ele>139</ele>
        <time>2026-02-12T13:00:04Z</time>
      </trkpt>
      <trkpt lat="43.33442" lon="-1.48895">
        <ele>137</ele>
        <time>2026-02-12T13:00:07Z</time>
      </trkpt>
      <trkpt lat="43.33422" lon="-1.48892">
        <ele>134</ele>
        <time>2026-02-12T13:00:10Z</time>
      </trkpt>
      <trkpt lat="43.33372" lon="-1.48894">
        <ele>128</ele>
        <time>2026-02-12T13:00:19Z</time>
      </trkpt>
      <trkpt lat="43.33344" lon="-1.489">
        <ele>125</ele>
        <time>2026-02-12T13:00:24Z</time>
      </trkpt>
      <trkpt lat="43.33319" lon="-1.48913">
        <ele>123</ele>
        <time>2026-02-12T13:00:29Z</time>
      </trkpt>
      <trkpt lat="43.33307" lon="-1.48923">
        <ele>123</ele>
        <time>2026-02-12T13:00:31Z</time>
      </trkpt>
      <trkpt lat="43.33291" lon="-1.48945">
        <ele>124</ele>
        <time>2026-02-12T13:00:35Z</time>
      </trkpt>
      <trkpt lat="43.33285" lon="-1.48949">
        <ele>124</ele>
        <time>2026-02-12T13:00:37Z</time>
      </trkpt>
      <trkpt lat="43.33276" lon="-1.48943">
        <ele>125</ele>
        <time>2026-02-12T13:00:38Z</time>
      </trkpt>
      <trkpt lat="43.33274" lon="-1.48936">
        <ele>124</ele>
        <time>2026-02-12T13:00:39Z</time>
      </trkpt>
      <trkpt lat="43.33281" lon="-1.48911">
        <ele>123</ele>
        <time>2026-02-12T13:00:43Z</time>
      </trkpt>
      <trkpt lat="43.33287" lon="-1.48852">
        <ele>122</ele>
        <time>2026-02-12T13:00:51Z</time>
      </trkpt>
      <trkpt lat="43.333" lon="-1.48812">
        <ele>121</ele>
        <time>2026-02-12T13:00:56Z</time>
      </trkpt>
      <trkpt lat="43.3332" lon="-1.48771">
        <ele>119</ele>
        <time>2026-02-12T13:01:03Z</time>
      </trkpt>
      <trkpt lat="43.33339" lon="-1.4874">
        <ele>117</ele>
        <time>2026-02-12T13:01:08Z</time>
      </trkpt>
      <trkpt lat="43.33394" lon="-1.48674">
        <ele>111</ele>
        <time>2026-02-12T13:01:21Z</time>
      </trkpt>
      <trkpt lat="43.33417" lon="-1.48638">
        <ele>109</ele>
        <time>2026-02-12T13:01:27Z</time>
      </trkpt>
      <trkpt lat="43.33433" lon="-1.48595">
        <ele>110</ele>
        <time>2026-02-12T13:01:33Z</time>
      </trkpt>
      <trkpt lat="43.33449" lon="-1.48499">
        <ele>106</ele>
        <time>2026-02-12T13:01:46Z</time>
      </trkpt>
      <trkpt lat="43.33458" lon="-1.48469">
        <ele>105</ele>
        <time>2026-02-12T13:01:50Z</time>
      </trkpt>
      <trkpt lat="43.33482" lon="-1.48411">
        <ele>101</ele>
        <time>2026-02-12T13:01:59Z</time>
      </trkpt>
      <trkpt lat="43.33534" lon="-1.48316">
        <ele>98</ele>
        <time>2026-02-12T13:02:14Z</time>
      </trkpt>
      <trkpt lat="43.33553" lon="-1.48272">
        <ele>97</ele>
        <time>2026-02-12T13:02:21Z</time>
      </trkpt>
      <trkpt lat="43.33562" lon="-1.4824">
        <ele>96</ele>
        <time>2026-02-12T13:02:25Z</time>
      </trkpt>
      <trkpt lat="43.33577" lon="-1.4816">
        <ele>92</ele>
        <time>2026-02-12T13:02:36Z</time>
      </trkpt>
      <trkpt lat="43.33618" lon="-1.4785">
        <ele>76</ele>
        <time>2026-02-12T13:03:17Z</time>
      </trkpt>
      <trkpt lat="43.33627" lon="-1.47806">
        <ele>74</ele>
        <time>2026-02-12T13:03:23Z</time>
      </trkpt>
      <trkpt lat="43.33639" lon="-1.4778">
        <ele>73</ele>
        <time>2026-02-12T13:03:27Z</time>
      </trkpt>
      <trkpt lat="43.33654" lon="-1.47759">
        <ele>72</ele>
        <time>2026-02-12T13:03:30Z</time>
      </trkpt>
      <trkpt lat="43.33672" lon="-1.47741">
        <ele>71</ele>
        <time>2026-02-12T13:03:34Z</time>
      </trkpt>
      <trkpt lat="43.33693" lon="-1.47729">
        <ele>70</ele>
        <time>2026-02-12T13:03:38Z</time>
      </trkpt>
      <trkpt lat="43.33715" lon="-1.47724">
        <ele>69</ele>
        <time>2026-02-12T13:03:42Z</time>
      </trkpt>
      <trkpt lat="43.33761" lon="-1.47731">
        <ele>67</ele>
        <time>2026-02-12T13:03:51Z</time>
      </trkpt>
      <trkpt lat="43.33827" lon="-1.47749">
        <ele>65</ele>
        <time>2026-02-12T13:04:03Z</time>
      </trkpt>
      <trkpt lat="43.3386" lon="-1.47752">
        <ele>65</ele>
        <time>2026-02-12T13:04:09Z</time>
      </trkpt>
      <trkpt lat="43.33892" lon="-1.47749">
        <ele>65</ele>
        <time>2026-02-12T13:04:14Z</time>
      </trkpt>
      <trkpt lat="43.33912" lon="-1.47741">
        <ele>65</ele>
        <time>2026-02-12T13:04:18Z</time>
      </trkpt>
      <trkpt lat="43.33938" lon="-1.47726">
        <ele>67</ele>
        <time>2026-02-12T13:04:23Z</time>
      </trkpt>
      <trkpt lat="43.33975" lon="-1.47691">
        <ele>68</ele>
        <time>2026-02-12T13:04:31Z</time>
      </trkpt>
      <trkpt lat="43.33999" lon="-1.47662">
        <ele>67</ele>
        <time>2026-02-12T13:04:37Z</time>
      </trkpt>
      <trkpt lat="43.34025" lon="-1.47623">
        <ele>68</ele>
        <time>2026-02-12T13:04:44Z</time>
      </trkpt>
      <trkpt lat="43.34058" lon="-1.47569">
        <ele>68</ele>
        <time>2026-02-12T13:04:53Z</time>
      </trkpt>
      <trkpt lat="43.34065" lon="-1.47553">
        <ele>67</ele>
        <time>2026-02-12T13:04:55Z</time>
      </trkpt>
      <trkpt lat="43.34082" lon="-1.47495">
        <ele>63</ele>
        <time>2026-02-12T13:05:03Z</time>
      </trkpt>
      <trkpt lat="43.34084" lon="-1.47463">
        <ele>64</ele>
        <time>2026-02-12T13:05:07Z</time>
      </trkpt>
      <trkpt lat="43.34081" lon="-1.4742">
        <ele>65</ele>
        <time>2026-02-12T13:05:13Z</time>
      </trkpt>
      <trkpt lat="43.34062" lon="-1.47258">
        <ele>65</ele>
        <time>2026-02-12T13:05:34Z</time>
      </trkpt>
      <trkpt lat="43.34057" lon="-1.47238">
        <ele>65</ele>
        <time>2026-02-12T13:05:37Z</time>
      </trkpt>
      <trkpt lat="43.3398" lon="-1.4708">
        <ele>65</ele>
        <time>2026-02-12T13:06:01Z</time>
      </trkpt>
      <trkpt lat="43.33966" lon="-1.47056">
        <ele>64</ele>
        <time>2026-02-12T13:06:05Z</time>
      </trkpt>
      <trkpt lat="43.3395" lon="-1.47035">
        <ele>63</ele>
        <time>2026-02-12T13:06:09Z</time>
      </trkpt>
      <trkpt lat="43.3389" lon="-1.46971">
        <ele>64</ele>
        <time>2026-02-12T13:06:23Z</time>
      </trkpt>
      <trkpt lat="43.33841" lon="-1.46936">
        <ele>67</ele>
        <time>2026-02-12T13:06:33Z</time>
      </trkpt>
      <trkpt lat="43.33783" lon="-1.46899">
        <ele>67</ele>
        <time>2026-02-12T13:06:44Z</time>
      </trkpt>
      <trkpt lat="43.33765" lon="-1.46883">
        <ele>67</ele>
        <time>2026-02-12T13:06:48Z</time>
      </trkpt>
      <trkpt lat="43.33738" lon="-1.46849">
        <ele>67</ele>
        <time>2026-02-12T13:06:54Z</time>
      </trkpt>
      <trkpt lat="43.3372" lon="-1.46811">
        <ele>67</ele>
        <time>2026-02-12T13:07:00Z</time>
      </trkpt>
      <trkpt lat="43.33706" lon="-1.46766">
        <ele>67</ele>
        <time>2026-02-12T13:07:07Z</time>
      </trkpt>
      <trkpt lat="43.33696" lon="-1.46717">
        <ele>66</ele>
        <time>2026-02-12T13:07:13Z</time>
      </trkpt>
      <trkpt lat="43.33693" lon="-1.46676">
        <ele>65</ele>
        <time>2026-02-12T13:07:19Z</time>
      </trkpt>
      <trkpt lat="43.33696" lon="-1.46596">
        <ele>65</ele>
        <time>2026-02-12T13:07:29Z</time>
      </trkpt>
      <trkpt lat="43.33693" lon="-1.46546">
        <ele>64</ele>
        <time>2026-02-12T13:07:35Z</time>
      </trkpt>
      <trkpt lat="43.33647" lon="-1.46261">
        <ele>56</ele>
        <time>2026-02-12T13:08:13Z</time>
      </trkpt>
      <trkpt lat="43.33629" lon="-1.46196">
        <ele>56</ele>
        <time>2026-02-12T13:08:22Z</time>
      </trkpt>
      <trkpt lat="43.33586" lon="-1.46116">
        <ele>57</ele>
        <time>2026-02-12T13:08:35Z</time>
      </trkpt>
      <trkpt lat="43.33567" lon="-1.46071">
        <ele>57</ele>
        <time>2026-02-12T13:08:42Z</time>
      </trkpt>
      <trkpt lat="43.3355" lon="-1.46006">
        <ele>58</ele>
        <time>2026-02-12T13:08:51Z</time>
      </trkpt>
      <trkpt lat="43.33544" lon="-1.45949">
        <ele>63</ele>
        <time>2026-02-12T13:08:58Z</time>
      </trkpt>
      <trkpt lat="43.33545" lon="-1.45922">
        <ele>65</ele>
        <time>2026-02-12T13:09:02Z</time>
      </trkpt>
      <trkpt lat="43.33557" lon="-1.45883">
        <ele>68</ele>
        <time>2026-02-12T13:09:07Z</time>
      </trkpt>
      <trkpt lat="43.33569" lon="-1.45862">
        <ele>68</ele>
        <time>2026-02-12T13:09:11Z</time>
      </trkpt>
      <trkpt lat="43.33757" lon="-1.45584">
        <ele>62</ele>
        <time>2026-02-12T13:10:00Z</time>
      </trkpt>
      <trkpt lat="43.33786" lon="-1.45531">
        <ele>63</ele>
        <time>2026-02-12T13:10:08Z</time>
      </trkpt>
      <trkpt lat="43.33823" lon="-1.4543">
        <ele>60</ele>
        <time>2026-02-12T13:10:23Z</time>
      </trkpt>
      <trkpt lat="43.33845" lon="-1.45388">
        <ele>60</ele>
        <time>2026-02-12T13:10:30Z</time>
      </trkpt>
      <trkpt lat="43.33863" lon="-1.45365">
        <ele>60</ele>
        <time>2026-02-12T13:10:34Z</time>
      </trkpt>
      <trkpt lat="43.33959" lon="-1.45271">
        <ele>60</ele>
        <time>2026-02-12T13:10:55Z</time>
      </trkpt>
      <trkpt lat="43.33968" lon="-1.45259">
        <ele>60</ele>
        <time>2026-02-12T13:10:57Z</time>
      </trkpt>
      <trkpt lat="43.33979" lon="-1.45238">
        <ele>60</ele>
        <time>2026-02-12T13:11:01Z</time>
      </trkpt>
      <trkpt lat="43.33984" lon="-1.45221">
        <ele>60</ele>
        <time>2026-02-12T13:11:03Z</time>
      </trkpt>
      <trkpt lat="43.33992" lon="-1.45179">
        <ele>60</ele>
        <time>2026-02-12T13:11:09Z</time>
      </trkpt>
      <trkpt lat="43.33993" lon="-1.45155">
        <ele>61</ele>
        <time>2026-02-12T13:11:12Z</time>
      </trkpt>
      <trkpt lat="43.33997" lon="-1.45142">
        <ele>61</ele>
        <time>2026-02-12T13:11:14Z</time>
      </trkpt>
      <trkpt lat="43.34001" lon="-1.45139">
        <ele>61</ele>
        <time>2026-02-12T13:11:14Z</time>
      </trkpt>
      <trkpt lat="43.34017" lon="-1.45135">
        <ele>62</ele>
        <time>2026-02-12T13:11:17Z</time>
      </trkpt>
      <trkpt lat="43.34034" lon="-1.45121">
        <ele>64</ele>
        <time>2026-02-12T13:11:21Z</time>
      </trkpt>
      <trkpt lat="43.34088" lon="-1.44994">
        <ele>77</ele>
        <time>2026-02-12T13:11:40Z</time>
      </trkpt>
      <trkpt lat="43.34118" lon="-1.44945">
        <ele>77</ele>
        <time>2026-02-12T13:11:48Z</time>
      </trkpt>
      <trkpt lat="43.34124" lon="-1.4494">
        <ele>77</ele>
        <time>2026-02-12T13:11:49Z</time>
      </trkpt>
      <trkpt lat="43.34135" lon="-1.44938">
        <ele>77</ele>
        <time>2026-02-12T13:11:51Z</time>
      </trkpt>
      <trkpt lat="43.34157" lon="-1.4494">
        <ele>76</ele>
        <time>2026-02-12T13:11:55Z</time>
      </trkpt>
      <trkpt lat="43.34173" lon="-1.44945">
        <ele>75</ele>
        <time>2026-02-12T13:11:58Z</time>
      </trkpt>
      <trkpt lat="43.34233" lon="-1.44984">
        <ele>70</ele>
        <time>2026-02-12T13:12:10Z</time>
      </trkpt>
      <trkpt lat="43.34248" lon="-1.44987">
        <ele>69</ele>
        <time>2026-02-12T13:12:13Z</time>
      </trkpt>
      <trkpt lat="43.34265" lon="-1.44985">
        <ele>67</ele>
        <time>2026-02-12T13:12:16Z</time>
      </trkpt>
      <trkpt lat="43.34304" lon="-1.44972">
        <ele>62</ele>
        <time>2026-02-12T13:12:23Z</time>
      </trkpt>
      <trkpt lat="43.34336" lon="-1.44965">
        <ele>58</ele>
        <time>2026-02-12T13:12:29Z</time>
      </trkpt>
      <trkpt lat="43.34362" lon="-1.44963">
        <ele>55</ele>
        <time>2026-02-12T13:12:33Z</time>
      </trkpt>
      <trkpt lat="43.34385" lon="-1.44966">
        <ele>54</ele>
        <time>2026-02-12T13:12:37Z</time>
      </trkpt>
      <trkpt lat="43.34463" lon="-1.44998">
        <ele>50</ele>
        <time>2026-02-12T13:12:52Z</time>
      </trkpt>
      <trkpt lat="43.34488" lon="-1.45011">
        <ele>50</ele>
        <time>2026-02-12T13:12:57Z</time>
      </trkpt>
      <trkpt lat="43.34539" lon="-1.45047">
        <ele>49</ele>
        <time>2026-02-12T13:13:07Z</time>
      </trkpt>
      <trkpt lat="43.34553" lon="-1.45052">
        <ele>48</ele>
        <time>2026-02-12T13:13:09Z</time>
      </trkpt>
      <trkpt lat="43.3456" lon="-1.45052">
        <ele>48</ele>
        <time>2026-02-12T13:13:11Z</time>
      </trkpt>
      <trkpt lat="43.34571" lon="-1.45048">
        <ele>48</ele>
        <time>2026-02-12T13:13:13Z</time>
      </trkpt>
      <trkpt lat="43.34579" lon="-1.45041">
        <ele>49</ele>
        <time>2026-02-12T13:13:14Z</time>
      </trkpt>
      <trkpt lat="43.34586" lon="-1.45031">
        <ele>49</ele>
        <time>2026-02-12T13:13:16Z</time>
      </trkpt>
      <trkpt lat="43.34607" lon="-1.44984">
        <ele>52</ele>
        <time>2026-02-12T13:13:23Z</time>
      </trkpt>
      <trkpt lat="43.34643" lon="-1.44941">
        <ele>57</ele>
        <time>2026-02-12T13:13:32Z</time>
      </trkpt>
      <trkpt lat="43.34654" lon="-1.44933">
        <ele>57</ele>
        <time>2026-02-12T13:13:34Z</time>
      </trkpt>
      <trkpt lat="43.3466" lon="-1.44932">
        <ele>58</ele>
        <time>2026-02-12T13:13:35Z</time>
      </trkpt>
      <trkpt lat="43.34715" lon="-1.44932">
        <ele>57</ele>
        <time>2026-02-12T13:13:45Z</time>
      </trkpt>
      <trkpt lat="43.3473" lon="-1.44938">
        <ele>57</ele>
        <time>2026-02-12T13:13:48Z</time>
      </trkpt>
      <trkpt lat="43.34762" lon="-1.44966">
        <ele>54</ele>
        <time>2026-02-12T13:13:54Z</time>
      </trkpt>
      <trkpt lat="43.34779" lon="-1.44977">
        <ele>54</ele>
        <time>2026-02-12T13:13:58Z</time>
      </trkpt>
      <trkpt lat="43.34825" lon="-1.44995">
        <ele>53</ele>
        <time>2026-02-12T13:14:06Z</time>
      </trkpt>
      <trkpt lat="43.34879" lon="-1.45025">
        <ele>49</ele>
        <time>2026-02-12T13:14:17Z</time>
      </trkpt>
      <trkpt lat="43.34889" lon="-1.45037">
        <ele>48</ele>
        <time>2026-02-12T13:14:19Z</time>
      </trkpt>
      <trkpt lat="43.34915" lon="-1.45081">
        <ele>50</ele>
        <time>2026-02-12T13:14:26Z</time>
      </trkpt>
      <trkpt lat="43.34927" lon="-1.45089">
        <ele>49</ele>
        <time>2026-02-12T13:14:29Z</time>
      </trkpt>
      <trkpt lat="43.34941" lon="-1.45088">
        <ele>48</ele>
        <time>2026-02-12T13:14:31Z</time>
      </trkpt>
      <trkpt lat="43.34992" lon="-1.45056">
        <ele>43</ele>
        <time>2026-02-12T13:14:41Z</time>
      </trkpt>
      <trkpt lat="43.35068" lon="-1.45062">
        <ele>47</ele>
        <time>2026-02-12T13:14:55Z</time>
      </trkpt>
      <trkpt lat="43.35091" lon="-1.45075">
        <ele>49</ele>
        <time>2026-02-12T13:14:59Z</time>
      </trkpt>
      <trkpt lat="43.35104" lon="-1.45094">
        <ele>50</ele>
        <time>2026-02-12T13:15:02Z</time>
      </trkpt>
      <trkpt lat="43.35121" lon="-1.45127">
        <ele>53</ele>
        <time>2026-02-12T13:15:08Z</time>
      </trkpt>
      <trkpt lat="43.35126" lon="-1.45131">
        <ele>54</ele>
        <time>2026-02-12T13:15:09Z</time>
      </trkpt>
      <trkpt lat="43.35132" lon="-1.45133">
        <ele>54</ele>
        <time>2026-02-12T13:15:10Z</time>
      </trkpt>
      <trkpt lat="43.35143" lon="-1.45131">
        <ele>53</ele>
        <time>2026-02-12T13:15:12Z</time>
      </trkpt>
      <trkpt lat="43.3517" lon="-1.45116">
        <ele>51</ele>
        <time>2026-02-12T13:15:17Z</time>
      </trkpt>
      <trkpt lat="43.35184" lon="-1.45116">
        <ele>51</ele>
        <time>2026-02-12T13:15:19Z</time>
      </trkpt>
      <trkpt lat="43.3519" lon="-1.4512">
        <ele>51</ele>
        <time>2026-02-12T13:15:21Z</time>
      </trkpt>
      <trkpt lat="43.35201" lon="-1.45136">
        <ele>53</ele>
        <time>2026-02-12T13:15:23Z</time>
      </trkpt>
      <trkpt lat="43.35205" lon="-1.45151">
        <ele>55</ele>
        <time>2026-02-12T13:15:26Z</time>
      </trkpt>
      <trkpt lat="43.35206" lon="-1.45172">
        <ele>57</ele>
        <time>2026-02-12T13:15:28Z</time>
      </trkpt>
      <trkpt lat="43.35203" lon="-1.45187">
        <ele>58</ele>
        <time>2026-02-12T13:15:30Z</time>
      </trkpt>
      <trkpt lat="43.352" lon="-1.45195">
        <ele>59</ele>
        <time>2026-02-12T13:15:31Z</time>
      </trkpt>
      <trkpt lat="43.35158" lon="-1.45237">
        <ele>63</ele>
        <time>2026-02-12T13:15:41Z</time>
      </trkpt>
      <trkpt lat="43.35128" lon="-1.45313">
        <ele>64</ele>
        <time>2026-02-12T13:15:52Z</time>
      </trkpt>
      <trkpt lat="43.35126" lon="-1.45332">
        <ele>64</ele>
        <time>2026-02-12T13:15:54Z</time>
      </trkpt>
      <trkpt lat="43.3513" lon="-1.45367">
        <ele>65</ele>
        <time>2026-02-12T13:15:59Z</time>
      </trkpt>
      <trkpt lat="43.35161" lon="-1.45507">
        <ele>71</ele>
        <time>2026-02-12T13:16:18Z</time>
      </trkpt>
      <trkpt lat="43.35169" lon="-1.4556">
        <ele>74</ele>
        <time>2026-02-12T13:16:25Z</time>
      </trkpt>
      <trkpt lat="43.3517" lon="-1.45811">
        <ele>91</ele>
        <time>2026-02-12T13:16:57Z</time>
      </trkpt>
      <trkpt lat="43.3518" lon="-1.45846">
        <ele>93</ele>
        <time>2026-02-12T13:17:02Z</time>
      </trkpt>
      <trkpt lat="43.3519" lon="-1.45869">
        <ele>93</ele>
        <time>2026-02-12T13:17:06Z</time>
      </trkpt>
      <trkpt lat="43.35228" lon="-1.45937">
        <ele>95</ele>
        <time>2026-02-12T13:17:17Z</time>
      </trkpt>
      <trkpt lat="43.35253" lon="-1.45989">
        <ele>95</ele>
        <time>2026-02-12T13:17:25Z</time>
      </trkpt>
      <trkpt lat="43.35274" lon="-1.46022">
        <ele>96</ele>
        <time>2026-02-12T13:17:31Z</time>
      </trkpt>
      <trkpt lat="43.35293" lon="-1.46046">
        <ele>97</ele>
        <time>2026-02-12T13:17:35Z</time>
      </trkpt>
      <trkpt lat="43.35321" lon="-1.46072">
        <ele>100</ele>
        <time>2026-02-12T13:17:41Z</time>
      </trkpt>
      <trkpt lat="43.35355" lon="-1.46086">
        <ele>101</ele>
        <time>2026-02-12T13:17:47Z</time>
      </trkpt>
      <trkpt lat="43.35401" lon="-1.46114">
        <ele>103</ele>
        <time>2026-02-12T13:17:56Z</time>
      </trkpt>
      <trkpt lat="43.35458" lon="-1.46159">
        <ele>108</ele>
        <time>2026-02-12T13:18:08Z</time>
      </trkpt>
      <trkpt lat="43.35533" lon="-1.46214">
        <ele>114</ele>
        <time>2026-02-12T13:18:23Z</time>
      </trkpt>
      <trkpt lat="43.35567" lon="-1.46236">
        <ele>117</ele>
        <time>2026-02-12T13:18:30Z</time>
      </trkpt>
      <trkpt lat="43.35623" lon="-1.4628">
        <ele>119</ele>
        <time>2026-02-12T13:18:41Z</time>
      </trkpt>
      <trkpt lat="43.35688" lon="-1.46321">
        <ele>122</ele>
        <time>2026-02-12T13:18:54Z</time>
      </trkpt>
      <trkpt lat="43.35704" lon="-1.46329">
        <ele>122</ele>
        <time>2026-02-12T13:18:57Z</time>
      </trkpt>
      <trkpt lat="43.35737" lon="-1.46339">
        <ele>122</ele>
        <time>2026-02-12T13:19:03Z</time>
      </trkpt>
      <trkpt lat="43.35807" lon="-1.46352">
        <ele>122</ele>
        <time>2026-02-12T13:19:16Z</time>
      </trkpt>
      <trkpt lat="43.36011" lon="-1.46434">
        <ele>119</ele>
        <time>2026-02-12T13:19:54Z</time>
      </trkpt>
      <trkpt lat="43.36021" lon="-1.4644">
        <ele>119</ele>
        <time>2026-02-12T13:19:55Z</time>
      </trkpt>
      <trkpt lat="43.36098" lon="-1.46514">
        <ele>124</ele>
        <time>2026-02-12T13:20:12Z</time>
      </trkpt>
      <trkpt lat="43.36124" lon="-1.46534">
        <ele>129</ele>
        <time>2026-02-12T13:20:17Z</time>
      </trkpt>
      <trkpt lat="43.36148" lon="-1.46557">
        <ele>134</ele>
        <time>2026-02-12T13:20:23Z</time>
      </trkpt>
      <trkpt lat="43.36154" lon="-1.46557">
        <ele>134</ele>
        <time>2026-02-12T13:20:24Z</time>
      </trkpt>
      <trkpt lat="43.36164" lon="-1.46549">
        <ele>133</ele>
        <time>2026-02-12T13:20:26Z</time>
      </trkpt>
      <trkpt lat="43.36198" lon="-1.46513">
        <ele>127</ele>
        <time>2026-02-12T13:20:33Z</time>
      </trkpt>
      <trkpt lat="43.3621" lon="-1.46511">
        <ele>128</ele>
        <time>2026-02-12T13:20:36Z</time>
      </trkpt>
      <trkpt lat="43.36222" lon="-1.46515">
        <ele>129</ele>
        <time>2026-02-12T13:20:38Z</time>
      </trkpt>
      <trkpt lat="43.36235" lon="-1.46531">
        <ele>131</ele>
        <time>2026-02-12T13:20:41Z</time>
      </trkpt>
      <trkpt lat="43.36245" lon="-1.46557">
        <ele>134</ele>
        <time>2026-02-12T13:20:45Z</time>
      </trkpt>
      <trkpt lat="43.36251" lon="-1.46585">
        <ele>137</ele>
        <time>2026-02-12T13:20:48Z</time>
      </trkpt>
      <trkpt lat="43.36255" lon="-1.46621">
        <ele>139</ele>
        <time>2026-02-12T13:20:53Z</time>
      </trkpt>
      <trkpt lat="43.36261" lon="-1.46637">
        <ele>139</ele>
        <time>2026-02-12T13:20:55Z</time>
      </trkpt>
      <trkpt lat="43.36275" lon="-1.46649">
        <ele>138</ele>
        <time>2026-02-12T13:20:58Z</time>
      </trkpt>
      <trkpt lat="43.36295" lon="-1.46655">
        <ele>136</ele>
        <time>2026-02-12T13:21:02Z</time>
      </trkpt>
      <trkpt lat="43.36311" lon="-1.46664">
        <ele>135</ele>
        <time>2026-02-12T13:21:05Z</time>
      </trkpt>
      <trkpt lat="43.36343" lon="-1.46697">
        <ele>131</ele>
        <time>2026-02-12T13:21:12Z</time>
      </trkpt>
      <trkpt lat="43.36351" lon="-1.46712">
        <ele>130</ele>
        <time>2026-02-12T13:21:15Z</time>
      </trkpt>
      <trkpt lat="43.36359" lon="-1.46739">
        <ele>130</ele>
        <time>2026-02-12T13:21:18Z</time>
      </trkpt>
      <trkpt lat="43.36362" lon="-1.46765">
        <ele>130</ele>
        <time>2026-02-12T13:21:22Z</time>
      </trkpt>
      <trkpt lat="43.36362" lon="-1.46808">
        <ele>129</ele>
        <time>2026-02-12T13:21:27Z</time>
      </trkpt>
      <trkpt lat="43.36372" lon="-1.46822">
        <ele>128</ele>
        <time>2026-02-12T13:21:30Z</time>
      </trkpt>
      <trkpt lat="43.36388" lon="-1.46834">
        <ele>127</ele>
        <time>2026-02-12T13:21:33Z</time>
      </trkpt>
      <trkpt lat="43.364" lon="-1.46839">
        <ele>126</ele>
        <time>2026-02-12T13:21:35Z</time>
      </trkpt>
      <trkpt lat="43.36413" lon="-1.46837">
        <ele>126</ele>
        <time>2026-02-12T13:21:38Z</time>
      </trkpt>
      <trkpt lat="43.36425" lon="-1.46831">
        <ele>125</ele>
        <time>2026-02-12T13:21:40Z</time>
      </trkpt>
      <trkpt lat="43.36452" lon="-1.46806">
        <ele>120</ele>
        <time>2026-02-12T13:21:46Z</time>
      </trkpt>
      <trkpt lat="43.3649" lon="-1.46759">
        <ele>114</ele>
        <time>2026-02-12T13:21:55Z</time>
      </trkpt>
      <trkpt lat="43.36541" lon="-1.46684">
        <ele>106</ele>
        <time>2026-02-12T13:22:08Z</time>
      </trkpt>
      <trkpt lat="43.3656" lon="-1.4666">
        <ele>105</ele>
        <time>2026-02-12T13:22:13Z</time>
      </trkpt>
      <trkpt lat="43.36582" lon="-1.4664">
        <ele>105</ele>
        <time>2026-02-12T13:22:17Z</time>
      </trkpt>
      <trkpt lat="43.36637" lon="-1.46604">
        <ele>105</ele>
        <time>2026-02-12T13:22:28Z</time>
      </trkpt>
      <trkpt lat="43.36683" lon="-1.46568">
        <ele>109</ele>
        <time>2026-02-12T13:22:38Z</time>
      </trkpt>
      <trkpt lat="43.36743" lon="-1.46505">
        <ele>113</ele>
        <time>2026-02-12T13:22:51Z</time>
      </trkpt>
      <trkpt lat="43.36762" lon="-1.46479">
        <ele>112</ele>
        <time>2026-02-12T13:22:56Z</time>
      </trkpt>
      <trkpt lat="43.36779" lon="-1.46448">
        <ele>112</ele>
        <time>2026-02-12T13:23:01Z</time>
      </trkpt>
      <trkpt lat="43.36791" lon="-1.46434">
        <ele>112</ele>
        <time>2026-02-12T13:23:04Z</time>
      </trkpt>
      <trkpt lat="43.36801" lon="-1.46427">
        <ele>112</ele>
        <time>2026-02-12T13:23:06Z</time>
      </trkpt>
      <trkpt lat="43.36817" lon="-1.46422">
        <ele>113</ele>
        <time>2026-02-12T13:23:09Z</time>
      </trkpt>
      <trkpt lat="43.36854" lon="-1.46421">
        <ele>111</ele>
        <time>2026-02-12T13:23:15Z</time>
      </trkpt>
      <trkpt lat="43.36882" lon="-1.46417">
        <ele>109</ele>
        <time>2026-02-12T13:23:20Z</time>
      </trkpt>
      <trkpt lat="43.37023" lon="-1.46378">
        <ele>101</ele>
        <time>2026-02-12T13:23:46Z</time>
      </trkpt>
      <trkpt lat="43.37061" lon="-1.46366">
        <ele>100</ele>
        <time>2026-02-12T13:23:53Z</time>
      </trkpt>
      <trkpt lat="43.37202" lon="-1.46307">
        <ele>97</ele>
        <time>2026-02-12T13:24:19Z</time>
      </trkpt>
      <trkpt lat="43.37282" lon="-1.46282">
        <ele>98</ele>
        <time>2026-02-12T13:24:34Z</time>
      </trkpt>
      <trkpt lat="43.37545" lon="-1.46235">
        <ele>90</ele>
        <time>2026-02-12T13:25:21Z</time>
      </trkpt>
      <trkpt lat="43.3763" lon="-1.46217">
        <ele>88</ele>
        <time>2026-02-12T13:25:36Z</time>
      </trkpt>
      <trkpt lat="43.3766" lon="-1.46208">
        <ele>88</ele>
        <time>2026-02-12T13:25:42Z</time>
      </trkpt>
      <trkpt lat="43.37677" lon="-1.46198">
        <ele>88</ele>
        <time>2026-02-12T13:25:45Z</time>
      </trkpt>
      <trkpt lat="43.37692" lon="-1.46183">
        <ele>88</ele>
        <time>2026-02-12T13:25:48Z</time>
      </trkpt>
      <trkpt lat="43.37746" lon="-1.46113">
        <ele>92</ele>
        <time>2026-02-12T13:26:01Z</time>
      </trkpt>
      <trkpt lat="43.37821" lon="-1.46027">
        <ele>93</ele>
        <time>2026-02-12T13:26:19Z</time>
      </trkpt>
      <trkpt lat="43.3786" lon="-1.45967">
        <ele>93</ele>
        <time>2026-02-12T13:26:29Z</time>
      </trkpt>
      <trkpt lat="43.37986" lon="-1.45719">
        <ele>93</ele>
        <time>2026-02-12T13:27:08Z</time>
      </trkpt>
      <trkpt lat="43.37999" lon="-1.45677">
        <ele>94</ele>
        <time>2026-02-12T13:27:14Z</time>
      </trkpt>
      <trkpt lat="43.38018" lon="-1.45556">
        <ele>94</ele>
        <time>2026-02-12T13:27:30Z</time>
      </trkpt>
      <trkpt lat="43.38027" lon="-1.4552">
        <ele>94</ele>
        <time>2026-02-12T13:27:35Z</time>
      </trkpt>
      <trkpt lat="43.38045" lon="-1.4549">
        <ele>93</ele>
        <time>2026-02-12T13:27:40Z</time>
      </trkpt>
      <trkpt lat="43.3807" lon="-1.45471">
        <ele>91</ele>
        <time>2026-02-12T13:27:45Z</time>
      </trkpt>
      <trkpt lat="43.38093" lon="-1.45469">
        <ele>89</ele>
        <time>2026-02-12T13:27:49Z</time>
      </trkpt>
      <trkpt lat="43.38109" lon="-1.45474">
        <ele>88</ele>
        <time>2026-02-12T13:27:52Z</time>
      </trkpt>
      <trkpt lat="43.38142" lon="-1.45488">
        <ele>85</ele>
        <time>2026-02-12T13:27:58Z</time>
      </trkpt>
      <trkpt lat="43.38244" lon="-1.45543">
        <ele>83</ele>
        <time>2026-02-12T13:28:18Z</time>
      </trkpt>
      <trkpt lat="43.38275" lon="-1.45556">
        <ele>84</ele>
        <time>2026-02-12T13:28:24Z</time>
      </trkpt>
      <trkpt lat="43.38423" lon="-1.45588">
        <ele>84</ele>
        <time>2026-02-12T13:28:50Z</time>
      </trkpt>
      <trkpt lat="43.38556" lon="-1.45621">
        <ele>80</ele>
        <time>2026-02-12T13:29:14Z</time>
      </trkpt>
      <trkpt lat="43.38602" lon="-1.45635">
        <ele>82</ele>
        <time>2026-02-12T13:29:23Z</time>
      </trkpt>
      <trkpt lat="43.38621" lon="-1.45647">
        <ele>85</ele>
        <time>2026-02-12T13:29:26Z</time>
      </trkpt>
      <trkpt lat="43.38632" lon="-1.45657">
        <ele>87</ele>
        <time>2026-02-12T13:29:29Z</time>
      </trkpt>
      <trkpt lat="43.38644" lon="-1.45677">
        <ele>88</ele>
        <time>2026-02-12T13:29:32Z</time>
      </trkpt>
      <trkpt lat="43.38687" lon="-1.45796">
        <ele>93</ele>
        <time>2026-02-12T13:29:49Z</time>
      </trkpt>
      <trkpt lat="43.38727" lon="-1.45874">
        <ele>97</ele>
        <time>2026-02-12T13:30:02Z</time>
      </trkpt>
      <trkpt lat="43.38738" lon="-1.45909">
        <ele>97</ele>
        <time>2026-02-12T13:30:07Z</time>
      </trkpt>
      <trkpt lat="43.38747" lon="-1.45952">
        <ele>96</ele>
        <time>2026-02-12T13:30:12Z</time>
      </trkpt>
      <trkpt lat="43.38753" lon="-1.45966">
        <ele>96</ele>
        <time>2026-02-12T13:30:14Z</time>
      </trkpt>
      <trkpt lat="43.38808" lon="-1.46063">
        <ele>90</ele>
        <time>2026-02-12T13:30:30Z</time>
      </trkpt>
      <trkpt lat="43.38823" lon="-1.46079">
        <ele>89</ele>
        <time>2026-02-12T13:30:34Z</time>
      </trkpt>
      <trkpt lat="43.38843" lon="-1.4609">
        <ele>87</ele>
        <time>2026-02-12T13:30:38Z</time>
      </trkpt>
      <trkpt lat="43.38864" lon="-1.46097">
        <ele>83</ele>
        <time>2026-02-12T13:30:41Z</time>
      </trkpt>
      <trkpt lat="43.389" lon="-1.46104">
        <ele>78</ele>
        <time>2026-02-12T13:30:48Z</time>
      </trkpt>
      <trkpt lat="43.38922" lon="-1.46104">
        <ele>76</ele>
        <time>2026-02-12T13:30:52Z</time>
      </trkpt>
      <trkpt lat="43.38941" lon="-1.46097">
        <ele>74</ele>
        <time>2026-02-12T13:30:55Z</time>
      </trkpt>
      <trkpt lat="43.3895" lon="-1.46091">
        <ele>73</ele>
        <time>2026-02-12T13:30:57Z</time>
      </trkpt>
      <trkpt lat="43.38958" lon="-1.46082">
        <ele>73</ele>
        <time>2026-02-12T13:30:59Z</time>
      </trkpt>
      <trkpt lat="43.39005" lon="-1.46005">
        <ele>69</ele>
        <time>2026-02-12T13:31:12Z</time>
      </trkpt>
      <trkpt lat="43.39026" lon="-1.4598">
        <ele>66</ele>
        <time>2026-02-12T13:31:17Z</time>
      </trkpt>
      <trkpt lat="43.39092" lon="-1.45919">
        <ele>63</ele>
        <time>2026-02-12T13:31:31Z</time>
      </trkpt>
      <trkpt lat="43.39115" lon="-1.45902">
        <ele>62</ele>
        <time>2026-02-12T13:31:36Z</time>
      </trkpt>
      <trkpt lat="43.39131" lon="-1.45895">
        <ele>61</ele>
        <time>2026-02-12T13:31:39Z</time>
      </trkpt>
      <trkpt lat="43.39157" lon="-1.45893">
        <ele>60</ele>
        <time>2026-02-12T13:31:43Z</time>
      </trkpt>
      <trkpt lat="43.39174" lon="-1.45895">
        <ele>60</ele>
        <time>2026-02-12T13:31:46Z</time>
      </trkpt>
      <trkpt lat="43.39189" lon="-1.459">
        <ele>59</ele>
        <time>2026-02-12T13:31:49Z</time>
      </trkpt>
      <trkpt lat="43.39204" lon="-1.45909">
        <ele>58</ele>
        <time>2026-02-12T13:31:52Z</time>
      </trkpt>
      <trkpt lat="43.39234" lon="-1.45933">
        <ele>55</ele>
        <time>2026-02-12T13:31:58Z</time>
      </trkpt>
      <trkpt lat="43.39235" lon="-1.4594">
        <ele>55</ele>
        <time>2026-02-12T13:31:59Z</time>
      </trkpt>
      <trkpt lat="43.39231" lon="-1.45948">
        <ele>54</ele>
        <time>2026-02-12T13:32:00Z</time>
      </trkpt>
      <trkpt lat="43.39227" lon="-1.45949">
        <ele>54</ele>
        <time>2026-02-12T13:32:01Z</time>
      </trkpt>
      <trkpt lat="43.39178" lon="-1.45952">
        <ele>54</ele>
        <time>2026-02-12T13:32:10Z</time>
      </trkpt>
      <trkpt lat="43.39164" lon="-1.4595">
        <ele>55</ele>
        <time>2026-02-12T13:32:12Z</time>
      </trkpt>
      <trkpt lat="43.39148" lon="-1.45954">
        <ele>56</ele>
        <time>2026-02-12T13:32:15Z</time>
      </trkpt>
      <trkpt lat="43.3913" lon="-1.45961">
        <ele>56</ele>
        <time>2026-02-12T13:32:19Z</time>
      </trkpt>
      <trkpt lat="43.39113" lon="-1.45973">
        <ele>57</ele>
        <time>2026-02-12T13:32:22Z</time>
      </trkpt>
      <trkpt lat="43.39091" lon="-1.45998">
        <ele>57</ele>
        <time>2026-02-12T13:32:27Z</time>
      </trkpt>
      <trkpt lat="43.39057" lon="-1.46049">
        <ele>55</ele>
        <time>2026-02-12T13:32:36Z</time>
      </trkpt>
      <trkpt lat="43.38994" lon="-1.46162">
        <ele>52</ele>
        <time>2026-02-12T13:32:54Z</time>
      </trkpt>
      <trkpt lat="43.38974" lon="-1.46192">
        <ele>51</ele>
        <time>2026-02-12T13:33:00Z</time>
      </trkpt>
      <trkpt lat="43.38943" lon="-1.46223">
        <ele>50</ele>
        <time>2026-02-12T13:33:06Z</time>
      </trkpt>
      <trkpt lat="43.38857" lon="-1.46288">
        <ele>48</ele>
        <time>2026-02-12T13:33:24Z</time>
      </trkpt>
      <trkpt lat="43.38775" lon="-1.46326">
        <ele>46</ele>
        <time>2026-02-12T13:33:39Z</time>
      </trkpt>
      <trkpt lat="43.38752" lon="-1.46333">
        <ele>45</ele>
        <time>2026-02-12T13:33:43Z</time>
      </trkpt>
      <trkpt lat="43.38727" lon="-1.46325">
        <ele>44</ele>
        <time>2026-02-12T13:33:48Z</time>
      </trkpt>
      <trkpt lat="43.38693" lon="-1.46296">
        <ele>44</ele>
        <time>2026-02-12T13:33:55Z</time>
      </trkpt>
      <trkpt lat="43.38674" lon="-1.46286">
        <ele>43</ele>
        <time>2026-02-12T13:33:59Z</time>
      </trkpt>
      <trkpt lat="43.38645" lon="-1.46278">
        <ele>43</ele>
        <time>2026-02-12T13:34:04Z</time>
      </trkpt>
      <trkpt lat="43.38626" lon="-1.46282">
        <ele>42</ele>
        <time>2026-02-12T13:34:07Z</time>
      </trkpt>
      <trkpt lat="43.38609" lon="-1.46291">
        <ele>40</ele>
        <time>2026-02-12T13:34:11Z</time>
      </trkpt>
      <trkpt lat="43.38586" lon="-1.46313">
        <ele>37</ele>
        <time>2026-02-12T13:34:16Z</time>
      </trkpt>
      <trkpt lat="43.38556" lon="-1.46357">
        <ele>35</ele>
        <time>2026-02-12T13:34:24Z</time>
      </trkpt>
      <trkpt lat="43.38542" lon="-1.4637">
        <ele>35</ele>
        <time>2026-02-12T13:34:27Z</time>
      </trkpt>
      <trkpt lat="43.38527" lon="-1.46375">
        <ele>34</ele>
        <time>2026-02-12T13:34:29Z</time>
      </trkpt>
      <trkpt lat="43.38482" lon="-1.46373">
        <ele>35</ele>
        <time>2026-02-12T13:34:37Z</time>
      </trkpt>
      <trkpt lat="43.38472" lon="-1.46377">
        <ele>35</ele>
        <time>2026-02-12T13:34:39Z</time>
      </trkpt>
      <trkpt lat="43.38447" lon="-1.46392">
        <ele>36</ele>
        <time>2026-02-12T13:34:44Z</time>
      </trkpt>
      <trkpt lat="43.38421" lon="-1.46417">
        <ele>37</ele>
        <time>2026-02-12T13:34:50Z</time>
      </trkpt>
      <trkpt lat="43.38413" lon="-1.46431">
        <ele>38</ele>
        <time>2026-02-12T13:34:52Z</time>
      </trkpt>
      <trkpt lat="43.38407" lon="-1.46436">
        <ele>38</ele>
        <time>2026-02-12T13:34:53Z</time>
      </trkpt>
      <trkpt lat="43.38401" lon="-1.46434">
        <ele>39</ele>
        <time>2026-02-12T13:34:54Z</time>
      </trkpt>
      <trkpt lat="43.38391" lon="-1.46416">
        <ele>39</ele>
        <time>2026-02-12T13:34:57Z</time>
      </trkpt>
      <trkpt lat="43.38387" lon="-1.46413">
        <ele>39</ele>
        <time>2026-02-12T13:34:58Z</time>
      </trkpt>
      <trkpt lat="43.38378" lon="-1.4641">
        <ele>40</ele>
        <time>2026-02-12T13:35:00Z</time>
      </trkpt>
      <trkpt lat="43.38369" lon="-1.46413">
        <ele>41</ele>
        <time>2026-02-12T13:35:01Z</time>
      </trkpt>
      <trkpt lat="43.38358" lon="-1.46421">
        <ele>41</ele>
        <time>2026-02-12T13:35:04Z</time>
      </trkpt>
      <trkpt lat="43.38327" lon="-1.46464">
        <ele>42</ele>
        <time>2026-02-12T13:35:11Z</time>
      </trkpt>
      <trkpt lat="43.38314" lon="-1.46478">
        <ele>43</ele>
        <time>2026-02-12T13:35:14Z</time>
      </trkpt>
      <trkpt lat="43.383" lon="-1.46488">
        <ele>43</ele>
        <time>2026-02-12T13:35:17Z</time>
      </trkpt>
      <trkpt lat="43.38264" lon="-1.46505">
        <ele>46</ele>
        <time>2026-02-12T13:35:24Z</time>
      </trkpt>
      <trkpt lat="43.38245" lon="-1.4652">
        <ele>47</ele>
        <time>2026-02-12T13:35:28Z</time>
      </trkpt>
      <trkpt lat="43.38237" lon="-1.46532">
        <ele>47</ele>
        <time>2026-02-12T13:35:30Z</time>
      </trkpt>
      <trkpt lat="43.38223" lon="-1.46562">
        <ele>48</ele>
        <time>2026-02-12T13:35:34Z</time>
      </trkpt>
      <trkpt lat="43.38202" lon="-1.46623">
        <ele>48</ele>
        <time>2026-02-12T13:35:43Z</time>
      </trkpt>
      <trkpt lat="43.3817" lon="-1.46741">
        <ele>50</ele>
        <time>2026-02-12T13:35:59Z</time>
      </trkpt>
      <trkpt lat="43.38165" lon="-1.46767">
        <ele>50</ele>
        <time>2026-02-12T13:36:03Z</time>
      </trkpt>
      <trkpt lat="43.38156" lon="-1.46825">
        <ele>51</ele>
        <time>2026-02-12T13:36:11Z</time>
      </trkpt>
      <trkpt lat="43.38149" lon="-1.46894">
        <ele>51</ele>
        <time>2026-02-12T13:36:20Z</time>
      </trkpt>
      <trkpt lat="43.38157" lon="-1.47045">
        <ele>50</ele>
        <time>2026-02-12T13:36:39Z</time>
      </trkpt>
      <trkpt lat="43.38154" lon="-1.47067">
        <ele>50</ele>
        <time>2026-02-12T13:36:42Z</time>
      </trkpt>
      <trkpt lat="43.38146" lon="-1.47093">
        <ele>50</ele>
        <time>2026-02-12T13:36:46Z</time>
      </trkpt>
      <trkpt lat="43.38119" lon="-1.4714">
        <ele>50</ele>
        <time>2026-02-12T13:36:54Z</time>
      </trkpt>
      <trkpt lat="43.38076" lon="-1.47186">
        <ele>50</ele>
        <time>2026-02-12T13:37:03Z</time>
      </trkpt>
      <trkpt lat="43.3802" lon="-1.47238">
        <ele>51</ele>
        <time>2026-02-12T13:37:15Z</time>
      </trkpt>
      <trkpt lat="43.37926" lon="-1.47303">
        <ele>53</ele>
        <time>2026-02-12T13:37:34Z</time>
      </trkpt>
      <trkpt lat="43.37911" lon="-1.47317">
        <ele>54</ele>
        <time>2026-02-12T13:37:37Z</time>
      </trkpt>
      <trkpt lat="43.37897" lon="-1.47335">
        <ele>55</ele>
        <time>2026-02-12T13:37:41Z</time>
      </trkpt>
      <trkpt lat="43.37885" lon="-1.47357">
        <ele>56</ele>
        <time>2026-02-12T13:37:44Z</time>
      </trkpt>
      <trkpt lat="43.3788" lon="-1.47369">
        <ele>56</ele>
        <time>2026-02-12T13:37:46Z</time>
      </trkpt>
      <trkpt lat="43.37876" lon="-1.47389">
        <ele>56</ele>
        <time>2026-02-12T13:37:49Z</time>
      </trkpt>
      <trkpt lat="43.37869" lon="-1.4748">
        <ele>58</ele>
        <time>2026-02-12T13:38:00Z</time>
      </trkpt>
      <trkpt lat="43.37873" lon="-1.47522">
        <ele>59</ele>
        <time>2026-02-12T13:38:06Z</time>
      </trkpt>
      <trkpt lat="43.37879" lon="-1.47547">
        <ele>61</ele>
        <time>2026-02-12T13:38:09Z</time>
      </trkpt>
      <trkpt lat="43.37895" lon="-1.47567">
        <ele>63</ele>
        <time>2026-02-12T13:38:13Z</time>
      </trkpt>
      <trkpt lat="43.37936" lon="-1.47596">
        <ele>66</ele>
        <time>2026-02-12T13:38:21Z</time>
      </trkpt>
      <trkpt lat="43.37971" lon="-1.47618">
        <ele>69</ele>
        <time>2026-02-12T13:38:28Z</time>
      </trkpt>
      <trkpt lat="43.37983" lon="-1.47618">
        <ele>70</ele>
        <time>2026-02-12T13:38:30Z</time>
      </trkpt>
      <trkpt lat="43.38086" lon="-1.47596">
        <ele>78</ele>
        <time>2026-02-12T13:38:49Z</time>
      </trkpt>
      <trkpt lat="43.3813" lon="-1.47583">
        <ele>82</ele>
        <time>2026-02-12T13:38:57Z</time>
      </trkpt>
      <trkpt lat="43.38147" lon="-1.47571">
        <ele>83</ele>
        <time>2026-02-12T13:39:00Z</time>
      </trkpt>
      <trkpt lat="43.38281" lon="-1.47451">
        <ele>85</ele>
        <time>2026-02-12T13:39:29Z</time>
      </trkpt>
      <trkpt lat="43.38312" lon="-1.47431">
        <ele>85</ele>
        <time>2026-02-12T13:39:35Z</time>
      </trkpt>
      <trkpt lat="43.38347" lon="-1.47422">
        <ele>85</ele>
        <time>2026-02-12T13:39:41Z</time>
      </trkpt>
      <trkpt lat="43.38407" lon="-1.4743">
        <ele>84</ele>
        <time>2026-02-12T13:39:52Z</time>
      </trkpt>
      <trkpt lat="43.38425" lon="-1.47428">
        <ele>84</ele>
        <time>2026-02-12T13:39:55Z</time>
      </trkpt>
      <trkpt lat="43.38433" lon="-1.47424">
        <ele>84</ele>
        <time>2026-02-12T13:39:57Z</time>
      </trkpt>
      <trkpt lat="43.38452" lon="-1.47405">
        <ele>84</ele>
        <time>2026-02-12T13:40:01Z</time>
      </trkpt>
      <trkpt lat="43.3849" lon="-1.47353">
        <ele>82</ele>
        <time>2026-02-12T13:40:10Z</time>
      </trkpt>
      <trkpt lat="43.38509" lon="-1.47324">
        <ele>81</ele>
        <time>2026-02-12T13:40:15Z</time>
      </trkpt>
      <trkpt lat="43.38531" lon="-1.47284">
        <ele>80</ele>
        <time>2026-02-12T13:40:22Z</time>
      </trkpt>
      <trkpt lat="43.38535" lon="-1.47282">
        <ele>81</ele>
        <time>2026-02-12T13:40:23Z</time>
      </trkpt>
      <trkpt lat="43.3854" lon="-1.47284">
        <ele>81</ele>
        <time>2026-02-12T13:40:24Z</time>
      </trkpt>
      <trkpt lat="43.38547" lon="-1.47299">
        <ele>82</ele>
        <time>2026-02-12T13:40:26Z</time>
      </trkpt>
      <trkpt lat="43.38569" lon="-1.47387">
        <ele>86</ele>
        <time>2026-02-12T13:40:38Z</time>
      </trkpt>
      <trkpt lat="43.38581" lon="-1.47421">
        <ele>87</ele>
        <time>2026-02-12T13:40:43Z</time>
      </trkpt>
      <trkpt lat="43.38586" lon="-1.47448">
        <ele>86</ele>
        <time>2026-02-12T13:40:46Z</time>
      </trkpt>
      <trkpt lat="43.38577" lon="-1.47604">
        <ele>89</ele>
        <time>2026-02-12T13:41:07Z</time>
      </trkpt>
      <trkpt lat="43.38584" lon="-1.47658">
        <ele>91</ele>
        <time>2026-02-12T13:41:14Z</time>
      </trkpt>
      <trkpt lat="43.38599" lon="-1.47734">
        <ele>93</ele>
        <time>2026-02-12T13:41:24Z</time>
      </trkpt>
      <trkpt lat="43.38618" lon="-1.47776">
        <ele>95</ele>
        <time>2026-02-12T13:41:30Z</time>
      </trkpt>
      <trkpt lat="43.38652" lon="-1.4783">
        <ele>99</ele>
        <time>2026-02-12T13:41:40Z</time>
      </trkpt>
      <trkpt lat="43.38683" lon="-1.47897">
        <ele>102</ele>
        <time>2026-02-12T13:41:50Z</time>
      </trkpt>
      <trkpt lat="43.38703" lon="-1.47932">
        <ele>105</ele>
        <time>2026-02-12T13:41:56Z</time>
      </trkpt>
      <trkpt lat="43.38724" lon="-1.47958">
        <ele>107</ele>
        <time>2026-02-12T13:42:01Z</time>
      </trkpt>
      <trkpt lat="43.3878" lon="-1.47996">
        <ele>109</ele>
        <time>2026-02-12T13:42:12Z</time>
      </trkpt>
      <trkpt lat="43.38789" lon="-1.48008">
        <ele>109</ele>
        <time>2026-02-12T13:42:14Z</time>
      </trkpt>
      <trkpt lat="43.38798" lon="-1.4803">
        <ele>110</ele>
        <time>2026-02-12T13:42:17Z</time>
      </trkpt>
      <trkpt lat="43.3881" lon="-1.48164">
        <ele>113</ele>
        <time>2026-02-12T13:42:35Z</time>
      </trkpt>
      <trkpt lat="43.38803" lon="-1.48225">
        <ele>111</ele>
        <time>2026-02-12T13:42:43Z</time>
      </trkpt>
      <trkpt lat="43.38781" lon="-1.48347">
        <ele>111</ele>
        <time>2026-02-12T13:42:59Z</time>
      </trkpt>
      <trkpt lat="43.38766" lon="-1.48377">
        <ele>112</ele>
        <time>2026-02-12T13:43:04Z</time>
      </trkpt>
      <trkpt lat="43.38729" lon="-1.48434">
        <ele>114</ele>
        <time>2026-02-12T13:43:14Z</time>
      </trkpt>
      <trkpt lat="43.38715" lon="-1.4845">
        <ele>114</ele>
        <time>2026-02-12T13:43:17Z</time>
      </trkpt>
      <trkpt lat="43.3868" lon="-1.48479">
        <ele>116</ele>
        <time>2026-02-12T13:43:24Z</time>
      </trkpt>
      <trkpt lat="43.38655" lon="-1.48505">
        <ele>117</ele>
        <time>2026-02-12T13:43:30Z</time>
      </trkpt>
      <trkpt lat="43.38643" lon="-1.48527">
        <ele>116</ele>
        <time>2026-02-12T13:43:33Z</time>
      </trkpt>
      <trkpt lat="43.38637" lon="-1.48554">
        <ele>114</ele>
        <time>2026-02-12T13:43:37Z</time>
      </trkpt>
      <trkpt lat="43.38635" lon="-1.48574">
        <ele>113</ele>
        <time>2026-02-12T13:43:39Z</time>
      </trkpt>
      <trkpt lat="43.3864" lon="-1.48672">
        <ele>108</ele>
        <time>2026-02-12T13:43:52Z</time>
      </trkpt>
      <trkpt lat="43.38647" lon="-1.48724">
        <ele>108</ele>
        <time>2026-02-12T13:43:59Z</time>
      </trkpt>
      <trkpt lat="43.38653" lon="-1.48742">
        <ele>108</ele>
        <time>2026-02-12T13:44:02Z</time>
      </trkpt>
      <trkpt lat="43.38693" lon="-1.4881">
        <ele>107</ele>
        <time>2026-02-12T13:44:13Z</time>
      </trkpt>
      <trkpt lat="43.38703" lon="-1.48843">
        <ele>107</ele>
        <time>2026-02-12T13:44:17Z</time>
      </trkpt>
      <trkpt lat="43.38736" lon="-1.4913">
        <ele>119</ele>
        <time>2026-02-12T13:44:55Z</time>
      </trkpt>
      <trkpt lat="43.3874" lon="-1.49242">
        <ele>125</ele>
        <time>2026-02-12T13:45:10Z</time>
      </trkpt>
      <trkpt lat="43.38737" lon="-1.49282">
        <ele>126</ele>
        <time>2026-02-12T13:45:15Z</time>
      </trkpt>
      <trkpt lat="43.38712" lon="-1.49403">
        <ele>125</ele>
        <time>2026-02-12T13:45:31Z</time>
      </trkpt>
      <trkpt lat="43.38705" lon="-1.4943">
        <ele>127</ele>
        <time>2026-02-12T13:45:35Z</time>
      </trkpt>
      <trkpt lat="43.38691" lon="-1.49468">
        <ele>130</ele>
        <time>2026-02-12T13:45:40Z</time>
      </trkpt>
      <trkpt lat="43.38683" lon="-1.495">
        <ele>133</ele>
        <time>2026-02-12T13:45:45Z</time>
      </trkpt>
      <trkpt lat="43.38682" lon="-1.49533">
        <ele>133</ele>
        <time>2026-02-12T13:45:49Z</time>
      </trkpt>
      <trkpt lat="43.38688" lon="-1.4961">
        <ele>132</ele>
        <time>2026-02-12T13:45:59Z</time>
      </trkpt>
      <trkpt lat="43.38684" lon="-1.49641">
        <ele>133</ele>
        <time>2026-02-12T13:46:03Z</time>
      </trkpt>
      <trkpt lat="43.3867" lon="-1.49684">
        <ele>136</ele>
        <time>2026-02-12T13:46:09Z</time>
      </trkpt>
      <trkpt lat="43.38609" lon="-1.49829">
        <ele>140</ele>
        <time>2026-02-12T13:46:31Z</time>
      </trkpt>
      <trkpt lat="43.38572" lon="-1.49902">
        <ele>141</ele>
        <time>2026-02-12T13:46:42Z</time>
      </trkpt>
      <trkpt lat="43.38554" lon="-1.49925">
        <ele>140</ele>
        <time>2026-02-12T13:46:47Z</time>
      </trkpt>
      <trkpt lat="43.3851" lon="-1.49965">
        <ele>137</ele>
        <time>2026-02-12T13:46:56Z</time>
      </trkpt>
      <trkpt lat="43.38482" lon="-1.49998">
        <ele>136</ele>
        <time>2026-02-12T13:47:03Z</time>
      </trkpt>
      <trkpt lat="43.38475" lon="-1.50015">
        <ele>135</ele>
        <time>2026-02-12T13:47:05Z</time>
      </trkpt>
      <trkpt lat="43.38471" lon="-1.50035">
        <ele>134</ele>
        <time>2026-02-12T13:47:08Z</time>
      </trkpt>
      <trkpt lat="43.3846" lon="-1.50129">
        <ele>131</ele>
        <time>2026-02-12T13:47:20Z</time>
      </trkpt>
      <trkpt lat="43.3845" lon="-1.50161">
        <ele>130</ele>
        <time>2026-02-12T13:47:25Z</time>
      </trkpt>
      <trkpt lat="43.3841" lon="-1.50231">
        <ele>128</ele>
        <time>2026-02-12T13:47:36Z</time>
      </trkpt>
      <trkpt lat="43.38385" lon="-1.50265">
        <ele>127</ele>
        <time>2026-02-12T13:47:42Z</time>
      </trkpt>
      <trkpt lat="43.38364" lon="-1.50287">
        <ele>126</ele>
        <time>2026-02-12T13:47:47Z</time>
      </trkpt>
      <trkpt lat="43.38345" lon="-1.50314">
        <ele>126</ele>
        <time>2026-02-12T13:47:52Z</time>
      </trkpt>
      <trkpt lat="43.38263" lon="-1.50455">
        <ele>127</ele>
        <time>2026-02-12T13:48:15Z</time>
      </trkpt>
      <trkpt lat="43.38257" lon="-1.50458">
        <ele>127</ele>
        <time>2026-02-12T13:48:16Z</time>
      </trkpt>
      <trkpt lat="43.38249" lon="-1.50457">
        <ele>127</ele>
        <time>2026-02-12T13:48:18Z</time>
      </trkpt>
      <trkpt lat="43.3822" lon="-1.50452">
        <ele>127</ele>
        <time>2026-02-12T13:48:23Z</time>
      </trkpt>
      <trkpt lat="43.38162" lon="-1.50437">
        <ele>127</ele>
        <time>2026-02-12T13:48:33Z</time>
      </trkpt>
      <trkpt lat="43.38124" lon="-1.50432">
        <ele>127</ele>
        <time>2026-02-12T13:48:40Z</time>
      </trkpt>
      <trkpt lat="43.38017" lon="-1.50439">
        <ele>128</ele>
        <time>2026-02-12T13:48:59Z</time>
      </trkpt>
      <trkpt lat="43.37993" lon="-1.50445">
        <ele>128</ele>
        <time>2026-02-12T13:49:04Z</time>
      </trkpt>
      <trkpt lat="43.37961" lon="-1.50459">
        <ele>129</ele>
        <time>2026-02-12T13:49:10Z</time>
      </trkpt>
      <trkpt lat="43.37951" lon="-1.50461">
        <ele>129</ele>
        <time>2026-02-12T13:49:11Z</time>
      </trkpt>
      <trkpt lat="43.37937" lon="-1.50459">
        <ele>130</ele>
        <time>2026-02-12T13:49:14Z</time>
      </trkpt>
      <trkpt lat="43.37894" lon="-1.50443">
        <ele>129</ele>
        <time>2026-02-12T13:49:22Z</time>
      </trkpt>
      <trkpt lat="43.37884" lon="-1.50445">
        <ele>128</ele>
        <time>2026-02-12T13:49:24Z</time>
      </trkpt>
      <trkpt lat="43.37875" lon="-1.50453">
        <ele>128</ele>
        <time>2026-02-12T13:49:26Z</time>
      </trkpt>
      <trkpt lat="43.3787" lon="-1.50464">
        <ele>128</ele>
        <time>2026-02-12T13:49:27Z</time>
      </trkpt>
      <trkpt lat="43.3787" lon="-1.50477">
        <ele>128</ele>
        <time>2026-02-12T13:49:29Z</time>
      </trkpt>
      <trkpt lat="43.37876" lon="-1.50524">
        <ele>128</ele>
        <time>2026-02-12T13:49:35Z</time>
      </trkpt>
      <trkpt lat="43.37877" lon="-1.50573">
        <ele>128</ele>
        <time>2026-02-12T13:49:41Z</time>
      </trkpt>
      <trkpt lat="43.37874" lon="-1.50604">
        <ele>128</ele>
        <time>2026-02-12T13:49:45Z</time>
      </trkpt>
      <trkpt lat="43.37864" lon="-1.50662">
        <ele>129</ele>
        <time>2026-02-12T13:49:53Z</time>
      </trkpt>
      <trkpt lat="43.37857" lon="-1.50777">
        <ele>132</ele>
        <time>2026-02-12T13:50:08Z</time>
      </trkpt>
      <trkpt lat="43.37852" lon="-1.50808">
        <ele>132</ele>
        <time>2026-02-12T13:50:12Z</time>
      </trkpt>
      <trkpt lat="43.37843" lon="-1.50838">
        <ele>132</ele>
        <time>2026-02-12T13:50:16Z</time>
      </trkpt>
      <trkpt lat="43.37785" lon="-1.50969">
        <ele>134</ele>
        <time>2026-02-12T13:50:36Z</time>
      </trkpt>
      <trkpt lat="43.37728" lon="-1.51053">
        <ele>136</ele>
        <time>2026-02-12T13:50:51Z</time>
      </trkpt>
      <trkpt lat="43.37711" lon="-1.51102">
        <ele>136</ele>
        <time>2026-02-12T13:50:58Z</time>
      </trkpt>
      <trkpt lat="43.37702" lon="-1.5112">
        <ele>136</ele>
        <time>2026-02-12T13:51:01Z</time>
      </trkpt>
      <trkpt lat="43.37691" lon="-1.51136">
        <ele>136</ele>
        <time>2026-02-12T13:51:04Z</time>
      </trkpt>
      <trkpt lat="43.37677" lon="-1.51148">
        <ele>136</ele>
        <time>2026-02-12T13:51:07Z</time>
      </trkpt>
      <trkpt lat="43.37661" lon="-1.51156">
        <ele>135</ele>
        <time>2026-02-12T13:51:10Z</time>
      </trkpt>
      <trkpt lat="43.3765" lon="-1.51157">
        <ele>135</ele>
        <time>2026-02-12T13:51:12Z</time>
      </trkpt>
      <trkpt lat="43.37635" lon="-1.51153">
        <ele>135</ele>
        <time>2026-02-12T13:51:14Z</time>
      </trkpt>
      <trkpt lat="43.37595" lon="-1.51135">
        <ele>136</ele>
        <time>2026-02-12T13:51:22Z</time>
      </trkpt>
      <trkpt lat="43.37564" lon="-1.51131">
        <ele>136</ele>
        <time>2026-02-12T13:51:27Z</time>
      </trkpt>
      <trkpt lat="43.37546" lon="-1.51132">
        <ele>136</ele>
        <time>2026-02-12T13:51:31Z</time>
      </trkpt>
      <trkpt lat="43.37533" lon="-1.51135">
        <ele>136</ele>
        <time>2026-02-12T13:51:33Z</time>
      </trkpt>
      <trkpt lat="43.37514" lon="-1.51146">
        <ele>135</ele>
        <time>2026-02-12T13:51:37Z</time>
      </trkpt>
      <trkpt lat="43.37498" lon="-1.51164">
        <ele>135</ele>
        <time>2026-02-12T13:51:40Z</time>
      </trkpt>
      <trkpt lat="43.37471" lon="-1.51211">
        <ele>132</ele>
        <time>2026-02-12T13:51:48Z</time>
      </trkpt>
      <trkpt lat="43.37457" lon="-1.51251">
        <ele>132</ele>
        <time>2026-02-12T13:51:54Z</time>
      </trkpt>
      <trkpt lat="43.37454" lon="-1.51277">
        <ele>132</ele>
        <time>2026-02-12T13:51:57Z</time>
      </trkpt>
      <trkpt lat="43.37452" lon="-1.51346">
        <ele>131</ele>
        <time>2026-02-12T13:52:06Z</time>
      </trkpt>
      <trkpt lat="43.37434" lon="-1.51513">
        <ele>133</ele>
        <time>2026-02-12T13:52:28Z</time>
      </trkpt>
      <trkpt lat="43.37427" lon="-1.51558">
        <ele>134</ele>
        <time>2026-02-12T13:52:34Z</time>
      </trkpt>
      <trkpt lat="43.37419" lon="-1.51581">
        <ele>135</ele>
        <time>2026-02-12T13:52:37Z</time>
      </trkpt>
      <trkpt lat="43.37406" lon="-1.516">
        <ele>134</ele>
        <time>2026-02-12T13:52:41Z</time>
      </trkpt>
      <trkpt lat="43.37389" lon="-1.51614">
        <ele>134</ele>
        <time>2026-02-12T13:52:44Z</time>
      </trkpt>
      <trkpt lat="43.37324" lon="-1.51636">
        <ele>136</ele>
        <time>2026-02-12T13:52:56Z</time>
      </trkpt>
      <trkpt lat="43.37304" lon="-1.51645">
        <ele>137</ele>
        <time>2026-02-12T13:53:00Z</time>
      </trkpt>
      <trkpt lat="43.37284" lon="-1.51658">
        <ele>137</ele>
        <time>2026-02-12T13:53:04Z</time>
      </trkpt>
      <trkpt lat="43.37273" lon="-1.51672">
        <ele>137</ele>
        <time>2026-02-12T13:53:06Z</time>
      </trkpt>
      <trkpt lat="43.3726" lon="-1.51698">
        <ele>138</ele>
        <time>2026-02-12T13:53:11Z</time>
      </trkpt>
      <trkpt lat="43.37235" lon="-1.51783">
        <ele>139</ele>
        <time>2026-02-12T13:53:22Z</time>
      </trkpt>
      <trkpt lat="43.3723" lon="-1.51834">
        <ele>139</ele>
        <time>2026-02-12T13:53:29Z</time>
      </trkpt>
      <trkpt lat="43.37236" lon="-1.51871">
        <ele>140</ele>
        <time>2026-02-12T13:53:34Z</time>
      </trkpt>
      <trkpt lat="43.37263" lon="-1.51935">
        <ele>138</ele>
        <time>2026-02-12T13:53:44Z</time>
      </trkpt>
      <trkpt lat="43.37287" lon="-1.52046">
        <ele>137</ele>
        <time>2026-02-12T13:53:59Z</time>
      </trkpt>
      <trkpt lat="43.37291" lon="-1.52083">
        <ele>138</ele>
        <time>2026-02-12T13:54:03Z</time>
      </trkpt>
      <trkpt lat="43.37287" lon="-1.52111">
        <ele>138</ele>
        <time>2026-02-12T13:54:07Z</time>
      </trkpt>
      <trkpt lat="43.37275" lon="-1.52145">
        <ele>138</ele>
        <time>2026-02-12T13:54:12Z</time>
      </trkpt>
      <trkpt lat="43.37256" lon="-1.52183">
        <ele>138</ele>
        <time>2026-02-12T13:54:18Z</time>
      </trkpt>
      <trkpt lat="43.37197" lon="-1.52258">
        <ele>134</ele>
        <time>2026-02-12T13:54:32Z</time>
      </trkpt>
      <trkpt lat="43.37169" lon="-1.52287">
        <ele>135</ele>
        <time>2026-02-12T13:54:38Z</time>
      </trkpt>
      <trkpt lat="43.37151" lon="-1.52302">
        <ele>136</ele>
        <time>2026-02-12T13:54:42Z</time>
      </trkpt>
      <trkpt lat="43.37126" lon="-1.52318">
        <ele>138</ele>
        <time>2026-02-12T13:54:47Z</time>
      </trkpt>
      <trkpt lat="43.37094" lon="-1.52333">
        <ele>142</ele>
        <time>2026-02-12T13:54:53Z</time>
      </trkpt>
      <trkpt lat="43.37078" lon="-1.5235">
        <ele>143</ele>
        <time>2026-02-12T13:54:57Z</time>
      </trkpt>
      <trkpt lat="43.37072" lon="-1.52377">
        <ele>143</ele>
        <time>2026-02-12T13:55:00Z</time>
      </trkpt>
      <trkpt lat="43.3707" lon="-1.5245">
        <ele>141</ele>
        <time>2026-02-12T13:55:10Z</time>
      </trkpt>
      <trkpt lat="43.37065" lon="-1.52497">
        <ele>141</ele>
        <time>2026-02-12T13:55:16Z</time>
      </trkpt>
      <trkpt lat="43.37056" lon="-1.52532">
        <ele>141</ele>
        <time>2026-02-12T13:55:21Z</time>
      </trkpt>
      <trkpt lat="43.37043" lon="-1.52553">
        <ele>141</ele>
        <time>2026-02-12T13:55:24Z</time>
      </trkpt>
      <trkpt lat="43.37027" lon="-1.5257">
        <ele>141</ele>
        <time>2026-02-12T13:55:28Z</time>
      </trkpt>
      <trkpt lat="43.37003" lon="-1.52587">
        <ele>141</ele>
        <time>2026-02-12T13:55:33Z</time>
      </trkpt>
      <trkpt lat="43.36968" lon="-1.52603">
        <ele>141</ele>
        <time>2026-02-12T13:55:39Z</time>
      </trkpt>
      <trkpt lat="43.36948" lon="-1.52616">
        <ele>141</ele>
        <time>2026-02-12T13:55:43Z</time>
      </trkpt>
      <trkpt lat="43.36917" lon="-1.52647">
        <ele>141</ele>
        <time>2026-02-12T13:55:50Z</time>
      </trkpt>
      <trkpt lat="43.36906" lon="-1.52654">
        <ele>140</ele>
        <time>2026-02-12T13:55:52Z</time>
      </trkpt>
      <trkpt lat="43.36895" lon="-1.52659">
        <ele>140</ele>
        <time>2026-02-12T13:55:54Z</time>
      </trkpt>
      <trkpt lat="43.36883" lon="-1.5266">
        <ele>139</ele>
        <time>2026-02-12T13:55:56Z</time>
      </trkpt>
      <trkpt lat="43.36864" lon="-1.52654">
        <ele>139</ele>
        <time>2026-02-12T13:56:00Z</time>
      </trkpt>
      <trkpt lat="43.36848" lon="-1.5264">
        <ele>139</ele>
        <time>2026-02-12T13:56:03Z</time>
      </trkpt>
      <trkpt lat="43.36836" lon="-1.52619">
        <ele>139</ele>
        <time>2026-02-12T13:56:07Z</time>
      </trkpt>
      <trkpt lat="43.36833" lon="-1.526">
        <ele>139</ele>
        <time>2026-02-12T13:56:09Z</time>
      </trkpt>
      <trkpt lat="43.36839" lon="-1.52543">
        <ele>141</ele>
        <time>2026-02-12T13:56:17Z</time>
      </trkpt>
      <trkpt lat="43.36832" lon="-1.52481">
        <ele>140</ele>
        <time>2026-02-12T13:56:25Z</time>
      </trkpt>
      <trkpt lat="43.36819" lon="-1.52441">
        <ele>140</ele>
        <time>2026-02-12T13:56:30Z</time>
      </trkpt>
      <trkpt lat="43.36802" lon="-1.52404">
        <ele>139</ele>
        <time>2026-02-12T13:56:36Z</time>
      </trkpt>
      <trkpt lat="43.36786" lon="-1.52353">
        <ele>142</ele>
        <time>2026-02-12T13:56:43Z</time>
      </trkpt>
      <trkpt lat="43.36777" lon="-1.52336">
        <ele>142</ele>
        <time>2026-02-12T13:56:46Z</time>
      </trkpt>
      <trkpt lat="43.36771" lon="-1.52331">
        <ele>142</ele>
        <time>2026-02-12T13:56:47Z</time>
      </trkpt>
      <trkpt lat="43.36763" lon="-1.52329">
        <ele>141</ele>
        <time>2026-02-12T13:56:49Z</time>
      </trkpt>
      <trkpt lat="43.36756" lon="-1.52331">
        <ele>139</ele>
        <time>2026-02-12T13:56:50Z</time>
      </trkpt>
      <trkpt lat="43.36742" lon="-1.52339">
        <ele>138</ele>
        <time>2026-02-12T13:56:53Z</time>
      </trkpt>
      <trkpt lat="43.36715" lon="-1.5236">
        <ele>137</ele>
        <time>2026-02-12T13:56:58Z</time>
      </trkpt>
      <trkpt lat="43.36669" lon="-1.52374">
        <ele>137</ele>
        <time>2026-02-12T13:57:07Z</time>
      </trkpt>
      <trkpt lat="43.36654" lon="-1.52382">
        <ele>136</ele>
        <time>2026-02-12T13:57:09Z</time>
      </trkpt>
      <trkpt lat="43.36633" lon="-1.52398">
        <ele>134</ele>
        <time>2026-02-12T13:57:14Z</time>
      </trkpt>
      <trkpt lat="43.36617" lon="-1.52402">
        <ele>133</ele>
        <time>2026-02-12T13:57:17Z</time>
      </trkpt>
      <trkpt lat="43.36609" lon="-1.524">
        <ele>132</ele>
        <time>2026-02-12T13:57:18Z</time>
      </trkpt>
      <trkpt lat="43.36597" lon="-1.52388">
        <ele>132</ele>
        <time>2026-02-12T13:57:21Z</time>
      </trkpt>
      <trkpt lat="43.36562" lon="-1.52312">
        <ele>134</ele>
        <time>2026-02-12T13:57:32Z</time>
      </trkpt>
      <trkpt lat="43.36551" lon="-1.52294">
        <ele>134</ele>
        <time>2026-02-12T13:57:35Z</time>
      </trkpt>
      <trkpt lat="43.36537" lon="-1.52282">
        <ele>133</ele>
        <time>2026-02-12T13:57:38Z</time>
      </trkpt>
      <trkpt lat="43.36522" lon="-1.52276">
        <ele>133</ele>
        <time>2026-02-12T13:57:41Z</time>
      </trkpt>
      <trkpt lat="43.36483" lon="-1.52288">
        <ele>130</ele>
        <time>2026-02-12T13:57:48Z</time>
      </trkpt>
      <trkpt lat="43.36439" lon="-1.52311">
        <ele>130</ele>
        <time>2026-02-12T13:57:57Z</time>
      </trkpt>
      <trkpt lat="43.36398" lon="-1.52339">
        <ele>132</ele>
        <time>2026-02-12T13:58:05Z</time>
      </trkpt>
      <trkpt lat="43.36361" lon="-1.52375">
        <ele>132</ele>
        <time>2026-02-12T13:58:13Z</time>
      </trkpt>
      <trkpt lat="43.36345" lon="-1.52399">
        <ele>132</ele>
        <time>2026-02-12T13:58:17Z</time>
      </trkpt>
      <trkpt lat="43.36336" lon="-1.5242">
        <ele>132</ele>
        <time>2026-02-12T13:58:20Z</time>
      </trkpt>
      <trkpt lat="43.36302" lon="-1.52611">
        <ele>126</ele>
        <time>2026-02-12T13:58:46Z</time>
      </trkpt>
      <trkpt lat="43.36301" lon="-1.52636">
        <ele>124</ele>
        <time>2026-02-12T13:58:49Z</time>
      </trkpt>
      <trkpt lat="43.36304" lon="-1.52678">
        <ele>121</ele>
        <time>2026-02-12T13:58:54Z</time>
      </trkpt>
      <trkpt lat="43.36316" lon="-1.52719">
        <ele>119</ele>
        <time>2026-02-12T13:59:00Z</time>
      </trkpt>
      <trkpt lat="43.36331" lon="-1.52757">
        <ele>118</ele>
        <time>2026-02-12T13:59:06Z</time>
      </trkpt>
      <trkpt lat="43.36392" lon="-1.52872">
        <ele>114</ele>
        <time>2026-02-12T13:59:24Z</time>
      </trkpt>
      <trkpt lat="43.36412" lon="-1.52922">
        <ele>115</ele>
        <time>2026-02-12T13:59:31Z</time>
      </trkpt>
      <trkpt lat="43.3643" lon="-1.53019">
        <ele>110</ele>
        <time>2026-02-12T13:59:44Z</time>
      </trkpt>
      <trkpt lat="43.36476" lon="-1.53319">
        <ele>109</ele>
        <time>2026-02-12T14:00:24Z</time>
      </trkpt>
      <trkpt lat="43.36496" lon="-1.53431">
        <ele>105</ele>
        <time>2026-02-12T14:00:39Z</time>
      </trkpt>
      <trkpt lat="43.36506" lon="-1.53553">
        <ele>97</ele>
        <time>2026-02-12T14:00:55Z</time>
      </trkpt>
      <trkpt lat="43.36506" lon="-1.53609">
        <ele>97</ele>
        <time>2026-02-12T14:01:02Z</time>
      </trkpt>
      <trkpt lat="43.36503" lon="-1.53634">
        <ele>97</ele>
        <time>2026-02-12T14:01:05Z</time>
      </trkpt>
      <trkpt lat="43.36485" lon="-1.537">
        <ele>98</ele>
        <time>2026-02-12T14:01:14Z</time>
      </trkpt>
      <trkpt lat="43.36462" lon="-1.53765">
        <ele>99</ele>
        <time>2026-02-12T14:01:24Z</time>
      </trkpt>
      <trkpt lat="43.36456" lon="-1.53797">
        <ele>99</ele>
        <time>2026-02-12T14:01:28Z</time>
      </trkpt>
      <trkpt lat="43.36453" lon="-1.53883">
        <ele>100</ele>
        <time>2026-02-12T14:01:39Z</time>
      </trkpt>
      <trkpt lat="43.36435" lon="-1.54095">
        <ele>95</ele>
        <time>2026-02-12T14:02:07Z</time>
      </trkpt>
      <trkpt lat="43.36422" lon="-1.54211">
        <ele>98</ele>
        <time>2026-02-12T14:02:22Z</time>
      </trkpt>
      <trkpt lat="43.3642" lon="-1.54253">
        <ele>100</ele>
        <time>2026-02-12T14:02:27Z</time>
      </trkpt>
      <trkpt lat="43.36423" lon="-1.54271">
        <ele>100</ele>
        <time>2026-02-12T14:02:30Z</time>
      </trkpt>
      <trkpt lat="43.3643" lon="-1.54285">
        <ele>100</ele>
        <time>2026-02-12T14:02:32Z</time>
      </trkpt>
      <trkpt lat="43.3644" lon="-1.54297">
        <ele>100</ele>
        <time>2026-02-12T14:02:34Z</time>
      </trkpt>
      <trkpt lat="43.36451" lon="-1.54305">
        <ele>99</ele>
        <time>2026-02-12T14:02:37Z</time>
      </trkpt>
      <trkpt lat="43.36468" lon="-1.54314">
        <ele>97</ele>
        <time>2026-02-12T14:02:40Z</time>
      </trkpt>
      <trkpt lat="43.36519" lon="-1.54316">
        <ele>92</ele>
        <time>2026-02-12T14:02:49Z</time>
      </trkpt>
      <trkpt lat="43.36526" lon="-1.54318">
        <ele>91</ele>
        <time>2026-02-12T14:02:50Z</time>
      </trkpt>
      <trkpt lat="43.36533" lon="-1.54323">
        <ele>90</ele>
        <time>2026-02-12T14:02:52Z</time>
      </trkpt>
      <trkpt lat="43.36537" lon="-1.5433">
        <ele>90</ele>
        <time>2026-02-12T14:02:53Z</time>
      </trkpt>
      <trkpt lat="43.36541" lon="-1.54348">
        <ele>89</ele>
        <time>2026-02-12T14:02:55Z</time>
      </trkpt>
      <trkpt lat="43.36537" lon="-1.54409">
        <ele>89</ele>
        <time>2026-02-12T14:03:03Z</time>
      </trkpt>
      <trkpt lat="43.36538" lon="-1.54427">
        <ele>89</ele>
        <time>2026-02-12T14:03:05Z</time>
      </trkpt>
      <trkpt lat="43.36537" lon="-1.54434">
        <ele>89</ele>
        <time>2026-02-12T14:03:06Z</time>
      </trkpt>
      <trkpt lat="43.36536" lon="-1.54431">
        <ele>89</ele>
        <time>2026-02-12T14:03:07Z</time>
      </trkpt>
      <trkpt lat="43.36533" lon="-1.54436">
        <ele>90</ele>
        <time>2026-02-12T14:03:08Z</time>
      </trkpt>
      <trkpt lat="43.36533" lon="-1.54471">
        <ele>89</ele>
        <time>2026-02-12T14:03:12Z</time>
      </trkpt>
      <trkpt lat="43.3653" lon="-1.54478">
        <ele>90</ele>
        <time>2026-02-12T14:03:13Z</time>
      </trkpt>
      <trkpt lat="43.36523" lon="-1.54481">
        <ele>90</ele>
        <time>2026-02-12T14:03:14Z</time>
      </trkpt>
      <trkpt lat="43.36404" lon="-1.54511">
        <ele>86</ele>
        <time>2026-02-12T14:03:36Z</time>
      </trkpt>
      <trkpt lat="43.36381" lon="-1.54514">
        <ele>84</ele>
        <time>2026-02-12T14:03:40Z</time>
      </trkpt>
      <trkpt lat="43.3635" lon="-1.54511">
        <ele>83</ele>
        <time>2026-02-12T14:03:46Z</time>
      </trkpt>
      <trkpt lat="43.36343" lon="-1.54514">
        <ele>82</ele>
        <time>2026-02-12T14:03:47Z</time>
      </trkpt>
      <trkpt lat="43.36337" lon="-1.5452">
        <ele>81</ele>
        <time>2026-02-12T14:03:48Z</time>
      </trkpt>
      <trkpt lat="43.36325" lon="-1.54547">
        <ele>77</ele>
        <time>2026-02-12T14:03:52Z</time>
      </trkpt>
      <trkpt lat="43.36314" lon="-1.54564">
        <ele>74</ele>
        <time>2026-02-12T14:03:55Z</time>
      </trkpt>
      <trkpt lat="43.36283" lon="-1.54591">
        <ele>70</ele>
        <time>2026-02-12T14:04:02Z</time>
      </trkpt>
      <trkpt lat="43.36236" lon="-1.54606">
        <ele>67</ele>
        <time>2026-02-12T14:04:10Z</time>
      </trkpt>
      <trkpt lat="43.3609" lon="-1.54662">
        <ele>59</ele>
        <time>2026-02-12T14:04:37Z</time>
      </trkpt>
      <trkpt lat="43.36004" lon="-1.54711">
        <ele>52</ele>
        <time>2026-02-12T14:04:54Z</time>
      </trkpt>
      <trkpt lat="43.35903" lon="-1.54754">
        <ele>41</ele>
        <time>2026-02-12T14:05:13Z</time>
      </trkpt>
      <trkpt lat="43.35876" lon="-1.54768">
        <ele>38</ele>
        <time>2026-02-12T14:05:18Z</time>
      </trkpt>
      <trkpt lat="43.3586" lon="-1.54782">
        <ele>36</ele>
        <time>2026-02-12T14:05:21Z</time>
      </trkpt>
      <trkpt lat="43.35846" lon="-1.548">
        <ele>34</ele>
        <time>2026-02-12T14:05:25Z</time>
      </trkpt>
      <trkpt lat="43.35784" lon="-1.54904">
        <ele>30</ele>
        <time>2026-02-12T14:05:42Z</time>
      </trkpt>
      <trkpt lat="43.35668" lon="-1.55036">
        <ele>23</ele>
        <time>2026-02-12T14:06:09Z</time>
      </trkpt>
      <trkpt lat="43.3566" lon="-1.55035">
        <ele>22</ele>
        <time>2026-02-12T14:06:10Z</time>
      </trkpt>
      <trkpt lat="43.35655" lon="-1.55039">
        <ele>22</ele>
        <time>2026-02-12T14:06:11Z</time>
      </trkpt>
      <trkpt lat="43.35645" lon="-1.55049">
        <ele>22</ele>
        <time>2026-02-12T14:06:14Z</time>
      </trkpt>
      <trkpt lat="43.35641" lon="-1.55058">
        <ele>22</ele>
        <time>2026-02-12T14:06:15Z</time>
      </trkpt>
      <trkpt lat="43.35644" lon="-1.55069">
        <ele>22</ele>
        <time>2026-02-12T14:06:16Z</time>
      </trkpt>
      <trkpt lat="43.35682" lon="-1.55135">
        <ele>22</ele>
        <time>2026-02-12T14:06:27Z</time>
      </trkpt>
      <trkpt lat="43.35678" lon="-1.55138">
        <ele>21</ele>
        <time>2026-02-12T14:06:28Z</time>
      </trkpt>
      <trkpt lat="43.35672" lon="-1.55135">
        <ele>21</ele>
        <time>2026-02-12T14:06:29Z</time>
      </trkpt>
      <trkpt lat="43.35662" lon="-1.55141">
        <ele>21</ele>
        <time>2026-02-12T14:06:31Z</time>
      </trkpt>
      <trkpt lat="43.35673" lon="-1.55135">
        <ele>21</ele>
        <time>2026-02-12T14:06:33Z</time>
      </trkpt>
      <trkpt lat="43.35679" lon="-1.55135">
        <ele>21</ele>
        <time>2026-02-12T14:06:34Z</time>
      </trkpt>
      <trkpt lat="43.35685" lon="-1.55139">
        <ele>22</ele>
        <time>2026-02-12T14:06:36Z</time>
      </trkpt>
      <trkpt lat="43.35711" lon="-1.55184">
        <ele>22</ele>
        <time>2026-02-12T14:06:43Z</time>
      </trkpt>
      <trkpt lat="43.35752" lon="-1.55245">
        <ele>23</ele>
        <time>2026-02-12T14:06:54Z</time>
      </trkpt>
      <trkpt lat="43.35764" lon="-1.5527">
        <ele>23</ele>
        <time>2026-02-12T14:06:58Z</time>
      </trkpt>
      <trkpt lat="43.35772" lon="-1.55301">
        <ele>22</ele>
        <time>2026-02-12T14:07:02Z</time>
      </trkpt>
      <trkpt lat="43.35801" lon="-1.55492">
        <ele>26</ele>
        <time>2026-02-12T14:07:27Z</time>
      </trkpt>
      <trkpt lat="43.35803" lon="-1.5553">
        <ele>26</ele>
        <time>2026-02-12T14:07:32Z</time>
      </trkpt>
      <trkpt lat="43.35799" lon="-1.55564">
        <ele>25</ele>
        <time>2026-02-12T14:07:36Z</time>
      </trkpt>
      <trkpt lat="43.35786" lon="-1.55629">
        <ele>24</ele>
        <time>2026-02-12T14:07:45Z</time>
      </trkpt>
      <trkpt lat="43.35783" lon="-1.55662">
        <ele>24</ele>
        <time>2026-02-12T14:07:50Z</time>
      </trkpt>
      <trkpt lat="43.3579" lon="-1.55873">
        <ele>22</ele>
        <time>2026-02-12T14:08:17Z</time>
      </trkpt>
      <trkpt lat="43.3579" lon="-1.55909">
        <ele>19</ele>
        <time>2026-02-12T14:08:21Z</time>
      </trkpt>
      <trkpt lat="43.35786" lon="-1.55936">
        <ele>18</ele>
        <time>2026-02-12T14:08:25Z</time>
      </trkpt>
      <trkpt lat="43.35771" lon="-1.5598">
        <ele>18</ele>
        <time>2026-02-12T14:08:31Z</time>
      </trkpt>
      <trkpt lat="43.35767" lon="-1.56002">
        <ele>18</ele>
        <time>2026-02-12T14:08:34Z</time>
      </trkpt>
      <trkpt lat="43.3576" lon="-1.56015">
        <ele>19</ele>
        <time>2026-02-12T14:08:36Z</time>
      </trkpt>
      <trkpt lat="43.35717" lon="-1.56048">
        <ele>19</ele>
        <time>2026-02-12T14:08:45Z</time>
      </trkpt>
      <trkpt lat="43.35672" lon="-1.56076">
        <ele>18</ele>
        <time>2026-02-12T14:08:54Z</time>
      </trkpt>
      <trkpt lat="43.3565" lon="-1.56095">
        <ele>18</ele>
        <time>2026-02-12T14:08:59Z</time>
      </trkpt>
      <trkpt lat="43.35633" lon="-1.5612">
        <ele>18</ele>
        <time>2026-02-12T14:09:03Z</time>
      </trkpt>
      <trkpt lat="43.35622" lon="-1.56159">
        <ele>19</ele>
        <time>2026-02-12T14:09:08Z</time>
      </trkpt>
      <trkpt lat="43.35618" lon="-1.56202">
        <ele>19</ele>
        <time>2026-02-12T14:09:14Z</time>
      </trkpt>
      <trkpt lat="43.35626" lon="-1.56548">
        <ele>19</ele>
        <time>2026-02-12T14:09:59Z</time>
      </trkpt>
      <trkpt lat="43.35634" lon="-1.56589">
        <ele>19</ele>
        <time>2026-02-12T14:10:04Z</time>
      </trkpt>
      <trkpt lat="43.35635" lon="-1.56606">
        <ele>19</ele>
        <time>2026-02-12T14:10:06Z</time>
      </trkpt>
      <trkpt lat="43.35621" lon="-1.5669">
        <ele>19</ele>
        <time>2026-02-12T14:10:18Z</time>
      </trkpt>
      <trkpt lat="43.35594" lon="-1.56782">
        <ele>17</ele>
        <time>2026-02-12T14:10:30Z</time>
      </trkpt>
      <trkpt lat="43.35589" lon="-1.56828">
        <ele>17</ele>
        <time>2026-02-12T14:10:36Z</time>
      </trkpt>
      <trkpt lat="43.35592" lon="-1.56847">
        <ele>17</ele>
        <time>2026-02-12T14:10:39Z</time>
      </trkpt>
      <trkpt lat="43.35602" lon="-1.56872">
        <ele>17</ele>
        <time>2026-02-12T14:10:43Z</time>
      </trkpt>
      <trkpt lat="43.35634" lon="-1.56932">
        <ele>17</ele>
        <time>2026-02-12T14:10:52Z</time>
      </trkpt>
      <trkpt lat="43.35714" lon="-1.57102">
        <ele>15</ele>
        <time>2026-02-12T14:11:19Z</time>
      </trkpt>
      <trkpt lat="43.35733" lon="-1.57146">
        <ele>15</ele>
        <time>2026-02-12T14:11:25Z</time>
      </trkpt>
      <trkpt lat="43.35742" lon="-1.57175">
        <ele>15</ele>
        <time>2026-02-12T14:11:29Z</time>
      </trkpt>
      <trkpt lat="43.35749" lon="-1.57225">
        <ele>14</ele>
        <time>2026-02-12T14:11:36Z</time>
      </trkpt>
      <trkpt lat="43.35767" lon="-1.57413">
        <ele>13</ele>
        <time>2026-02-12T14:12:00Z</time>
      </trkpt>
      <trkpt lat="43.35774" lon="-1.57436">
        <ele>13</ele>
        <time>2026-02-12T14:12:04Z</time>
      </trkpt>
      <trkpt lat="43.35785" lon="-1.57456">
        <ele>13</ele>
        <time>2026-02-12T14:12:07Z</time>
      </trkpt>
      <trkpt lat="43.35789" lon="-1.57471">
        <ele>13</ele>
        <time>2026-02-12T14:12:09Z</time>
      </trkpt>
      <trkpt lat="43.35784" lon="-1.57503">
        <ele>13</ele>
        <time>2026-02-12T14:12:13Z</time>
      </trkpt>
      <trkpt lat="43.35783" lon="-1.5753">
        <ele>13</ele>
        <time>2026-02-12T14:12:17Z</time>
      </trkpt>
      <trkpt lat="43.3579" lon="-1.57594">
        <ele>13</ele>
        <time>2026-02-12T14:12:25Z</time>
      </trkpt>
      <trkpt lat="43.35827" lon="-1.57798">
        <ele>11</ele>
        <time>2026-02-12T14:12:52Z</time>
      </trkpt>
      <trkpt lat="43.35841" lon="-1.57859">
        <ele>11</ele>
        <time>2026-02-12T14:13:00Z</time>
      </trkpt>
      <trkpt lat="43.35855" lon="-1.57903">
        <ele>12</ele>
        <time>2026-02-12T14:13:07Z</time>
      </trkpt>
      <trkpt lat="43.35876" lon="-1.5795">
        <ele>12</ele>
        <time>2026-02-12T14:13:14Z</time>
      </trkpt>
      <trkpt lat="43.35896" lon="-1.57984">
        <ele>11</ele>
        <time>2026-02-12T14:13:19Z</time>
      </trkpt>
      <trkpt lat="43.36101" lon="-1.58281">
        <ele>12</ele>
        <time>2026-02-12T14:14:12Z</time>
      </trkpt>
      <trkpt lat="43.36133" lon="-1.58337">
        <ele>12</ele>
        <time>2026-02-12T14:14:22Z</time>
      </trkpt>
      <trkpt lat="43.36165" lon="-1.58414">
        <ele>12</ele>
        <time>2026-02-12T14:14:33Z</time>
      </trkpt>
      <trkpt lat="43.36252" lon="-1.58689">
        <ele>13</ele>
        <time>2026-02-12T14:15:12Z</time>
      </trkpt>
      <trkpt lat="43.36277" lon="-1.58747">
        <ele>19</ele>
        <time>2026-02-12T14:15:21Z</time>
      </trkpt>
      <trkpt lat="43.36291" lon="-1.5877">
        <ele>20</ele>
        <time>2026-02-12T14:15:25Z</time>
      </trkpt>
      <trkpt lat="43.36307" lon="-1.5879">
        <ele>20</ele>
        <time>2026-02-12T14:15:28Z</time>
      </trkpt>
      <trkpt lat="43.36394" lon="-1.58869">
        <ele>19</ele>
        <time>2026-02-12T14:15:47Z</time>
      </trkpt>
      <trkpt lat="43.36432" lon="-1.58912">
        <ele>13</ele>
        <time>2026-02-12T14:15:56Z</time>
      </trkpt>
      <trkpt lat="43.36455" lon="-1.58948">
        <ele>12</ele>
        <time>2026-02-12T14:16:02Z</time>
      </trkpt>
      <trkpt lat="43.36475" lon="-1.58999">
        <ele>10</ele>
        <time>2026-02-12T14:16:09Z</time>
      </trkpt>
      <trkpt lat="43.36568" lon="-1.59308">
        <ele>9</ele>
        <time>2026-02-12T14:16:53Z</time>
      </trkpt>
      <trkpt lat="43.36583" lon="-1.59367">
        <ele>9</ele>
        <time>2026-02-12T14:17:01Z</time>
      </trkpt>
      <trkpt lat="43.36592" lon="-1.59419">
        <ele>9</ele>
        <time>2026-02-12T14:17:08Z</time>
      </trkpt>
      <trkpt lat="43.36595" lon="-1.59462">
        <ele>10</ele>
        <time>2026-02-12T14:17:13Z</time>
      </trkpt>
      <trkpt lat="43.36595" lon="-1.59513">
        <ele>10</ele>
        <time>2026-02-12T14:17:20Z</time>
      </trkpt>
      <trkpt lat="43.36569" lon="-1.5983">
        <ele>19</ele>
        <time>2026-02-12T14:18:01Z</time>
      </trkpt>
      <trkpt lat="43.36558" lon="-1.59864">
        <ele>18</ele>
        <time>2026-02-12T14:18:06Z</time>
      </trkpt>
      <trkpt lat="43.36535" lon="-1.59898">
        <ele>16</ele>
        <time>2026-02-12T14:18:12Z</time>
      </trkpt>
      <trkpt lat="43.36448" lon="-1.5997">
        <ele>15</ele>
        <time>2026-02-12T14:18:30Z</time>
      </trkpt>
      <trkpt lat="43.36404" lon="-1.60025">
        <ele>15</ele>
        <time>2026-02-12T14:18:41Z</time>
      </trkpt>
      <trkpt lat="43.36376" lon="-1.60072">
        <ele>16</ele>
        <time>2026-02-12T14:18:48Z</time>
      </trkpt>
      <trkpt lat="43.3634" lon="-1.60167">
        <ele>17</ele>
        <time>2026-02-12T14:19:02Z</time>
      </trkpt>
      <trkpt lat="43.36328" lon="-1.60189">
        <ele>19</ele>
        <time>2026-02-12T14:19:06Z</time>
      </trkpt>
      <trkpt lat="43.36304" lon="-1.60223">
        <ele>21</ele>
        <time>2026-02-12T14:19:12Z</time>
      </trkpt>
      <trkpt lat="43.36289" lon="-1.60241">
        <ele>21</ele>
        <time>2026-02-12T14:19:15Z</time>
      </trkpt>
      <trkpt lat="43.3626" lon="-1.60268">
        <ele>19</ele>
        <time>2026-02-12T14:19:22Z</time>
      </trkpt>
      <trkpt lat="43.362" lon="-1.60316">
        <ele>15</ele>
        <time>2026-02-12T14:19:34Z</time>
      </trkpt>
      <trkpt lat="43.36182" lon="-1.60333">
        <ele>14</ele>
        <time>2026-02-12T14:19:38Z</time>
      </trkpt>
      <trkpt lat="43.36147" lon="-1.60378">
        <ele>15</ele>
        <time>2026-02-12T14:19:46Z</time>
      </trkpt>
      <trkpt lat="43.36135" lon="-1.60399">
        <ele>16</ele>
        <time>2026-02-12T14:19:50Z</time>
      </trkpt>
      <trkpt lat="43.36126" lon="-1.60422">
        <ele>16</ele>
        <time>2026-02-12T14:19:53Z</time>
      </trkpt>
      <trkpt lat="43.36112" lon="-1.60469">
        <ele>17</ele>
        <time>2026-02-12T14:20:00Z</time>
      </trkpt>
      <trkpt lat="43.36108" lon="-1.60494">
        <ele>18</ele>
        <time>2026-02-12T14:20:03Z</time>
      </trkpt>
      <trkpt lat="43.36107" lon="-1.60521">
        <ele>18</ele>
        <time>2026-02-12T14:20:07Z</time>
      </trkpt>
      <trkpt lat="43.36107" lon="-1.60566">
        <ele>19</ele>
        <time>2026-02-12T14:20:13Z</time>
      </trkpt>
      <trkpt lat="43.3612" lon="-1.60679">
        <ele>19</ele>
        <time>2026-02-12T14:20:27Z</time>
      </trkpt>
      <trkpt lat="43.36123" lon="-1.60736">
        <ele>19</ele>
        <time>2026-02-12T14:20:35Z</time>
      </trkpt>
      <trkpt lat="43.36115" lon="-1.60963">
        <ele>18</ele>
        <time>2026-02-12T14:21:04Z</time>
      </trkpt>
      <trkpt lat="43.36109" lon="-1.61061">
        <ele>17</ele>
        <time>2026-02-12T14:21:17Z</time>
      </trkpt>
      <trkpt lat="43.36099" lon="-1.61126">
        <ele>14</ele>
        <time>2026-02-12T14:21:25Z</time>
      </trkpt>
      <trkpt lat="43.36091" lon="-1.61155">
        <ele>13</ele>
        <time>2026-02-12T14:21:29Z</time>
      </trkpt>
      <trkpt lat="43.3607" lon="-1.61211">
        <ele>11</ele>
        <time>2026-02-12T14:21:38Z</time>
      </trkpt>
      <trkpt lat="43.36051" lon="-1.61247">
        <ele>11</ele>
        <time>2026-02-12T14:21:43Z</time>
      </trkpt>
      <trkpt lat="43.36018" lon="-1.61295">
        <ele>11</ele>
        <time>2026-02-12T14:21:52Z</time>
      </trkpt>
      <trkpt lat="43.35928" lon="-1.61409">
        <ele>16</ele>
        <time>2026-02-12T14:22:14Z</time>
      </trkpt>
      <trkpt lat="43.35889" lon="-1.61445">
        <ele>17</ele>
        <time>2026-02-12T14:22:22Z</time>
      </trkpt>
      <trkpt lat="43.35826" lon="-1.61497">
        <ele>12</ele>
        <time>2026-02-12T14:22:35Z</time>
      </trkpt>
      <trkpt lat="43.358" lon="-1.61526">
        <ele>14</ele>
        <time>2026-02-12T14:22:41Z</time>
      </trkpt>
      <trkpt lat="43.35743" lon="-1.61612">
        <ele>17</ele>
        <time>2026-02-12T14:22:56Z</time>
      </trkpt>
      <trkpt lat="43.35534" lon="-1.61943">
        <ele>19</ele>
        <time>2026-02-12T14:23:53Z</time>
      </trkpt>
      <trkpt lat="43.35488" lon="-1.62003">
        <ele>19</ele>
        <time>2026-02-12T14:24:04Z</time>
      </trkpt>
      <trkpt lat="43.35447" lon="-1.62038">
        <ele>21</ele>
        <time>2026-02-12T14:24:13Z</time>
      </trkpt>
      <trkpt lat="43.35395" lon="-1.62069">
        <ele>22</ele>
        <time>2026-02-12T14:24:23Z</time>
      </trkpt>
      <trkpt lat="43.35304" lon="-1.62106">
        <ele>19</ele>
        <time>2026-02-12T14:24:40Z</time>
      </trkpt>
      <trkpt lat="43.35282" lon="-1.62112">
        <ele>17</ele>
        <time>2026-02-12T14:24:44Z</time>
      </trkpt>
      <trkpt lat="43.35236" lon="-1.62133">
        <ele>14</ele>
        <time>2026-02-12T14:24:52Z</time>
      </trkpt>
      <trkpt lat="43.35212" lon="-1.62152">
        <ele>13</ele>
        <time>2026-02-12T14:24:57Z</time>
      </trkpt>
      <trkpt lat="43.35196" lon="-1.6217">
        <ele>12</ele>
        <time>2026-02-12T14:25:01Z</time>
      </trkpt>
      <trkpt lat="43.35171" lon="-1.62213">
        <ele>11</ele>
        <time>2026-02-12T14:25:08Z</time>
      </trkpt>
      <trkpt lat="43.35125" lon="-1.62305">
        <ele>12</ele>
        <time>2026-02-12T14:25:22Z</time>
      </trkpt>
      <trkpt lat="43.35114" lon="-1.62335">
        <ele>11</ele>
        <time>2026-02-12T14:25:27Z</time>
      </trkpt>
      <trkpt lat="43.35111" lon="-1.62351">
        <ele>11</ele>
        <time>2026-02-12T14:25:29Z</time>
      </trkpt>
      <trkpt lat="43.35107" lon="-1.62431">
        <ele>12</ele>
        <time>2026-02-12T14:25:39Z</time>
      </trkpt>
      <trkpt lat="43.35107" lon="-1.62468">
        <ele>11</ele>
        <time>2026-02-12T14:25:44Z</time>
      </trkpt>
      <trkpt lat="43.35118" lon="-1.62516">
        <ele>12</ele>
        <time>2026-02-12T14:25:51Z</time>
      </trkpt>
      <trkpt lat="43.35113" lon="-1.62528">
        <ele>11</ele>
        <time>2026-02-12T14:25:52Z</time>
      </trkpt>
      <trkpt lat="43.35072" lon="-1.62538">
        <ele>6</ele>
        <time>2026-02-12T14:26:00Z</time>
      </trkpt>
      <trkpt lat="43.35056" lon="-1.62539">
        <ele>6</ele>
        <time>2026-02-12T14:26:03Z</time>
      </trkpt>
      <trkpt lat="43.35015" lon="-1.62535">
        <ele>6</ele>
        <time>2026-02-12T14:26:10Z</time>
      </trkpt>
      <trkpt lat="43.34932" lon="-1.6252">
        <ele>7</ele>
        <time>2026-02-12T14:26:25Z</time>
      </trkpt>
      <trkpt lat="43.34922" lon="-1.6252">
        <ele>7</ele>
        <time>2026-02-12T14:26:27Z</time>
      </trkpt>
      <trkpt lat="43.34915" lon="-1.62527">
        <ele>7</ele>
        <time>2026-02-12T14:26:28Z</time>
      </trkpt>
      <trkpt lat="43.34929" lon="-1.62578">
        <ele>6</ele>
        <time>2026-02-12T14:26:35Z</time>
      </trkpt>
      <trkpt lat="43.34931" lon="-1.62617">
        <ele>4</ele>
        <time>2026-02-12T14:26:40Z</time>
      </trkpt>
      <trkpt lat="43.34925" lon="-1.62664">
        <ele>3</ele>
        <time>2026-02-12T14:26:46Z</time>
      </trkpt>
      <trkpt lat="43.34909" lon="-1.62738">
        <ele>4</ele>
        <time>2026-02-12T14:26:56Z</time>
      </trkpt>
      <trkpt lat="43.34902" lon="-1.62806">
        <ele>8</ele>
        <time>2026-02-12T14:27:05Z</time>
      </trkpt>
      <trkpt lat="43.34902" lon="-1.62826">
        <ele>8</ele>
        <time>2026-02-12T14:27:08Z</time>
      </trkpt>
      <trkpt lat="43.34911" lon="-1.62876">
        <ele>10</ele>
        <time>2026-02-12T14:27:15Z</time>
      </trkpt>
      <trkpt lat="43.34914" lon="-1.62917">
        <ele>11</ele>
        <time>2026-02-12T14:27:20Z</time>
      </trkpt>
      <trkpt lat="43.3491" lon="-1.62978">
        <ele>14</ele>
        <time>2026-02-12T14:27:28Z</time>
      </trkpt>
      <trkpt lat="43.34911" lon="-1.6301">
        <ele>17</ele>
        <time>2026-02-12T14:27:32Z</time>
      </trkpt>
      <trkpt lat="43.34906" lon="-1.63009">
        <ele>17</ele>
        <time>2026-02-12T14:27:33Z</time>
      </trkpt>
      <trkpt lat="43.34898" lon="-1.63001">
        <ele>17</ele>
        <time>2026-02-12T14:27:35Z</time>
      </trkpt>
      <trkpt lat="43.34889" lon="-1.63006">
        <ele>18</ele>
        <time>2026-02-12T14:27:36Z</time>
      </trkpt>
      <trkpt lat="43.34869" lon="-1.63029">
        <ele>22</ele>
        <time>2026-02-12T14:27:41Z</time>
      </trkpt>
      <trkpt lat="43.34848" lon="-1.63063">
        <ele>28</ele>
        <time>2026-02-12T14:27:47Z</time>
      </trkpt>
      <trkpt lat="43.34831" lon="-1.63085">
        <ele>31</ele>
        <time>2026-02-12T14:27:51Z</time>
      </trkpt>
      <trkpt lat="43.34801" lon="-1.63109">
        <ele>36</ele>
        <time>2026-02-12T14:27:57Z</time>
      </trkpt>
      <trkpt lat="43.34791" lon="-1.63125">
        <ele>38</ele>
        <time>2026-02-12T14:28:00Z</time>
      </trkpt>
      <trkpt lat="43.34791" lon="-1.63132">
        <ele>39</ele>
        <time>2026-02-12T14:28:01Z</time>
      </trkpt>
      <trkpt lat="43.34794" lon="-1.63138">
        <ele>39</ele>
        <time>2026-02-12T14:28:02Z</time>
      </trkpt>
      <trkpt lat="43.34828" lon="-1.63137">
        <ele>38</ele>
        <time>2026-02-12T14:28:08Z</time>
      </trkpt>
      <trkpt lat="43.3484" lon="-1.6314">
        <ele>37</ele>
        <time>2026-02-12T14:28:10Z</time>
      </trkpt>
      <trkpt lat="43.34852" lon="-1.63147">
        <ele>37</ele>
        <time>2026-02-12T14:28:12Z</time>
      </trkpt>
      <trkpt lat="43.34859" lon="-1.6316">
        <ele>38</ele>
        <time>2026-02-12T14:28:14Z</time>
      </trkpt>
      <trkpt lat="43.34859" lon="-1.63193">
        <ele>42</ele>
        <time>2026-02-12T14:28:19Z</time>
      </trkpt>
      <trkpt lat="43.34865" lon="-1.63207">
        <ele>43</ele>
        <time>2026-02-12T14:28:21Z</time>
      </trkpt>
      <trkpt lat="43.34871" lon="-1.63207">
        <ele>43</ele>
        <time>2026-02-12T14:28:22Z</time>
      </trkpt>
      <trkpt lat="43.34892" lon="-1.63199">
        <ele>40</ele>
        <time>2026-02-12T14:28:26Z</time>
      </trkpt>
      <trkpt lat="43.3492" lon="-1.6321">
        <ele>38</ele>
        <time>2026-02-12T14:28:31Z</time>
      </trkpt>
      <trkpt lat="43.34931" lon="-1.6322">
        <ele>39</ele>
        <time>2026-02-12T14:28:33Z</time>
      </trkpt>
      <trkpt lat="43.34933" lon="-1.63235">
        <ele>40</ele>
        <time>2026-02-12T14:28:35Z</time>
      </trkpt>
      <trkpt lat="43.3493" lon="-1.63241">
        <ele>41</ele>
        <time>2026-02-12T14:28:36Z</time>
      </trkpt>
      <trkpt lat="43.34924" lon="-1.63244">
        <ele>42</ele>
        <time>2026-02-12T14:28:37Z</time>
      </trkpt>
      <trkpt lat="43.34902" lon="-1.63245">
        <ele>44</ele>
        <time>2026-02-12T14:28:41Z</time>
      </trkpt>
      <trkpt lat="43.34823" lon="-1.63236">
        <ele>50</ele>
        <time>2026-02-12T14:28:55Z</time>
      </trkpt>
      <trkpt lat="43.34802" lon="-1.63238">
        <ele>51</ele>
        <time>2026-02-12T14:28:59Z</time>
      </trkpt>
      <trkpt lat="43.3479" lon="-1.63249">
        <ele>52</ele>
        <time>2026-02-12T14:29:02Z</time>
      </trkpt>
      <trkpt lat="43.34776" lon="-1.63276">
        <ele>53</ele>
        <time>2026-02-12T14:29:06Z</time>
      </trkpt>
      <trkpt lat="43.34762" lon="-1.63289">
        <ele>54</ele>
        <time>2026-02-12T14:29:09Z</time>
      </trkpt>
      <trkpt lat="43.34695" lon="-1.63312">
        <ele>54</ele>
        <time>2026-02-12T14:29:21Z</time>
      </trkpt>
      <trkpt lat="43.34668" lon="-1.63336">
        <ele>56</ele>
        <time>2026-02-12T14:29:27Z</time>
      </trkpt>
      <trkpt lat="43.34659" lon="-1.6335">
        <ele>57</ele>
        <time>2026-02-12T14:29:29Z</time>
      </trkpt>
      <trkpt lat="43.34646" lon="-1.6338">
        <ele>59</ele>
        <time>2026-02-12T14:29:34Z</time>
      </trkpt>
      <trkpt lat="43.34632" lon="-1.63403">
        <ele>60</ele>
        <time>2026-02-12T14:29:38Z</time>
      </trkpt>
      <trkpt lat="43.34595" lon="-1.63489">
        <ele>63</ele>
        <time>2026-02-12T14:29:51Z</time>
      </trkpt>
      <trkpt lat="43.34587" lon="-1.63498">
        <ele>64</ele>
        <time>2026-02-12T14:29:52Z</time>
      </trkpt>
      <trkpt lat="43.3456" lon="-1.63519">
        <ele>65</ele>
        <time>2026-02-12T14:29:58Z</time>
      </trkpt>
      <trkpt lat="43.34546" lon="-1.63538">
        <ele>65</ele>
        <time>2026-02-12T14:30:01Z</time>
      </trkpt>
      <trkpt lat="43.34529" lon="-1.63569">
        <ele>66</ele>
        <time>2026-02-12T14:30:06Z</time>
      </trkpt>
      <trkpt lat="43.34516" lon="-1.63586">
        <ele>67</ele>
        <time>2026-02-12T14:30:10Z</time>
      </trkpt>
      <trkpt lat="43.34482" lon="-1.63618">
        <ele>66</ele>
        <time>2026-02-12T14:30:17Z</time>
      </trkpt>
      <trkpt lat="43.34436" lon="-1.63654">
        <ele>64</ele>
        <time>2026-02-12T14:30:26Z</time>
      </trkpt>
      <trkpt lat="43.34361" lon="-1.63705">
        <ele>60</ele>
        <time>2026-02-12T14:30:41Z</time>
      </trkpt>
      <trkpt lat="43.34325" lon="-1.63733">
        <ele>58</ele>
        <time>2026-02-12T14:30:49Z</time>
      </trkpt>
      <trkpt lat="43.34311" lon="-1.63738">
        <ele>57</ele>
        <time>2026-02-12T14:30:51Z</time>
      </trkpt>
      <trkpt lat="43.34265" lon="-1.63741">
        <ele>53</ele>
        <time>2026-02-12T14:30:59Z</time>
      </trkpt>
      <trkpt lat="43.34226" lon="-1.6375">
        <ele>51</ele>
        <time>2026-02-12T14:31:06Z</time>
      </trkpt>
      <trkpt lat="43.34221" lon="-1.63757">
        <ele>51</ele>
        <time>2026-02-12T14:31:08Z</time>
      </trkpt>
      <trkpt lat="43.34221" lon="-1.63767">
        <ele>51</ele>
        <time>2026-02-12T14:31:09Z</time>
      </trkpt>
      <trkpt lat="43.34232" lon="-1.63827">
        <ele>50</ele>
        <time>2026-02-12T14:31:17Z</time>
      </trkpt>
      <trkpt lat="43.34233" lon="-1.63851">
        <ele>50</ele>
        <time>2026-02-12T14:31:20Z</time>
      </trkpt>
      <trkpt lat="43.3423" lon="-1.63875">
        <ele>49</ele>
        <time>2026-02-12T14:31:23Z</time>
      </trkpt>
      <trkpt lat="43.34218" lon="-1.63925">
        <ele>48</ele>
        <time>2026-02-12T14:31:30Z</time>
      </trkpt>
      <trkpt lat="43.34186" lon="-1.64">
        <ele>48</ele>
        <time>2026-02-12T14:31:41Z</time>
      </trkpt>
      <trkpt lat="43.34171" lon="-1.64029">
        <ele>46</ele>
        <time>2026-02-12T14:31:46Z</time>
      </trkpt>
      <trkpt lat="43.34156" lon="-1.64044">
        <ele>45</ele>
        <time>2026-02-12T14:31:49Z</time>
      </trkpt>
      <trkpt lat="43.34131" lon="-1.64061">
        <ele>42</ele>
        <time>2026-02-12T14:31:54Z</time>
      </trkpt>
      <trkpt lat="43.34072" lon="-1.64095">
        <ele>37</ele>
        <time>2026-02-12T14:32:06Z</time>
      </trkpt>
      <trkpt lat="43.3405" lon="-1.64116">
        <ele>36</ele>
        <time>2026-02-12T14:32:10Z</time>
      </trkpt>
      <trkpt lat="43.34038" lon="-1.64136">
        <ele>35</ele>
        <time>2026-02-12T14:32:14Z</time>
      </trkpt>
      <trkpt lat="43.34026" lon="-1.64182">
        <ele>35</ele>
        <time>2026-02-12T14:32:20Z</time>
      </trkpt>
      <trkpt lat="43.34027" lon="-1.64267">
        <ele>35</ele>
        <time>2026-02-12T14:32:31Z</time>
      </trkpt>
      <trkpt lat="43.3402" lon="-1.64326">
        <ele>35</ele>
        <time>2026-02-12T14:32:39Z</time>
      </trkpt>
      <trkpt lat="43.33981" lon="-1.64517">
        <ele>38</ele>
        <time>2026-02-12T14:33:04Z</time>
      </trkpt>
      <trkpt lat="43.33956" lon="-1.6462">
        <ele>40</ele>
        <time>2026-02-12T14:33:19Z</time>
      </trkpt>
      <trkpt lat="43.33927" lon="-1.6477">
        <ele>45</ele>
        <time>2026-02-12T14:33:39Z</time>
      </trkpt>
      <trkpt lat="43.33911" lon="-1.64833">
        <ele>46</ele>
        <time>2026-02-12T14:33:47Z</time>
      </trkpt>
      <trkpt lat="43.33898" lon="-1.64904">
        <ele>47</ele>
        <time>2026-02-12T14:33:57Z</time>
      </trkpt>
      <trkpt lat="43.33773" lon="-1.65494">
        <ele>65</ele>
        <time>2026-02-12T14:35:16Z</time>
      </trkpt>
      <trkpt lat="43.33728" lon="-1.65696">
        <ele>65</ele>
        <time>2026-02-12T14:35:44Z</time>
      </trkpt>
      <trkpt lat="43.33715" lon="-1.65774">
        <ele>66</ele>
        <time>2026-02-12T14:35:54Z</time>
      </trkpt>
      <trkpt lat="43.33698" lon="-1.65925">
        <ele>68</ele>
        <time>2026-02-12T14:36:14Z</time>
      </trkpt>
      <trkpt lat="43.3367" lon="-1.66082">
        <ele>68</ele>
        <time>2026-02-12T14:36:35Z</time>
      </trkpt>
      <trkpt lat="43.33651" lon="-1.66165">
        <ele>65</ele>
        <time>2026-02-12T14:36:46Z</time>
      </trkpt>
      <trkpt lat="43.33622" lon="-1.6625">
        <ele>67</ele>
        <time>2026-02-12T14:36:58Z</time>
      </trkpt>
      <trkpt lat="43.33616" lon="-1.66276">
        <ele>67</ele>
        <time>2026-02-12T14:37:02Z</time>
      </trkpt>
      <trkpt lat="43.33614" lon="-1.66369">
        <ele>64</ele>
        <time>2026-02-12T14:37:14Z</time>
      </trkpt>
      <trkpt lat="43.33618" lon="-1.66408">
        <ele>62</ele>
        <time>2026-02-12T14:37:19Z</time>
      </trkpt>
      <trkpt lat="43.33633" lon="-1.66457">
        <ele>58</ele>
        <time>2026-02-12T14:37:26Z</time>
      </trkpt>
      <trkpt lat="43.33657" lon="-1.66517">
        <ele>55</ele>
        <time>2026-02-12T14:37:34Z</time>
      </trkpt>
      <trkpt lat="43.33669" lon="-1.66555">
        <ele>52</ele>
        <time>2026-02-12T14:37:40Z</time>
      </trkpt>
      <trkpt lat="43.33676" lon="-1.66619">
        <ele>50</ele>
        <time>2026-02-12T14:37:48Z</time>
      </trkpt>
      <trkpt lat="43.33674" lon="-1.66643">
        <ele>49</ele>
        <time>2026-02-12T14:37:51Z</time>
      </trkpt>
      <trkpt lat="43.33656" lon="-1.6673">
        <ele>46</ele>
        <time>2026-02-12T14:38:03Z</time>
      </trkpt>
      <trkpt lat="43.33639" lon="-1.66768">
        <ele>45</ele>
        <time>2026-02-12T14:38:09Z</time>
      </trkpt>
      <trkpt lat="43.33616" lon="-1.66796">
        <ele>45</ele>
        <time>2026-02-12T14:38:14Z</time>
      </trkpt>
      <trkpt lat="43.33614" lon="-1.66802">
        <ele>45</ele>
        <time>2026-02-12T14:38:15Z</time>
      </trkpt>
      <trkpt lat="43.33615" lon="-1.66812">
        <ele>44</ele>
        <time>2026-02-12T14:38:16Z</time>
      </trkpt>
      <trkpt lat="43.3362" lon="-1.66817">
        <ele>44</ele>
        <time>2026-02-12T14:38:18Z</time>
      </trkpt>
      <trkpt lat="43.33627" lon="-1.66819">
        <ele>44</ele>
        <time>2026-02-12T14:38:19Z</time>
      </trkpt>
      <trkpt lat="43.33705" lon="-1.66829">
        <ele>42</ele>
        <time>2026-02-12T14:38:33Z</time>
      </trkpt>
      <trkpt lat="43.33749" lon="-1.66821">
        <ele>42</ele>
        <time>2026-02-12T14:38:41Z</time>
      </trkpt>
      <trkpt lat="43.33792" lon="-1.66805">
        <ele>40</ele>
        <time>2026-02-12T14:38:49Z</time>
      </trkpt>
      <trkpt lat="43.33838" lon="-1.66782">
        <ele>39</ele>
        <time>2026-02-12T14:38:57Z</time>
      </trkpt>
      <trkpt lat="43.3387" lon="-1.66759">
        <ele>38</ele>
        <time>2026-02-12T14:39:04Z</time>
      </trkpt>
      <trkpt lat="43.33893" lon="-1.66737">
        <ele>37</ele>
        <time>2026-02-12T14:39:09Z</time>
      </trkpt>
      <trkpt lat="43.3395" lon="-1.66672">
        <ele>36</ele>
        <time>2026-02-12T14:39:22Z</time>
      </trkpt>
      <trkpt lat="43.33983" lon="-1.66643">
        <ele>34</ele>
        <time>2026-02-12T14:39:29Z</time>
      </trkpt>
      <trkpt lat="43.33992" lon="-1.66637">
        <ele>33</ele>
        <time>2026-02-12T14:39:31Z</time>
      </trkpt>
      <trkpt lat="43.34011" lon="-1.66631">
        <ele>33</ele>
        <time>2026-02-12T14:39:34Z</time>
      </trkpt>
      <trkpt lat="43.34038" lon="-1.66628">
        <ele>34</ele>
        <time>2026-02-12T14:39:39Z</time>
      </trkpt>
      <trkpt lat="43.34055" lon="-1.66631">
        <ele>35</ele>
        <time>2026-02-12T14:39:42Z</time>
      </trkpt>
      <trkpt lat="43.34083" lon="-1.66644">
        <ele>37</ele>
        <time>2026-02-12T14:39:47Z</time>
      </trkpt>
      <trkpt lat="43.34108" lon="-1.66649">
        <ele>39</ele>
        <time>2026-02-12T14:39:52Z</time>
      </trkpt>
      <trkpt lat="43.34126" lon="-1.66656">
        <ele>40</ele>
        <time>2026-02-12T14:39:55Z</time>
      </trkpt>
      <trkpt lat="43.34201" lon="-1.66694">
        <ele>48</ele>
        <time>2026-02-12T14:40:09Z</time>
      </trkpt>
      <trkpt lat="43.34218" lon="-1.667">
        <ele>50</ele>
        <time>2026-02-12T14:40:12Z</time>
      </trkpt>
      <trkpt lat="43.34281" lon="-1.66731">
        <ele>53</ele>
        <time>2026-02-12T14:40:24Z</time>
      </trkpt>
      <trkpt lat="43.34306" lon="-1.6674">
        <ele>54</ele>
        <time>2026-02-12T14:40:29Z</time>
      </trkpt>
      <trkpt lat="43.34336" lon="-1.66743">
        <ele>56</ele>
        <time>2026-02-12T14:40:34Z</time>
      </trkpt>
      <trkpt lat="43.34352" lon="-1.6674">
        <ele>58</ele>
        <time>2026-02-12T14:40:37Z</time>
      </trkpt>
      <trkpt lat="43.34363" lon="-1.66732">
        <ele>60</ele>
        <time>2026-02-12T14:40:39Z</time>
      </trkpt>
      <trkpt lat="43.34416" lon="-1.66672">
        <ele>70</ele>
        <time>2026-02-12T14:40:52Z</time>
      </trkpt>
      <trkpt lat="43.34439" lon="-1.66656">
        <ele>72</ele>
        <time>2026-02-12T14:40:56Z</time>
      </trkpt>
      <trkpt lat="43.34458" lon="-1.66652">
        <ele>73</ele>
        <time>2026-02-12T14:41:00Z</time>
      </trkpt>
      <trkpt lat="43.34526" lon="-1.6665">
        <ele>73</ele>
        <time>2026-02-12T14:41:12Z</time>
      </trkpt>
      <trkpt lat="43.34549" lon="-1.66658">
        <ele>75</ele>
        <time>2026-02-12T14:41:16Z</time>
      </trkpt>
      <trkpt lat="43.34567" lon="-1.6667">
        <ele>76</ele>
        <time>2026-02-12T14:41:19Z</time>
      </trkpt>
      <trkpt lat="43.34661" lon="-1.66772">
        <ele>74</ele>
        <time>2026-02-12T14:41:41Z</time>
      </trkpt>
      <trkpt lat="43.34679" lon="-1.66785">
        <ele>73</ele>
        <time>2026-02-12T14:41:44Z</time>
      </trkpt>
      <trkpt lat="43.34707" lon="-1.66797">
        <ele>73</ele>
        <time>2026-02-12T14:41:50Z</time>
      </trkpt>
      <trkpt lat="43.34745" lon="-1.66805">
        <ele>72</ele>
        <time>2026-02-12T14:41:56Z</time>
      </trkpt>
      <trkpt lat="43.34823" lon="-1.66815">
        <ele>74</ele>
        <time>2026-02-12T14:42:10Z</time>
      </trkpt>
      <trkpt lat="43.34942" lon="-1.66878">
        <ele>87</ele>
        <time>2026-02-12T14:42:33Z</time>
      </trkpt>
      <trkpt lat="43.3496" lon="-1.66878">
        <ele>89</ele>
        <time>2026-02-12T14:42:36Z</time>
      </trkpt>
      <trkpt lat="43.34969" lon="-1.66873">
        <ele>90</ele>
        <time>2026-02-12T14:42:38Z</time>
      </trkpt>
      <trkpt lat="43.34975" lon="-1.66858">
        <ele>89</ele>
        <time>2026-02-12T14:42:40Z</time>
      </trkpt>
      <trkpt lat="43.34981" lon="-1.66825">
        <ele>87</ele>
        <time>2026-02-12T14:42:45Z</time>
      </trkpt>
      <trkpt lat="43.34986" lon="-1.66816">
        <ele>86</ele>
        <time>2026-02-12T14:42:46Z</time>
      </trkpt>
      <trkpt lat="43.34999" lon="-1.66802">
        <ele>86</ele>
        <time>2026-02-12T14:42:49Z</time>
      </trkpt>
      <trkpt lat="43.35013" lon="-1.66798">
        <ele>86</ele>
        <time>2026-02-12T14:42:52Z</time>
      </trkpt>
      <trkpt lat="43.35029" lon="-1.66805">
        <ele>87</ele>
        <time>2026-02-12T14:42:54Z</time>
      </trkpt>
      <trkpt lat="43.35069" lon="-1.66844">
        <ele>91</ele>
        <time>2026-02-12T14:43:03Z</time>
      </trkpt>
      <trkpt lat="43.35083" lon="-1.66854">
        <ele>92</ele>
        <time>2026-02-12T14:43:06Z</time>
      </trkpt>
      <trkpt lat="43.35098" lon="-1.66858">
        <ele>93</ele>
        <time>2026-02-12T14:43:09Z</time>
      </trkpt>
      <trkpt lat="43.35107" lon="-1.66856">
        <ele>93</ele>
        <time>2026-02-12T14:43:10Z</time>
      </trkpt>
      <trkpt lat="43.35115" lon="-1.66852">
        <ele>93</ele>
        <time>2026-02-12T14:43:12Z</time>
      </trkpt>
      <trkpt lat="43.35122" lon="-1.66845">
        <ele>93</ele>
        <time>2026-02-12T14:43:13Z</time>
      </trkpt>
      <trkpt lat="43.35144" lon="-1.66816">
        <ele>93</ele>
        <time>2026-02-12T14:43:19Z</time>
      </trkpt>
      <trkpt lat="43.35163" lon="-1.66779">
        <ele>92</ele>
        <time>2026-02-12T14:43:25Z</time>
      </trkpt>
      <trkpt lat="43.35185" lon="-1.66744">
        <ele>91</ele>
        <time>2026-02-12T14:43:31Z</time>
      </trkpt>
      <trkpt lat="43.35198" lon="-1.66731">
        <ele>91</ele>
        <time>2026-02-12T14:43:34Z</time>
      </trkpt>
      <trkpt lat="43.35217" lon="-1.66727">
        <ele>91</ele>
        <time>2026-02-12T14:43:37Z</time>
      </trkpt>
      <trkpt lat="43.35246" lon="-1.66731">
        <ele>92</ele>
        <time>2026-02-12T14:43:42Z</time>
      </trkpt>
      <trkpt lat="43.35268" lon="-1.66725">
        <ele>92</ele>
        <time>2026-02-12T14:43:46Z</time>
      </trkpt>
      <trkpt lat="43.35303" lon="-1.66703">
        <ele>91</ele>
        <time>2026-02-12T14:43:53Z</time>
      </trkpt>
      <trkpt lat="43.35412" lon="-1.66646">
        <ele>97</ele>
        <time>2026-02-12T14:44:14Z</time>
      </trkpt>
      <trkpt lat="43.35452" lon="-1.66612">
        <ele>94</ele>
        <time>2026-02-12T14:44:22Z</time>
      </trkpt>
      <trkpt lat="43.35466" lon="-1.66605">
        <ele>94</ele>
        <time>2026-02-12T14:44:25Z</time>
      </trkpt>
      <trkpt lat="43.3551" lon="-1.66594">
        <ele>94</ele>
        <time>2026-02-12T14:44:33Z</time>
      </trkpt>
      <trkpt lat="43.35612" lon="-1.66586">
        <ele>87</ele>
        <time>2026-02-12T14:44:51Z</time>
      </trkpt>
      <trkpt lat="43.35643" lon="-1.66578">
        <ele>85</ele>
        <time>2026-02-12T14:44:57Z</time>
      </trkpt>
      <trkpt lat="43.35662" lon="-1.66566">
        <ele>83</ele>
        <time>2026-02-12T14:45:00Z</time>
      </trkpt>
      <trkpt lat="43.3568" lon="-1.6655">
        <ele>80</ele>
        <time>2026-02-12T14:45:04Z</time>
      </trkpt>
      <trkpt lat="43.35719" lon="-1.665">
        <ele>77</ele>
        <time>2026-02-12T14:45:14Z</time>
      </trkpt>
      <trkpt lat="43.35746" lon="-1.66477">
        <ele>76</ele>
        <time>2026-02-12T14:45:19Z</time>
      </trkpt>
      <trkpt lat="43.35777" lon="-1.66462">
        <ele>75</ele>
        <time>2026-02-12T14:45:25Z</time>
      </trkpt>
      <trkpt lat="43.35859" lon="-1.66437">
        <ele>77</ele>
        <time>2026-02-12T14:45:40Z</time>
      </trkpt>
      <trkpt lat="43.35878" lon="-1.66427">
        <ele>78</ele>
        <time>2026-02-12T14:45:44Z</time>
      </trkpt>
      <trkpt lat="43.35885" lon="-1.66419">
        <ele>78</ele>
        <time>2026-02-12T14:45:45Z</time>
      </trkpt>
      <trkpt lat="43.35889" lon="-1.66409">
        <ele>78</ele>
        <time>2026-02-12T14:45:47Z</time>
      </trkpt>
      <trkpt lat="43.35896" lon="-1.66367">
        <ele>76</ele>
        <time>2026-02-12T14:45:52Z</time>
      </trkpt>
      <trkpt lat="43.35903" lon="-1.6635">
        <ele>75</ele>
        <time>2026-02-12T14:45:55Z</time>
      </trkpt>
      <trkpt lat="43.35921" lon="-1.66336">
        <ele>76</ele>
        <time>2026-02-12T14:45:58Z</time>
      </trkpt>
      <trkpt lat="43.35959" lon="-1.66317">
        <ele>76</ele>
        <time>2026-02-12T14:46:06Z</time>
      </trkpt>
      <trkpt lat="43.35975" lon="-1.66302">
        <ele>77</ele>
        <time>2026-02-12T14:46:09Z</time>
      </trkpt>
      <trkpt lat="43.36033" lon="-1.66221">
        <ele>81</ele>
        <time>2026-02-12T14:46:24Z</time>
      </trkpt>
      <trkpt lat="43.36106" lon="-1.66108">
        <ele>83</ele>
        <time>2026-02-12T14:46:43Z</time>
      </trkpt>
      <trkpt lat="43.36125" lon="-1.66091">
        <ele>84</ele>
        <time>2026-02-12T14:46:47Z</time>
      </trkpt>
      <trkpt lat="43.36142" lon="-1.66081">
        <ele>86</ele>
        <time>2026-02-12T14:46:51Z</time>
      </trkpt>
      <trkpt lat="43.36197" lon="-1.66064">
        <ele>85</ele>
        <time>2026-02-12T14:47:01Z</time>
      </trkpt>
      <trkpt lat="43.36206" lon="-1.66064">
        <ele>84</ele>
        <time>2026-02-12T14:47:02Z</time>
      </trkpt>
      <trkpt lat="43.36225" lon="-1.6607">
        <ele>82</ele>
        <time>2026-02-12T14:47:06Z</time>
      </trkpt>
      <trkpt lat="43.36264" lon="-1.6609">
        <ele>78</ele>
        <time>2026-02-12T14:47:13Z</time>
      </trkpt>
      <trkpt lat="43.36275" lon="-1.66092">
        <ele>77</ele>
        <time>2026-02-12T14:47:15Z</time>
      </trkpt>
      <trkpt lat="43.36298" lon="-1.66089">
        <ele>77</ele>
        <time>2026-02-12T14:47:19Z</time>
      </trkpt>
      <trkpt lat="43.36333" lon="-1.66078">
        <ele>76</ele>
        <time>2026-02-12T14:47:26Z</time>
      </trkpt>
      <trkpt lat="43.36365" lon="-1.66057">
        <ele>75</ele>
        <time>2026-02-12T14:47:32Z</time>
      </trkpt>
      <trkpt lat="43.36391" lon="-1.66028">
        <ele>74</ele>
        <time>2026-02-12T14:47:38Z</time>
      </trkpt>
      <trkpt lat="43.36412" lon="-1.65995">
        <ele>75</ele>
        <time>2026-02-12T14:47:44Z</time>
      </trkpt>
      <trkpt lat="43.36515" lon="-1.65809">
        <ele>68</ele>
        <time>2026-02-12T14:48:14Z</time>
      </trkpt>
      <trkpt lat="43.3653" lon="-1.65779">
        <ele>68</ele>
        <time>2026-02-12T14:48:19Z</time>
      </trkpt>
      <trkpt lat="43.36551" lon="-1.65706">
        <ele>71</ele>
        <time>2026-02-12T14:48:29Z</time>
      </trkpt>
      <trkpt lat="43.36567" lon="-1.65673">
        <ele>74</ele>
        <time>2026-02-12T14:48:34Z</time>
      </trkpt>
      <trkpt lat="43.36579" lon="-1.65657">
        <ele>75</ele>
        <time>2026-02-12T14:48:37Z</time>
      </trkpt>
      <trkpt lat="43.36603" lon="-1.65639">
        <ele>73</ele>
        <time>2026-02-12T14:48:42Z</time>
      </trkpt>
      <trkpt lat="43.36618" lon="-1.65632">
        <ele>72</ele>
        <time>2026-02-12T14:48:45Z</time>
      </trkpt>
      <trkpt lat="43.36649" lon="-1.65628">
        <ele>71</ele>
        <time>2026-02-12T14:48:50Z</time>
      </trkpt>
      <trkpt lat="43.36678" lon="-1.65633">
        <ele>69</ele>
        <time>2026-02-12T14:48:55Z</time>
      </trkpt>
      <trkpt lat="43.36706" lon="-1.65643">
        <ele>67</ele>
        <time>2026-02-12T14:49:00Z</time>
      </trkpt>
      <trkpt lat="43.36724" lon="-1.65651">
        <ele>66</ele>
        <time>2026-02-12T14:49:04Z</time>
      </trkpt>
      <trkpt lat="43.36767" lon="-1.6568">
        <ele>65</ele>
        <time>2026-02-12T14:49:12Z</time>
      </trkpt>
      <trkpt lat="43.36791" lon="-1.65693">
        <ele>64</ele>
        <time>2026-02-12T14:49:17Z</time>
      </trkpt>
      <trkpt lat="43.36906" lon="-1.65746">
        <ele>60</ele>
        <time>2026-02-12T14:49:38Z</time>
      </trkpt>
      <trkpt lat="43.37002" lon="-1.65783">
        <ele>56</ele>
        <time>2026-02-12T14:49:56Z</time>
      </trkpt>
      <trkpt lat="43.37041" lon="-1.65807">
        <ele>58</ele>
        <time>2026-02-12T14:50:04Z</time>
      </trkpt>
      <trkpt lat="43.3708" lon="-1.65827">
        <ele>60</ele>
        <time>2026-02-12T14:50:11Z</time>
      </trkpt>
      <trkpt lat="43.37094" lon="-1.65841">
        <ele>58</ele>
        <time>2026-02-12T14:50:14Z</time>
      </trkpt>
      <trkpt lat="43.37116" lon="-1.65879">
        <ele>53</ele>
        <time>2026-02-12T14:50:21Z</time>
      </trkpt>
      <trkpt lat="43.3713" lon="-1.6589">
        <ele>52</ele>
        <time>2026-02-12T14:50:23Z</time>
      </trkpt>
      <trkpt lat="43.37155" lon="-1.65894">
        <ele>53</ele>
        <time>2026-02-12T14:50:28Z</time>
      </trkpt>
      <trkpt lat="43.37259" lon="-1.65899">
        <ele>42</ele>
        <time>2026-02-12T14:50:46Z</time>
      </trkpt>
      <trkpt lat="43.37334" lon="-1.65906">
        <ele>38</ele>
        <time>2026-02-12T14:51:00Z</time>
      </trkpt>
      <trkpt lat="43.37446" lon="-1.65869">
        <ele>39</ele>
        <time>2026-02-12T14:51:20Z</time>
      </trkpt>
      <trkpt lat="43.37462" lon="-1.6587">
        <ele>40</ele>
        <time>2026-02-12T14:51:23Z</time>
      </trkpt>
      <trkpt lat="43.37483" lon="-1.65877">
        <ele>41</ele>
        <time>2026-02-12T14:51:27Z</time>
      </trkpt>
      <trkpt lat="43.37501" lon="-1.65892">
        <ele>41</ele>
        <time>2026-02-12T14:51:31Z</time>
      </trkpt>
      <trkpt lat="43.37527" lon="-1.65923">
        <ele>41</ele>
        <time>2026-02-12T14:51:37Z</time>
      </trkpt>
      <trkpt lat="43.37573" lon="-1.66007">
        <ele>36</ele>
        <time>2026-02-12T14:51:50Z</time>
      </trkpt>
      <trkpt lat="43.37595" lon="-1.6604">
        <ele>32</ele>
        <time>2026-02-12T14:51:56Z</time>
      </trkpt>
      <trkpt lat="43.37621" lon="-1.66068">
        <ele>28</ele>
        <time>2026-02-12T14:52:02Z</time>
      </trkpt>
      <trkpt lat="43.37636" lon="-1.66077">
        <ele>26</ele>
        <time>2026-02-12T14:52:05Z</time>
      </trkpt>
      <trkpt lat="43.37654" lon="-1.66078">
        <ele>26</ele>
        <time>2026-02-12T14:52:08Z</time>
      </trkpt>
      <trkpt lat="43.37672" lon="-1.6607">
        <ele>26</ele>
        <time>2026-02-12T14:52:12Z</time>
      </trkpt>
      <trkpt lat="43.37688" lon="-1.66056">
        <ele>25</ele>
        <time>2026-02-12T14:52:15Z</time>
      </trkpt>
      <trkpt lat="43.37703" lon="-1.66037">
        <ele>25</ele>
        <time>2026-02-12T14:52:19Z</time>
      </trkpt>
      <trkpt lat="43.37721" lon="-1.66002">
        <ele>25</ele>
        <time>2026-02-12T14:52:24Z</time>
      </trkpt>
      <trkpt lat="43.37731" lon="-1.65963">
        <ele>24</ele>
        <time>2026-02-12T14:52:29Z</time>
      </trkpt>
      <trkpt lat="43.3774" lon="-1.65905">
        <ele>24</ele>
        <time>2026-02-12T14:52:37Z</time>
      </trkpt>
      <trkpt lat="43.37747" lon="-1.65886">
        <ele>23</ele>
        <time>2026-02-12T14:52:40Z</time>
      </trkpt>
      <trkpt lat="43.37753" lon="-1.65875">
        <ele>22</ele>
        <time>2026-02-12T14:52:42Z</time>
      </trkpt>
      <trkpt lat="43.37758" lon="-1.65873">
        <ele>22</ele>
        <time>2026-02-12T14:52:43Z</time>
      </trkpt>
      <trkpt lat="43.37768" lon="-1.65877">
        <ele>21</ele>
        <time>2026-02-12T14:52:44Z</time>
      </trkpt>
      <trkpt lat="43.37834" lon="-1.65934">
        <ele>15</ele>
        <time>2026-02-12T14:52:58Z</time>
      </trkpt>
      <trkpt lat="43.37845" lon="-1.65948">
        <ele>14</ele>
        <time>2026-02-12T14:53:01Z</time>
      </trkpt>
      <trkpt lat="43.37872" lon="-1.65997">
        <ele>11</ele>
        <time>2026-02-12T14:53:09Z</time>
      </trkpt>
      <trkpt lat="43.37891" lon="-1.66018">
        <ele>10</ele>
        <time>2026-02-12T14:53:13Z</time>
      </trkpt>
      <trkpt lat="43.37927" lon="-1.66041">
        <ele>8</ele>
        <time>2026-02-12T14:53:20Z</time>
      </trkpt>
      <trkpt lat="43.37971" lon="-1.66075">
        <ele>6</ele>
        <time>2026-02-12T14:53:29Z</time>
      </trkpt>
      <trkpt lat="43.37991" lon="-1.66092">
        <ele>5</ele>
        <time>2026-02-12T14:53:34Z</time>
      </trkpt>
      <trkpt lat="43.38016" lon="-1.6612">
        <ele>5</ele>
        <time>2026-02-12T14:53:39Z</time>
      </trkpt>
      <trkpt lat="43.38034" lon="-1.66127">
        <ele>6</ele>
        <time>2026-02-12T14:53:43Z</time>
      </trkpt>
      <trkpt lat="43.38032" lon="-1.66129">
        <ele>6</ele>
        <time>2026-02-12T14:53:43Z</time>
      </trkpt>
      <trkpt lat="43.3803" lon="-1.66147">
        <ele>6</ele>
        <time>2026-02-12T14:53:45Z</time>
      </trkpt>
      <trkpt lat="43.38007" lon="-1.66185">
        <ele>5</ele>
        <time>2026-02-12T14:53:52Z</time>
      </trkpt>
      <trkpt lat="43.38007" lon="-1.66195">
        <ele>5</ele>
        <time>2026-02-12T14:53:53Z</time>
      </trkpt>
      <trkpt lat="43.38018" lon="-1.66226">
        <ele>5</ele>
        <time>2026-02-12T14:53:58Z</time>
      </trkpt>
      <trkpt lat="43.38034" lon="-1.66248">
        <ele>4</ele>
        <time>2026-02-12T14:54:02Z</time>
      </trkpt>
      <trkpt lat="43.38075" lon="-1.6627">
        <ele>5</ele>
        <time>2026-02-12T14:54:09Z</time>
      </trkpt>
      <trkpt lat="43.38084" lon="-1.66277">
        <ele>5</ele>
        <time>2026-02-12T14:54:11Z</time>
      </trkpt>
      <trkpt lat="43.38091" lon="-1.66287">
        <ele>5</ele>
        <time>2026-02-12T14:54:13Z</time>
      </trkpt>
      <trkpt lat="43.38098" lon="-1.66306">
        <ele>5</ele>
        <time>2026-02-12T14:54:16Z</time>
      </trkpt>
      <trkpt lat="43.38108" lon="-1.66388">
        <ele>6</ele>
        <time>2026-02-12T14:54:27Z</time>
      </trkpt>
      <trkpt lat="43.38113" lon="-1.66408">
        <ele>6</ele>
        <time>2026-02-12T14:54:29Z</time>
      </trkpt>
      <trkpt lat="43.38121" lon="-1.66427">
        <ele>5</ele>
        <time>2026-02-12T14:54:32Z</time>
      </trkpt>
      <trkpt lat="43.38141" lon="-1.66459">
        <ele>4</ele>
        <time>2026-02-12T14:54:38Z</time>
      </trkpt>
      <trkpt lat="43.38215" lon="-1.6654">
        <ele>3</ele>
        <time>2026-02-12T14:54:54Z</time>
      </trkpt>
      <trkpt lat="43.38226" lon="-1.66555">
        <ele>3</ele>
        <time>2026-02-12T14:54:57Z</time>
      </trkpt>
      <trkpt lat="43.38242" lon="-1.66594">
        <ele>4</ele>
        <time>2026-02-12T14:55:03Z</time>
      </trkpt>
      <trkpt lat="43.38252" lon="-1.66609">
        <ele>4</ele>
        <time>2026-02-12T14:55:06Z</time>
      </trkpt>
      <trkpt lat="43.38266" lon="-1.66657">
        <ele>5</ele>
        <time>2026-02-12T14:55:12Z</time>
      </trkpt>
      <trkpt lat="43.3828" lon="-1.66688">
        <ele>6</ele>
        <time>2026-02-12T14:55:17Z</time>
      </trkpt>
      <trkpt lat="43.38286" lon="-1.66695">
        <ele>6</ele>
        <time>2026-02-12T14:55:18Z</time>
      </trkpt>
      <trkpt lat="43.38288" lon="-1.66703">
        <ele>6</ele>
        <time>2026-02-12T14:55:19Z</time>
      </trkpt>
      <trkpt lat="43.38297" lon="-1.66717">
        <ele>6</ele>
        <time>2026-02-12T14:55:22Z</time>
      </trkpt>
      <trkpt lat="43.38308" lon="-1.66748">
        <ele>7</ele>
        <time>2026-02-12T14:55:26Z</time>
      </trkpt>
      <trkpt lat="43.38313" lon="-1.66754">
        <ele>7</ele>
        <time>2026-02-12T14:55:28Z</time>
      </trkpt>
      <trkpt lat="43.38321" lon="-1.66756">
        <ele>7</ele>
        <time>2026-02-12T14:55:29Z</time>
      </trkpt>
      <trkpt lat="43.38357" lon="-1.66754">
        <ele>6</ele>
        <time>2026-02-12T14:55:35Z</time>
      </trkpt>
      <trkpt lat="43.38378" lon="-1.66743">
        <ele>5</ele>
        <time>2026-02-12T14:55:39Z</time>
      </trkpt>
      <trkpt lat="43.3839" lon="-1.6673">
        <ele>5</ele>
        <time>2026-02-12T14:55:42Z</time>
      </trkpt>
      <trkpt lat="43.38445" lon="-1.6665">
        <ele>5</ele>
        <time>2026-02-12T14:55:56Z</time>
      </trkpt>
      <trkpt lat="43.38455" lon="-1.66621">
        <ele>4</ele>
        <time>2026-02-12T14:56:00Z</time>
      </trkpt>
      <trkpt lat="43.38467" lon="-1.66614">
        <ele>4</ele>
        <time>2026-02-12T14:56:03Z</time>
      </trkpt>
      <trkpt lat="43.38467" lon="-1.66607">
        <ele>4</ele>
        <time>2026-02-12T14:56:04Z</time>
      </trkpt>
      <trkpt lat="43.38448" lon="-1.6659">
        <ele>4</ele>
        <time>2026-02-12T14:56:08Z</time>
      </trkpt>
      <trkpt lat="43.3844" lon="-1.66573">
        <ele>4</ele>
        <time>2026-02-12T14:56:10Z</time>
      </trkpt>
      <trkpt lat="43.3844" lon="-1.66551">
        <ele>4</ele>
        <time>2026-02-12T14:56:13Z</time>
      </trkpt>
      <trkpt lat="43.38443" lon="-1.66541">
        <ele>5</ele>
        <time>2026-02-12T14:56:15Z</time>
      </trkpt>
      <trkpt lat="43.38504" lon="-1.66403">
        <ele>4</ele>
        <time>2026-02-12T14:56:35Z</time>
      </trkpt>
      <trkpt lat="43.38558" lon="-1.66269">
        <ele>3</ele>
        <time>2026-02-12T14:56:55Z</time>
      </trkpt>
      <trkpt lat="43.38571" lon="-1.66244">
        <ele>3</ele>
        <time>2026-02-12T14:56:59Z</time>
      </trkpt>
      <trkpt lat="43.38584" lon="-1.66228">
        <ele>3</ele>
        <time>2026-02-12T14:57:02Z</time>
      </trkpt>
      <trkpt lat="43.38592" lon="-1.66229">
        <ele>3</ele>
        <time>2026-02-12T14:57:04Z</time>
      </trkpt>
      <trkpt lat="43.38596" lon="-1.66237">
        <ele>3</ele>
        <time>2026-02-12T14:57:05Z</time>
      </trkpt>
      <trkpt lat="43.38593" lon="-1.66256">
        <ele>3</ele>
        <time>2026-02-12T14:57:08Z</time>
      </trkpt>
      <trkpt lat="43.38597" lon="-1.66282">
        <ele>2</ele>
        <time>2026-02-12T14:57:11Z</time>
      </trkpt>
      <trkpt lat="43.38592" lon="-1.66296">
        <ele>1</ele>
        <time>2026-02-12T14:57:13Z</time>
      </trkpt>
      <trkpt lat="43.38585" lon="-1.66295">
        <ele>1</ele>
        <time>2026-02-12T14:57:14Z</time>
      </trkpt>
      <trkpt lat="43.3856" lon="-1.66274">
        <ele>2</ele>
        <time>2026-02-12T14:57:20Z</time>
      </trkpt>
      <trkpt lat="43.38552" lon="-1.66271">
        <ele>3</ele>
        <time>2026-02-12T14:57:21Z</time>
      </trkpt>
      <trkpt lat="43.38506" lon="-1.66227">
        <ele>4</ele>
        <time>2026-02-12T14:57:31Z</time>
      </trkpt>
      <trkpt lat="43.38485" lon="-1.66191">
        <ele>5</ele>
        <time>2026-02-12T14:57:37Z</time>
      </trkpt>
      <trkpt lat="43.38471" lon="-1.66174">
        <ele>6</ele>
        <time>2026-02-12T14:57:40Z</time>
      </trkpt>
      <trkpt lat="43.38458" lon="-1.66138">
        <ele>6</ele>
        <time>2026-02-12T14:57:45Z</time>
      </trkpt>
      <trkpt lat="43.38444" lon="-1.66112">
        <ele>6</ele>
        <time>2026-02-12T14:57:50Z</time>
      </trkpt>
      <trkpt lat="43.3836" lon="-1.65993">
        <ele>6</ele>
        <time>2026-02-12T14:58:11Z</time>
      </trkpt>
      <trkpt lat="43.38355" lon="-1.65971">
        <ele>6</ele>
        <time>2026-02-12T14:58:14Z</time>
      </trkpt>
      <trkpt lat="43.38332" lon="-1.65941">
        <ele>6</ele>
        <time>2026-02-12T14:58:20Z</time>
      </trkpt>
      <trkpt lat="43.38329" lon="-1.65932">
        <ele>6</ele>
        <time>2026-02-12T14:58:21Z</time>
      </trkpt>
      <trkpt lat="43.38331" lon="-1.65924">
        <ele>6</ele>
        <time>2026-02-12T14:58:22Z</time>
      </trkpt>
      <trkpt lat="43.38353" lon="-1.65911">
        <ele>5</ele>
        <time>2026-02-12T14:58:26Z</time>
      </trkpt>
      <trkpt lat="43.38386" lon="-1.65867">
        <ele>4</ele>
        <time>2026-02-12T14:58:35Z</time>
      </trkpt>
      <trkpt lat="43.38411" lon="-1.65839">
        <ele>4</ele>
        <time>2026-02-12T14:58:40Z</time>
      </trkpt>
      <trkpt lat="43.38498" lon="-1.65724">
        <ele>3</ele>
        <time>2026-02-12T14:59:02Z</time>
      </trkpt>
      <trkpt lat="43.3853" lon="-1.65677">
        <ele>3</ele>
        <time>2026-02-12T14:59:10Z</time>
      </trkpt>
      <trkpt lat="43.38572" lon="-1.65626">
        <ele>4</ele>
        <time>2026-02-12T14:59:20Z</time>
      </trkpt>
      <trkpt lat="43.38576" lon="-1.65623">
        <ele>4</ele>
        <time>2026-02-12T14:59:21Z</time>
      </trkpt>
      <trkpt lat="43.38584" lon="-1.65625">
        <ele>4</ele>
        <time>2026-02-12T14:59:22Z</time>
      </trkpt>
      <trkpt lat="43.3862" lon="-1.6567">
        <ele>5</ele>
        <time>2026-02-12T14:59:31Z</time>
      </trkpt>
      <trkpt lat="43.38627" lon="-1.65669">
        <ele>5</ele>
        <time>2026-02-12T14:59:32Z</time>
      </trkpt>
      <trkpt lat="43.38633" lon="-1.65664">
        <ele>5</ele>
        <time>2026-02-12T14:59:33Z</time>
      </trkpt>
      <trkpt lat="43.38654" lon="-1.65636">
        <ele>5</ele>
        <time>2026-02-12T14:59:39Z</time>
      </trkpt>
    </trkseg>
  </trk>
</gpx>